Provisional Data: Blockhouse Creek near English Center, PA


Please select a monitoring station.
Please select start date.
Please select start date.

Toggle Unit: C/F Toggle Unit: C/F
Sample Time Temperature (C) Temperature (F) Specific Conductivity (mS/cm) pH   Turbidity (NTU+) DO (mg/L)
8/1/2022 12:00:00 AM 20.46 68.828 0.155 7.35 2.42 7.65
8/1/2022 12:15:00 AM 20.4 68.72 0.155 7.35 2.62 7.66
8/1/2022 12:30:00 AM 20.35 68.63 0.155 7.35 2.25 7.69
8/1/2022 12:45:00 AM 20.3 68.54 0.154 7.35 6.87 7.71
8/1/2022 1:00:00 AM 20.25 68.45 0.154 7.35 5.65 7.72
8/1/2022 1:15:00 AM 20.2 68.36 0.154 7.34 2.24 7.74
8/1/2022 1:30:00 AM 20.15 68.27 0.154 7.34 2.54 7.75
8/1/2022 1:45:00 AM 20.11 68.198 0.154 7.34 1.99 7.77
8/1/2022 2:00:00 AM 20.06 68.108 0.154 7.34 8.3 7.77
8/1/2022 2:15:00 AM 20.02 68.036 0.154 7.34 8.54 7.79
8/1/2022 2:30:00 AM 19.98 67.964 0.154 7.34 3.86 7.81
8/1/2022 2:45:00 AM 19.95 67.91 0.154 7.34 4.89 7.81
8/1/2022 3:00:00 AM 19.91 67.838 0.154 7.34 2.59 7.81
8/1/2022 3:15:00 AM 19.88 67.784 0.154 7.34 4.38 7.83
8/1/2022 3:30:00 AM 19.86 67.748 0.154 7.34 11.09 7.84
8/1/2022 3:45:00 AM 19.82 67.676 0.154 7.33 5.95 7.84
8/1/2022 4:00:00 AM 19.78 67.604 0.153 7.34 7.71 7.86
8/1/2022 4:15:00 AM 19.74 67.532 0.153 7.33 2.97 7.87
8/1/2022 4:30:00 AM 19.69 67.442 0.153 7.33 6.3 7.9
8/1/2022 4:45:00 AM 19.64 67.352 0.153 7.33 6.01 7.9
8/1/2022 5:00:00 AM 19.58 67.244 0.153 7.33 64.32 7.92
8/1/2022 5:15:00 AM 19.52 67.136 0.153 7.33 3.73 7.93
8/1/2022 5:30:00 AM 19.49 67.082 0.153 7.32 2.53 7.89
8/1/2022 5:45:00 AM 19.46 67.028 0.153 7.32 2.55 7.94
8/1/2022 6:00:00 AM 19.43 66.974 0.153 7.33 2.53 7.95
8/1/2022 6:15:00 AM 19.4 66.92 0.153 7.33 2.45 7.97
8/1/2022 6:30:00 AM 19.37 66.866 0.153 7.33 2.71 8.01
8/1/2022 6:45:00 AM 19.35 66.83 0.153 7.34 2.45 8.03
8/1/2022 7:00:00 AM 19.33 66.794 0.153 7.35 2.32 8.1
8/1/2022 7:15:00 AM 19.32 66.776 0.152 7.37 2.47 8.2
8/1/2022 7:30:00 AM 19.32 66.776 0.152 7.39 2.33 8.29
8/1/2022 7:45:00 AM 19.32 66.776 0.152 7.4 4.71 8.37
8/1/2022 8:00:00 AM 19.37 66.866 0.152 7.43 2.23 8.6
8/1/2022 8:15:00 AM 19.45 67.01 0.151 7.5 2.45 8.89
8/1/2022 8:30:00 AM 19.56 67.208 0.151 7.56 2.42 9.11
8/1/2022 8:45:00 AM 19.71 67.478 0.151 7.6 2.21 9.17
8/1/2022 9:00:00 AM 19.93 67.874 0.15 7.65 2.33 9.17
8/1/2022 9:15:00 AM 20.15 68.27 0.15 7.71 2.34 9.32
8/1/2022 9:30:00 AM 20.27 68.486 0.15 7.76 2.27 9.35
8/1/2022 9:45:00 AM 20.25 68.45 0.149 7.79 2.26 9.34
8/1/2022 10:00:00 AM 20.29 68.522 0.149 7.81 2.27 9.38
8/1/2022 10:15:00 AM 20.48 68.864 0.149 7.9 2.17 9.52
8/1/2022 10:30:00 AM 21.08 69.944 0.148 8.01 2.25 9.65
8/1/2022 10:45:00 AM 20.99 69.782 0.149 8.03 2.24 9.49
8/1/2022 11:00:00 AM 20.78 69.404 0.149 8.03 2.29 9.49
8/1/2022 11:15:00 AM 20.76 69.368 0.148 8.04 2.29 9.47
8/1/2022 11:30:00 AM 21.37 70.466 0.148 8.16 2.12 9.62
8/1/2022 11:45:00 AM 21.85 71.33 0.148 8.27 2.25 9.6
8/1/2022 12:00:00 PM 21.87 71.366 0.148 8.25 2.3 9.59
8/1/2022 12:15:00 PM 21.97 71.546 0.147 8.32 2.28 9.61
8/1/2022 12:30:00 PM 22.16 71.888 0.147 8.38 2.32 9.54
8/1/2022 12:45:00 PM 22.43 72.374 0.147 8.39 2.24 9.47
8/1/2022 1:00:00 PM 22.62 72.716 0.147 8.42 2.29 9.42
8/1/2022 1:15:00 PM 22.92 73.256 0.147 8.44 2.25 9.4
8/1/2022 1:30:00 PM 23.04 73.472 0.147 8.49 2.18 9.44
8/1/2022 1:45:00 PM 23.33 73.994 0.147 8.51 2.28 9.36
8/1/2022 2:00:00 PM 23.7 74.66 0.147 8.56 2.32 9.42
8/1/2022 2:15:00 PM 23.94 75.092 0.146 8.57 2.24 9.36
8/1/2022 2:30:00 PM 24.14 75.452 0.147 8.58 2.27 9.31
8/1/2022 2:45:00 PM 24.38 75.884 0.147 8.58 2.16 9.24
8/1/2022 3:00:00 PM 24.61 76.298 0.147 8.59 2.42 9.19
8/1/2022 3:15:00 PM 24.65 76.37 0.147 8.58 2.58 9.09
8/1/2022 3:30:00 PM 24.75 76.55 0.147 8.57 2.37 9.03
8/1/2022 3:45:00 PM 24.82 76.676 0.147 8.59 2.23 8.96
8/1/2022 4:00:00 PM 25.11 77.198 0.146 8.63 2.22 8.96
8/1/2022 4:15:00 PM 25.4 77.72 0.146 8.68 2.29 8.95
8/1/2022 4:30:00 PM 25.53 77.954 0.147 8.69 2.39 8.84
8/1/2022 4:45:00 PM 25.62 78.116 0.147 8.69 2.49 8.7
8/1/2022 5:00:00 PM 25.63 78.134 0.147 8.68 2.75 8.59
8/1/2022 5:15:00 PM 25.68 78.224 0.147 8.65 2.43 8.43
8/1/2022 5:30:00 PM 25.77 78.386 0.147 8.65 2.47 8.41
8/1/2022 5:45:00 PM 25.87 78.566 0.147 8.66 2.35 8.38
8/1/2022 6:00:00 PM 25.83 78.494 0.148 8.63 2.34 8.24
8/1/2022 6:15:00 PM 25.79 78.422 0.148 8.56 2.32 8.05
8/1/2022 6:30:00 PM 25.77 78.386 0.148 8.47 2.28 7.87
8/1/2022 6:45:00 PM 25.71 78.278 0.149 8.4 2.39 7.83
8/1/2022 7:00:00 PM 25.54 77.972 0.15 8.27 2.42 7.67
8/1/2022 7:15:00 PM 25.33 77.594 0.151 8.07 2.34 7.53
8/1/2022 7:30:00 PM 25.15 77.27 0.151 7.93 2.56 7.45
8/1/2022 7:45:00 PM 24.98 76.964 0.152 7.81 2.34 7.34
8/1/2022 8:00:00 PM 24.78 76.604 0.153 7.69 2.37 7.13
8/1/2022 8:15:00 PM 24.63 76.334 0.154 7.6 2.48 7.02
8/1/2022 8:30:00 PM 24.45 76.01 0.155 7.54 2.51 6.92
8/1/2022 8:45:00 PM 24.24 75.632 0.156 7.49 2.55 6.87
8/1/2022 9:00:00 PM 24.03 75.254 0.156 7.45 2.64 6.87
8/1/2022 9:15:00 PM 23.83 74.894 0.156 7.42 2.55 6.86
8/1/2022 9:30:00 PM 23.63 74.534 0.157 7.4 14.63 6.88
8/1/2022 9:45:00 PM 23.44 74.192 0.157 7.38 11.99 6.88
8/1/2022 10:00:00 PM 23.26 73.868 0.157 7.37 5.33 6.92
8/1/2022 10:15:00 PM 23.09 73.562 0.157 7.36 2.6 6.96
8/1/2022 10:30:00 PM 22.92 73.256 0.157 7.35 2.96 6.99
8/1/2022 10:45:00 PM 22.75 72.95 0.157 7.35 2.6 7.04
8/1/2022 11:00:00 PM 22.6 72.68 0.157 7.34 2.72 7.06
8/1/2022 11:15:00 PM 22.45 72.41 0.157 7.34 2.64 7.11
8/1/2022 11:30:00 PM 22.31 72.158 0.156 7.34 2.45 7.13
8/1/2022 11:45:00 PM 22.17 71.906 0.156 7.33 2.55 7.19
8/2/2022 12:00:00 AM 22.04 71.672 0.156 7.33 2.83 7.21
8/2/2022 12:15:00 AM 21.9 71.42 0.156 7.33 2.58 7.22
8/2/2022 12:30:00 AM 21.78 71.204 0.156 7.33 2.96 7.24
8/2/2022 12:45:00 AM 21.65 70.97 0.156 7.32 2.6 7.29
8/2/2022 1:00:00 AM 21.53 70.754 0.155 7.33 2.67 7.34
8/2/2022 1:15:00 AM 21.41 70.538 0.155 7.32 4.17 7.36
8/2/2022 1:30:00 AM 21.3 70.34 0.155 7.32 3.32 7.37
8/2/2022 1:45:00 AM 21.21 70.17799 0.155 7.32 2.63 7.4
8/2/2022 2:00:00 AM 21.1 69.98 0.155 7.32 2.96 7.44
8/2/2022 2:15:00 AM 21 69.8 0.155 7.32 2.53 7.47
8/2/2022 2:30:00 AM 20.91 69.638 0.155 7.32 2.72 7.48
8/2/2022 2:45:00 AM 20.84 69.512 0.155 7.32 2.85 7.51
8/2/2022 3:00:00 AM 20.76 69.368 0.155 7.32 2.75 7.54
8/2/2022 3:15:00 AM 20.68 69.224 0.155 7.32 2.81 7.57
8/2/2022 3:30:00 AM 20.6 69.08 0.155 7.32 4.4 7.57
8/2/2022 3:45:00 AM 20.54 68.972 0.154 7.32 5.08 7.58
8/2/2022 4:00:00 AM 20.46 68.828 0.154 7.32 3.27 7.6
8/2/2022 4:15:00 AM 20.38 68.684 0.154 7.32 2.24 7.62
8/2/2022 4:30:00 AM 20.32 68.576 0.154 7.32 2.28 7.64
8/2/2022 4:45:00 AM 20.28 68.504 0.154 7.31 6.81 7.64
8/2/2022 5:00:00 AM 20.23 68.414 0.154 7.31 2.27 7.66
8/2/2022 5:15:00 AM 20.17 68.306 0.154 7.32 9.95 7.68
8/2/2022 5:30:00 AM 20.13 68.234 0.153 7.31 5.7 7.69
8/2/2022 5:45:00 AM 20.07 68.126 0.153 7.31 5.18 7.69
8/2/2022 6:00:00 AM 20.02 68.036 0.158 7.32 3.74 7.71
8/2/2022 6:15:00 AM 19.95 67.91 0.153 7.32 3.03 7.75
8/2/2022 6:30:00 AM 19.89 67.802 0.153 7.32 2.96 7.8
8/2/2022 6:45:00 AM 19.84 67.712 0.153 7.34 2.56 7.9
8/2/2022 7:00:00 AM 19.79 67.622 0.153 7.35 2.44 8.03
8/2/2022 7:15:00 AM 19.77 67.586 0.153 7.37 2.26 8.16
8/2/2022 7:30:00 AM 19.75 67.55 0.152 7.39 2.31 8.28
8/2/2022 7:45:00 AM 19.77 67.586 0.152 7.43 2.44 8.47
8/2/2022 8:00:00 AM 19.88 67.784 0.152 7.47 2.2 8.65
8/2/2022 8:15:00 AM 19.98 67.964 0.151 7.51 2.07 8.78
8/2/2022 8:30:00 AM 20.12 68.216 0.151 7.54 2.28 8.92
8/2/2022 8:45:00 AM 20.21 68.378 0.151 7.58 2.24 8.94
8/2/2022 9:00:00 AM 20.32 68.576 0.15 7.62 2.12 9.04
8/2/2022 9:15:00 AM 20.38 68.684 0.15 7.64 2.13 9.07
8/2/2022 9:30:00 AM 20.55 68.99 0.15 7.7 2.14 9.16
8/2/2022 9:45:00 AM 20.93 69.674 0.15 7.78 2.18 9.32
8/2/2022 10:00:00 AM 21.27 70.286 0.15 7.84 2.31 9.34
8/2/2022 10:15:00 AM 21.55 70.79 0.15 7.9 2.28 9.4
8/2/2022 10:30:00 AM 21.8 71.24 0.149 7.93 2.29 9.39
8/2/2022 10:45:00 AM 22.01 71.618 0.149 8 2.36 9.41
8/2/2022 11:00:00 AM 22.36 72.248 0.149 8.05 2.25 9.43
8/2/2022 11:15:00 AM 22.56 72.608 0.148 8.11 2.37 9.41
8/2/2022 11:30:00 AM 22.48 72.464 0.148 8.13 2.21 9.33
8/2/2022 11:45:00 AM 22.61 72.698 0.148 8.18 2.07 9.4
8/2/2022 12:00:00 PM 23.05 73.49 0.148 8.27 2.27 9.44
8/2/2022 12:15:00 PM 23.52 74.336 0.148 8.35 2.34 9.48
8/2/2022 12:30:00 PM 23.59 74.462 0.148 8.36 2.22 9.38
8/2/2022 12:45:00 PM 23.77 74.786 0.148 8.38 2.21 9.39
8/2/2022 1:00:00 PM 23.9 75.02 0.147 8.43 2.35 9.35
8/2/2022 1:15:00 PM 24.29 75.722 0.147 8.47 2.14 9.34
8/2/2022 1:30:00 PM 24.64 76.352 0.147 8.53 2.23 9.35
8/2/2022 1:45:00 PM 24.82 76.676 0.147 8.54 2.17 9.29
8/2/2022 2:00:00 PM 24.6 76.28 0.147 8.5 2.16 9.07
8/2/2022 2:15:00 PM 24.81 76.658 0.146 8.54 2.21 9.14
8/2/2022 2:30:00 PM 24.93 76.874 0.146 8.55 2.15 9.01
8/2/2022 2:45:00 PM 24.95 76.91 0.146 8.57 2.33 8.95
8/2/2022 3:00:00 PM 25.17 77.306 0.146 8.58 2.1 8.97
8/2/2022 3:15:00 PM 25.19 77.342 0.146 8.56 2.3 8.85
8/2/2022 3:30:00 PM 25.21 77.378 0.146 8.52 2.38 8.72
8/2/2022 3:45:00 PM 25.56 78.008 0.146 8.57 2.24 8.78
8/2/2022 4:00:00 PM 25.77 78.386 0.146 8.59 2.48 8.72
8/2/2022 4:15:00 PM 25.85 78.53 0.147 8.56 2.16 8.64
8/2/2022 4:30:00 PM 25.9 78.62 0.147 8.54 2.47 8.58
8/2/2022 4:45:00 PM 25.85 78.53 0.147 8.52 2.31 8.45
8/2/2022 5:00:00 PM 25.87 78.566 0.147 8.48 2.18 8.31
8/2/2022 5:15:00 PM 25.89 78.602 0.147 8.45 2.49 8.22
8/2/2022 5:30:00 PM 25.87 78.566 0.148 8.4 2.8 8.08
8/2/2022 5:45:00 PM 25.86 78.548 0.148 8.35 2.21 7.99
8/2/2022 6:00:00 PM 25.75 78.35 0.148 8.3 2.4 7.88
8/2/2022 6:15:00 PM 25.65 78.17 0.148 8.19 2.83 7.7
8/2/2022 6:30:00 PM 25.59 78.062 0.149 8.11 2.49 7.57
8/2/2022 6:45:00 PM 25.53 77.954 0.149 8.01 2.37 7.46
8/2/2022 7:00:00 PM 25.43 77.774 0.15 7.91 2.5 7.34
8/2/2022 7:15:00 PM 25.22 77.396 0.151 7.8 2.32 7.23
8/2/2022 7:30:00 PM 25.09 77.162 0.152 7.7 2.24 7.1
8/2/2022 7:45:00 PM 24.93 76.874 0.153 7.61 2.49 6.99
8/2/2022 8:00:00 PM 24.74 76.532 0.154 7.55 2.36 6.93
8/2/2022 8:15:00 PM 24.56 76.208 0.155 7.51 2.69 6.88
8/2/2022 8:30:00 PM 24.38 75.884 0.155 7.47 3.18 6.81
8/2/2022 8:45:00 PM 24.17 75.506 0.156 7.43 2.54 6.79
8/2/2022 9:00:00 PM 23.98 75.164 0.157 7.4 2.63 6.76
8/2/2022 9:15:00 PM 23.76 74.768 0.157 7.39 2.92 6.76
8/2/2022 9:30:00 PM 23.51 74.318 0.158 7.37 2.59 6.79
8/2/2022 9:45:00 PM 23.27 73.886 0.158 7.36 2.65 6.83
8/2/2022 10:00:00 PM 23.01 73.418 0.158 7.35 2.43 6.89
8/2/2022 10:15:00 PM 22.78 73.004 0.158 7.34 2.78 6.93
8/2/2022 10:30:00 PM 22.55 72.59 0.158 7.34 3.28 6.98
8/2/2022 10:45:00 PM 22.32 72.176 0.158 7.33 2.65 7.03
8/2/2022 11:00:00 PM 22.13 71.834 0.157 7.32 5.27 7.06
8/2/2022 11:15:00 PM 21.91 71.438 0.157 7.32 2.54 7.12
8/2/2022 11:30:00 PM 21.73 71.114 0.157 7.32 2.46 7.16
8/2/2022 11:45:00 PM 21.56 70.808 0.157 7.32 2.6 7.22
8/3/2022 12:00:00 AM 21.39 70.502 0.156 7.31 2.58 7.25
8/3/2022 12:15:00 AM 21.22 70.196 0.156 7.31 2.8 7.3
8/3/2022 12:30:00 AM 21.05 69.89 0.156 7.31 2.62 7.3
8/3/2022 12:45:00 AM 20.88 69.584 0.156 7.31 4.86 7.38
8/3/2022 1:00:00 AM 20.74 69.332 0.156 7.31 2.93 7.41
8/3/2022 1:15:00 AM 20.59 69.062 0.155 7.31 6.4 7.45
8/3/2022 1:30:00 AM 20.45 68.81 0.155 7.3 2.52 7.47
8/3/2022 1:45:00 AM 20.31 68.558 0.155 7.31 2.69 7.52
8/3/2022 2:00:00 AM 20.17 68.306 0.155 7.31 2.94 7.55
8/3/2022 2:15:00 AM 20.02 68.036 0.155 7.31 2.17 7.61
8/3/2022 2:30:00 AM 19.89 67.802 0.155 7.31 2.27 7.63
8/3/2022 2:45:00 AM 19.76 67.568 0.155 7.3 2.89 7.64
8/3/2022 3:00:00 AM 19.64 67.352 0.155 7.31 79.19 7.7
8/3/2022 3:15:00 AM 19.5 67.1 0.155 7.31 3.26 7.72
8/3/2022 3:30:00 AM 19.38 66.884 0.155 7.31 2.39 7.77
8/3/2022 3:45:00 AM 19.26 66.668 0.154 7.31 2.19 7.79
8/3/2022 4:00:00 AM 19.13 66.434 0.154 7.31 2.27 7.83
8/3/2022 4:15:00 AM 19.01 66.218 0.154 7.31 2.09 7.88
8/3/2022 4:30:00 AM 18.89 66.002 0.154 7.31 7.9 7.9
8/3/2022 4:45:00 AM 18.78 65.804 0.154 7.31 2.59 7.93
8/3/2022 5:00:00 AM 18.67 65.606 0.154 7.31 2.34 7.96
8/3/2022 5:15:00 AM 18.55 65.39 0.154 7.31 2.44 7.98
8/3/2022 5:30:00 AM 18.44 65.192 0.154 7.31 2.47 8.02
8/3/2022 5:45:00 AM 18.32 64.976 0.153 7.31 2.8 8.03
8/3/2022 6:00:00 AM 18.21 64.778 0.153 7.31 10.89 8.06
8/3/2022 6:15:00 AM 18.11 64.598 0.152 7.31 373.39 8.1
8/3/2022 6:30:00 AM 18.01 64.418 0.153 7.31 7.81 8.17
8/3/2022 6:45:00 AM 17.91 64.238 0.153 7.32 3.08 8.25
8/3/2022 7:00:00 AM 17.84 64.112 0.153 7.34 2.55 8.35
8/3/2022 7:15:00 AM 17.75 63.95 0.153 7.35 7.79 8.45
8/3/2022 7:30:00 AM 17.72 63.896 0.152 7.36 5.83 8.58
8/3/2022 7:45:00 AM 17.71 63.878 0.152 7.39 5.54 8.74
8/3/2022 8:00:00 AM 17.82 64.076 0.152 7.42 5.05 8.92
8/3/2022 8:15:00 AM 17.94 64.292 0.151 7.46 4.37 9.11
8/3/2022 8:30:00 AM 18.07 64.526 0.151 7.49 5.12 9.22
8/3/2022 8:45:00 AM 18.21 64.778 0.151 7.53 3.35 9.31
8/3/2022 9:00:00 AM 18.4 65.12 0.15 7.56 6 9.38
8/3/2022 9:15:00 AM 18.64 65.552 0.15 7.58 5.53 9.43
8/3/2022 9:30:00 AM 18.92 66.056 0.15 7.62 6.47 9.5
8/3/2022 9:45:00 AM 19.25 66.65 0.15 7.68 3.04 9.56
8/3/2022 10:00:00 AM 19.62 67.316 0.149 7.65 2.26 9.54
8/3/2022 10:15:00 AM 19.97 67.946 0.15 7.73 3.54 9.54
8/3/2022 10:30:00 AM 20.3 68.54 0.15 7.81 4.76 9.59
8/3/2022 10:45:00 AM 20.64 69.152 0.149 7.82 4.18 9.56
8/3/2022 11:00:00 AM 20.96 69.728 0.15 7.89 2.25 9.62
8/3/2022 11:15:00 AM 21.28 70.304 0.149 7.92 2.15 9.6
8/3/2022 11:30:00 AM 21.56 70.808 0.149 7.98 2.4 9.59
8/3/2022 11:45:00 AM 21.84 71.312 0.149 8 2.54 9.57
8/3/2022 12:00:00 PM 22.13 71.834 0.149 8.05 2.2 9.57
8/3/2022 12:15:00 PM 22.38 72.284 0.149 8.07 2.32 9.55
8/3/2022 12:30:00 PM 22.62 72.716 0.149 8.1 2.21 9.52
8/3/2022 12:45:00 PM 22.8 73.04 0.149 8.12 2.14 9.51
8/3/2022 1:00:00 PM 23.03 73.454 0.149 8.11 2.7 9.44
8/3/2022 1:15:00 PM 23.18 73.724 0.149 8.15 2.3 9.35
8/3/2022 1:30:00 PM 23.32 73.976 0.149 8.15 2.33 9.38
8/3/2022 1:45:00 PM 23.51 74.318 0.149 8.18 2.2 9.35
8/3/2022 2:00:00 PM 23.67 74.606 0.148 8.2 2.3 9.3
8/3/2022 2:15:00 PM 23.84 74.912 0.148 8.21 2.37 9.25
8/3/2022 2:30:00 PM 24.01 75.218 0.147 8.23 2.27 9.15
8/3/2022 2:45:00 PM 24.24 75.632 0.147 8.24 2.28 9.11
8/3/2022 3:00:00 PM 24.34 75.812 0.147 8.25 2.21 9.11
8/3/2022 3:15:00 PM 24.5 76.1 0.147 8.21 2.47 8.97
8/3/2022 3:30:00 PM 24.65 76.37 0.147 8.22 2.22 8.78
8/3/2022 3:45:00 PM 24.78 76.604 0.146 8.27 2.33 8.93
8/3/2022 4:00:00 PM 24.91 76.838 0.146 8.26 2.6 8.85
8/3/2022 4:15:00 PM 25.03 77.054 0.146 8.27 2.34 8.78
8/3/2022 4:30:00 PM 25.14 77.252 0.146 8.27 2.44 8.69
8/3/2022 4:45:00 PM 25.17 77.306 0.146 8.25 2.35 8.57
8/3/2022 5:00:00 PM 25.2 77.36 0.146 8.23 2.37 8.42
8/3/2022 5:15:00 PM 25.28 77.504 0.145 8.22 2.53 8.34
8/3/2022 5:30:00 PM 25.37 77.666 0.146 8.15 2.55 8.2
8/3/2022 5:45:00 PM 25.42 77.756 0.145 8.11 4.64 8.08
8/3/2022 6:00:00 PM 25.45 77.81 0.146 8.07 5.25 7.89
8/3/2022 6:15:00 PM 25.44 77.792 0.145 8.01 10.69 7.74
8/3/2022 6:30:00 PM 25.49 77.882 0.147 7.97 2.31 7.61
8/3/2022 6:45:00 PM 25.55 77.99 0.147 7.89 2.29 7.46
8/3/2022 7:00:00 PM 25.54 77.972 0.148 7.81 2.29 7.32
8/3/2022 7:15:00 PM 25.53 77.954 0.149 7.71 2.69 7.16
8/3/2022 7:30:00 PM 25.44 77.792 0.15 7.64 2.78 7.03
8/3/2022 7:45:00 PM 25.29 77.522 0.151 7.55 2.59 6.88
8/3/2022 8:00:00 PM 25.14 77.252 0.152 7.49 3.07 6.75
8/3/2022 8:15:00 PM 24.98 76.964 0.153 7.46 2.72 6.68
8/3/2022 8:30:00 PM 24.83 76.694 0.154 7.42 2.97 6.62
8/3/2022 8:45:00 PM 24.68 76.424 0.155 7.38 2.48 6.55
8/3/2022 9:00:00 PM 24.51 76.118 0.156 7.36 2.61 6.55
8/3/2022 9:15:00 PM 24.33 75.794 0.156 7.35 2.56 6.54
8/3/2022 9:30:00 PM 24.14 75.452 0.157 7.33 2.59 6.54
8/3/2022 9:45:00 PM 23.94 75.092 0.157 7.33 2.68 6.6
8/3/2022 10:00:00 PM 23.74 74.732 0.157 7.32 2.61 6.64
8/3/2022 10:15:00 PM 23.54 74.372 0.157 7.31 2.74 6.66
8/3/2022 10:30:00 PM 23.34 74.012 0.158 7.31 2.63 6.72
8/3/2022 10:45:00 PM 23.15 73.67 0.158 7.3 2.61 6.77
8/3/2022 11:00:00 PM 22.96 73.328 0.157 7.29 6.49 6.7
8/3/2022 11:15:00 PM 22.79 73.022 0.157 7.29 8.44 6.81
8/3/2022 11:30:00 PM 22.62 72.716 0.157 7.29 2.9 6.88
8/3/2022 11:45:00 PM 22.46 72.42799 0.157 7.29 2.56 6.92
8/4/2022 12:00:00 AM 22.3 72.14 0.157 7.29 2.74 6.96
8/4/2022 12:15:00 AM 22.14 71.852 0.156 7.29 4.81 7.01
8/4/2022 12:30:00 AM 22 71.6 0.156 7.28 4.25 7.01
8/4/2022 12:45:00 AM 21.85 71.33 0.156 7.28 6.36 7.05
8/4/2022 1:00:00 AM 21.72 71.096 0.156 7.28 2.73 7.07
8/4/2022 1:15:00 AM 21.59 70.862 0.156 7.28 2.53 7.15
8/4/2022 1:30:00 AM 21.46 70.628 0.156 7.28 2.38 7.19
8/4/2022 1:45:00 AM 21.35 70.43 0.156 7.28 2.43 7.2
8/4/2022 2:00:00 AM 21.24 70.232 0.155 7.28 3.99 7.23
8/4/2022 2:15:00 AM 21.13 70.034 0.155 7.28 2.88 7.28
8/4/2022 2:30:00 AM 21.03 69.854 0.155 7.28 2.51 7.29
8/4/2022 2:45:00 AM 20.92 69.656 0.155 7.28 2.53 7.33
8/4/2022 3:00:00 AM 20.81 69.458 0.155 7.28 5.8 7.35
8/4/2022 3:15:00 AM 20.72 69.296 0.155 7.28 8.33 7.38
8/4/2022 3:30:00 AM 20.63 69.134 0.155 7.28 2.41 7.41
8/4/2022 3:45:00 AM 20.53 68.954 0.155 7.28 2.33 7.44
8/4/2022 4:00:00 AM 20.44 68.792 0.155 7.28 2.59 7.46
8/4/2022 4:15:00 AM 20.35 68.63 0.155 7.28 7.4 7.47
8/4/2022 4:30:00 AM 20.26 68.468 0.154 7.28 4.05 7.51
8/4/2022 4:45:00 AM 20.18 68.324 0.154 7.28 2.39 7.54
8/4/2022 5:00:00 AM 20.09 68.162 0.154 7.28 2.39 7.55
8/4/2022 5:15:00 AM 20.01 68.018 0.154 7.29 2.62 7.59
8/4/2022 5:30:00 AM 19.93 67.874 0.154 7.29 2.45 7.61
8/4/2022 5:45:00 AM 19.85 67.73 0.154 7.29 2.36 7.63
8/4/2022 6:00:00 AM 19.77 67.586 0.154 7.28 2.55 7.64
8/4/2022 6:15:00 AM 19.7 67.46 0.153 7.28 2.68 7.67
8/4/2022 6:30:00 AM 19.64 67.352 0.153 7.29 2.56 7.74
8/4/2022 6:45:00 AM 19.58 67.244 0.153 7.3 2.6 7.83
8/4/2022 7:00:00 AM 19.52 67.136 0.153 7.31 2.45 7.94
8/4/2022 7:15:00 AM 19.49 67.082 0.153 7.33 2.48 8.07
8/4/2022 7:30:00 AM 19.48 67.064 0.152 7.35 2.66 8.21
8/4/2022 7:45:00 AM 19.49 67.082 0.152 7.38 2.38 8.37
8/4/2022 8:00:00 AM 19.59 67.262 0.152 7.41 2.8 8.57
8/4/2022 8:15:00 AM 19.72 67.496 0.151 7.44 2.4 8.74
8/4/2022 8:30:00 AM 19.87 67.766 0.151 7.49 2.38 8.86
8/4/2022 8:45:00 AM 20.03 68.054 0.151 7.53 2.3 8.98
8/4/2022 9:00:00 AM 20.22 68.396 0.15 7.57 2.29 9.1
8/4/2022 9:15:00 AM 20.46 68.828 0.15 7.61 2.3 9.16
8/4/2022 9:30:00 AM 20.76 69.368 0.15 7.65 2.52 9.25
8/4/2022 9:45:00 AM 21.09 69.962 0.149 7.7 2.4 9.29
8/4/2022 10:00:00 AM 21.49 70.682 0.149 7.76 2.31 9.35
8/4/2022 10:15:00 AM 21.87 71.366 0.149 7.8 2.37 9.34
8/4/2022 10:30:00 AM 22.22 71.996 0.149 7.85 2.32 9.37
8/4/2022 10:45:00 AM 22.58 72.644 0.149 7.92 2.77 9.37
8/4/2022 11:00:00 AM 22.95 73.31 0.149 7.96 2.35 9.39
8/4/2022 11:15:00 AM 23.29 73.922 0.149 8 2.41 9.39
8/4/2022 11:30:00 AM 23.49 74.282 0.149 8.06 2.29 9.39
8/4/2022 11:45:00 AM 23.59 74.462 0.149 8.07 2.32 9.32
8/4/2022 12:00:00 PM 24.04 75.272 0.149 8.13 2.36 9.35
8/4/2022 12:15:00 PM 24.43 75.974 0.148 8.21 2.24 9.4
8/4/2022 12:30:00 PM 24.65 76.37 0.149 8.25 2.46 9.36
8/4/2022 12:45:00 PM 24.66 76.388 0.149 8.26 2.44 9.29
8/4/2022 1:00:00 PM 24.67 76.406 0.148 8.3 2.19 9.31
8/4/2022 1:15:00 PM 24.99 76.982 0.148 8.36 2.31 9.35
8/4/2022 1:30:00 PM 24.9 76.82 0.147 8.4 2.24 9.28
8/4/2022 1:45:00 PM 24.7 76.46 0.147 8.4 2.7 9.14
8/4/2022 2:00:00 PM 24.59 76.262 0.147 8.28 2.49 8.9
8/4/2022 2:15:00 PM 24.51 76.118 0.146 8.35 2.4 9.07
8/4/2022 2:30:00 PM 24.52 76.136 0.146 8.43 2.44 9.13
8/4/2022 2:45:00 PM 24.41 75.938 0.146 8.46 4.01 9.07
8/4/2022 3:00:00 PM 24.35 75.83 0.145 8.49 2.6 9.09
8/4/2022 3:15:00 PM 24.23 75.614 0.145 8.53 2.26 9.06
8/4/2022 3:30:00 PM 24.18 75.524 0.145 8.52 2.73 9.01
8/4/2022 3:45:00 PM 24.09 75.362 0.145 8.47 2.36 8.8
8/4/2022 4:00:00 PM 23.99 75.182 0.145 8.32 2.37 8.44
8/4/2022 4:15:00 PM 23.93 75.074 0.145 8.22 2.56 8.3
8/4/2022 4:30:00 PM 23.95 75.11 0.145 8.18 2.86 8.26
8/4/2022 4:45:00 PM 24.02 75.236 0.145 8.19 2.68 8.39
8/4/2022 5:00:00 PM 24.11 75.398 0.145 8.26 2.62 8.56
8/4/2022 5:15:00 PM 24.24 75.632 0.145 8.3 2.42 8.65
8/4/2022 5:30:00 PM 24.35 75.83 0.145 8.33 2.38 8.68
8/4/2022 5:45:00 PM 24.37 75.866 0.145 8.35 2.53 8.65
8/4/2022 6:00:00 PM 24.38 75.884 0.146 8.33 2.47 8.59
8/4/2022 6:15:00 PM 24.32 75.776 0.146 8.26 2.68 8.42
8/4/2022 6:30:00 PM 24.29 75.722 0.147 8.15 2.4 8.26
8/4/2022 6:45:00 PM 24.34 75.812 0.147 8.1 2.44 8.22
8/4/2022 7:00:00 PM 24.34 75.812 0.148 8.01 2.5 8.07
8/4/2022 7:15:00 PM 24.28 75.704 0.148 7.91 2.39 7.94
8/4/2022 7:30:00 PM 24.22 75.596 0.149 7.81 2.58 7.76
8/4/2022 7:45:00 PM 24.15 75.47 0.149 7.7 2.87 7.51
8/4/2022 8:00:00 PM 24.09 75.362 0.15 7.62 2.62 7.37
8/4/2022 8:15:00 PM 24.03 75.254 0.15 7.55 2.52 7.2
8/4/2022 8:30:00 PM 23.96 75.128 0.151 7.49 2.55 7.01
8/4/2022 8:45:00 PM 23.87 74.966 0.152 7.44 3.4 6.9
8/4/2022 9:00:00 PM 23.78 74.804 0.153 7.4 2.72 6.81
8/4/2022 9:15:00 PM 23.69 74.642 0.154 7.38 2.75 6.77
8/4/2022 9:30:00 PM 23.57 74.426 0.154 7.35 4.17 6.67
8/4/2022 9:45:00 PM 23.46 74.228 0.155 7.33 7.66 6.73
8/4/2022 10:00:00 PM 23.34 74.012 0.154 7.32 9.61 6.75
8/4/2022 10:15:00 PM 23.22 73.796 0.155 7.31 2.86 6.73
8/4/2022 10:30:00 PM 23.1 73.58 0.156 7.31 2.54 6.77
8/4/2022 10:45:00 PM 23 73.4 0.156 7.3 2.64 6.8
8/4/2022 11:00:00 PM 22.91 73.238 0.156 7.3 3.15 6.82
8/4/2022 11:15:00 PM 22.82 73.076 0.156 7.29 2.49 6.86
8/4/2022 11:30:00 PM 22.72 72.896 0.156 7.29 2.78 6.83
8/4/2022 11:45:00 PM 22.61 72.698 0.156 7.29 2.38 6.88
8/5/2022 12:00:00 AM 22.52 72.536 0.156 7.29 2.89 6.92
8/5/2022 12:15:00 AM 22.44 72.392 0.156 7.28 2.32 6.93
8/5/2022 12:30:00 AM 22.36 72.248 0.156 7.28 2.76 6.95
8/5/2022 12:45:00 AM 22.28 72.104 0.156 7.28 2.69 7
8/5/2022 1:00:00 AM 22.19 71.942 0.155 7.27 3.31 6.99
8/5/2022 1:15:00 AM 22.11 71.798 0.155 7.28 2.48 7.05
8/5/2022 1:30:00 AM 22.04 71.672 0.155 7.27 4.68 7.07
8/5/2022 1:45:00 AM 21.97 71.546 0.155 7.27 8.7 7.07
8/5/2022 2:00:00 AM 21.87 71.366 0.155 7.27 2.56 7.1
8/5/2022 2:15:00 AM 21.79 71.222 0.155 7.27 11.44 7.11
8/5/2022 2:30:00 AM 21.7 71.06 0.155 7.27 9.78 7.16
8/5/2022 2:45:00 AM 21.63 70.934 0.155 7.27 2.87 7.18
8/5/2022 3:00:00 AM 21.57 70.826 0.155 7.27 2.29 7.21
8/5/2022 3:15:00 AM 21.5 70.7 0.155 7.27 2.42 7.22
8/5/2022 3:30:00 AM 21.43 70.574 0.155 7.27 2.52 7.24
8/5/2022 3:45:00 AM 21.37 70.466 0.155 7.27 2.99 7.26
8/5/2022 4:00:00 AM 21.32 70.376 0.155 7.28 2.28 7.27
8/5/2022 4:15:00 AM 21.27 70.286 0.155 7.27 2.38 7.29
8/5/2022 4:30:00 AM 21.23 70.214 0.155 7.27 5.8 7.3
8/5/2022 4:45:00 AM 21.19 70.142 0.154 7.27 3.96 7.31
8/5/2022 5:00:00 AM 21.14 70.052 0.154 7.28 3.22 7.34
8/5/2022 5:15:00 AM 21.1 69.98 0.154 7.28 6.43 7.34
8/5/2022 5:30:00 AM 21.05 69.89 0.154 7.28 4.19 7.38
8/5/2022 5:45:00 AM 21 69.8 0.154 7.28 2.56 7.4
8/5/2022 6:00:00 AM 20.94 69.692 0.154 7.28 2.71 7.42
8/5/2022 6:15:00 AM 20.88 69.584 0.154 7.28 2.45 7.43
8/5/2022 6:30:00 AM 20.82 69.476 0.154 7.28 2.52 7.48
8/5/2022 6:45:00 AM 20.78 69.404 0.153 7.29 2.42 7.56
8/5/2022 7:00:00 AM 20.74 69.332 0.153 7.31 2.78 7.68
8/5/2022 7:15:00 AM 20.72 69.296 0.153 7.33 2.4 7.82
8/5/2022 7:30:00 AM 20.71 69.278 0.152 7.35 2.74 7.99
8/5/2022 7:45:00 AM 20.75 69.35 0.152 7.39 2.6 8.21
8/5/2022 8:00:00 AM 20.89 69.602 0.151 7.44 2.47 8.52
8/5/2022 8:15:00 AM 20.97 69.746 0.151 7.49 3.07 8.72
8/5/2022 8:30:00 AM 21.01 69.818 0.151 7.53 2.56 8.81
8/5/2022 8:45:00 AM 21.05 69.89 0.15 7.55 2.5 8.83
8/5/2022 9:00:00 AM 21.16 70.088 0.15 7.6 2.5 8.98
8/5/2022 9:15:00 AM 21.37 70.466 0.149 7.68 2.61 9.2
8/5/2022 9:30:00 AM 21.5 70.7 0.149 7.75 2.22 9.34
8/5/2022 9:45:00 AM 21.61 70.898 0.149 7.8 2.53 9.36
8/5/2022 10:00:00 AM 21.69 71.042 0.148 7.85 2.4 9.35
8/5/2022 10:15:00 AM 21.79 71.222 0.148 7.9 2.32 9.38
8/5/2022 10:30:00 AM 21.85 71.33 0.148 7.92 2.53 9.34
8/5/2022 10:45:00 AM 21.88 71.384 0.147 7.89 2.45 9.18
8/5/2022 11:00:00 AM 21.93 71.474 0.147 7.88 2.35 9.12
8/5/2022 11:15:00 AM 21.98 71.564 0.147 7.88 2.21 9.1
8/5/2022 11:30:00 AM 22.03 71.654 0.147 7.88 2.3 9.06
8/5/2022 11:45:00 AM 22.1 71.78 0.147 7.9 2.27 9.08
8/5/2022 12:00:00 PM 22.19 71.942 0.147 7.94 2.22 9.15
8/5/2022 12:15:00 PM 22.32 72.176 0.147 8 2.66 9.23
8/5/2022 12:30:00 PM 22.46 72.42799 0.147 8.08 2.53 9.31
8/5/2022 12:45:00 PM 22.65 72.77 0.146 8.16 2.2 9.4
8/5/2022 1:00:00 PM 22.83 73.094 0.146 8.25 2.39 9.49
8/5/2022 1:15:00 PM 23.02 73.436 0.146 8.34 2.49 9.51
8/5/2022 1:30:00 PM 23.25 73.85 0.146 8.43 2.47 9.55
8/5/2022 1:45:00 PM 23.57 74.426 0.146 8.51 2.35 9.59
8/5/2022 2:00:00 PM 24.12 75.416 0.145 8.58 2.43 9.58
8/5/2022 2:15:00 PM 24.69 76.442 0.145 8.62 2.86 9.47
8/5/2022 2:30:00 PM 24.76 76.568 0.145 8.61 2.76 9.26
8/5/2022 2:45:00 PM 24.68 76.424 0.145 8.55 2.56 9.09
8/5/2022 3:00:00 PM 25.17 77.306 0.145 8.58 2.31 9.1
8/5/2022 3:15:00 PM 25.41 77.738 0.145 8.59 2.74 9.01
8/5/2022 3:30:00 PM 25.38 77.684 0.145 8.56 2.48 8.85
8/5/2022 3:45:00 PM 25.26 77.468 0.145 8.52 2.92 8.74
8/5/2022 4:00:00 PM 25.59 78.062 0.145 8.53 2.34 8.78
8/5/2022 4:15:00 PM 25.86 78.548 0.145 8.56 2.51 8.8
8/5/2022 4:30:00 PM 26.04 78.872 0.145 8.56 2.65 8.76
8/5/2022 4:45:00 PM 26.08 78.944 0.146 8.57 2.52 8.69
8/5/2022 5:00:00 PM 25.95 78.71 0.146 8.5 2.46 8.51
8/5/2022 5:15:00 PM 26.01 78.818 0.146 8.47 2.44 8.43
8/5/2022 5:30:00 PM 26.12 79.016 0.146 8.47 2.6 8.36
8/5/2022 5:45:00 PM 26.17 79.106 0.146 8.45 2.51 8.31
8/5/2022 6:00:00 PM 26.25 79.25 0.146 8.45 2.46 8.32
8/5/2022 6:15:00 PM 26.19 79.142 0.147 8.4 2.5 8.15
8/5/2022 6:30:00 PM 26.03 78.854 0.147 8.23 2.57 7.76
8/5/2022 6:45:00 PM 25.92 78.656 0.148 8.02 2.52 7.46
8/5/2022 7:00:00 PM 25.86 78.548 0.148 7.91 2.64 7.39
8/5/2022 7:15:00 PM 25.75 78.35 0.149 7.78 2.69 7.19
8/5/2022 7:30:00 PM 25.58 78.044 0.15 7.66 2.56 6.95
8/5/2022 7:45:00 PM 25.4 77.72 0.15 7.57 2.53 6.82
8/5/2022 8:00:00 PM 25.23 77.414 0.151 7.51 3.09 6.74
8/5/2022 8:15:00 PM 25.08 77.144 0.152 7.47 2.63 6.66
8/5/2022 8:30:00 PM 24.93 76.874 0.153 7.43 3.01 6.6
8/5/2022 8:45:00 PM 24.78 76.604 0.154 7.39 2.88 6.55
8/5/2022 9:00:00 PM 24.63 76.334 0.155 7.37 2.85 6.56
8/5/2022 9:15:00 PM 24.45 76.01 0.156 7.36 2.98 6.6
8/5/2022 9:30:00 PM 24.29 75.722 0.156 7.34 2.62 6.61
8/5/2022 9:45:00 PM 24.14 75.452 0.156 7.33 2.86 6.61
8/5/2022 10:00:00 PM 23.99 75.182 0.156 7.32 2.67 6.62
8/5/2022 10:15:00 PM 23.84 74.912 0.156 7.31 3.09 6.68
8/5/2022 10:30:00 PM 23.7 74.66 0.157 7.31 2.83 6.69
8/5/2022 10:45:00 PM 23.57 74.426 0.157 7.3 3 6.7
8/5/2022 11:00:00 PM 23.45 74.21 0.157 7.3 2.98 6.76
8/5/2022 11:15:00 PM 23.33 73.994 0.156 7.28 3.69 6.76
8/5/2022 11:30:00 PM 23.23 73.814 0.156 7.28 5.64 6.75
8/5/2022 11:45:00 PM 23.13 73.634 0.156 7.28 6.24 6.77
8/6/2022 12:00:00 AM 23.03 73.454 0.156 7.28 7.77 6.8
8/6/2022 12:15:00 AM 22.94 73.292 0.156 7.27 9.22 6.83
8/6/2022 12:30:00 AM 22.86 73.148 0.155 7.26 12.84 6.84
8/6/2022 12:45:00 AM 22.78 73.004 0.156 7.27 7.47 6.87
8/6/2022 1:00:00 AM 22.7 72.86 0.156 7.27 5.4 6.92
8/6/2022 1:15:00 AM 22.61 72.698 0.155 7.27 5.01 6.93
8/6/2022 1:30:00 AM 22.52 72.536 0.156 7.27 5.69 6.95
8/6/2022 1:45:00 AM 22.18 71.924 0.156 7.39 31.94 8
8/6/2022 2:00:00 AM 22.06 71.708 0.16 7.41 21.34 8.11
8/6/2022 2:15:00 AM 22.24 72.032 0.164 7.44 18.13 8.1
8/6/2022 2:30:00 AM 22.38 72.284 0.166 7.45 14.39 8.08
8/6/2022 2:45:00 AM 22.37 72.266 0.168 7.46 15.55 8.09
8/6/2022 3:00:00 AM 22.28 72.104 0.168 7.47 11.84 8.11
8/6/2022 3:15:00 AM 22.16 71.888 0.169 7.47 13.62 8.12
8/6/2022 3:30:00 AM 22.07 71.726 0.17 7.47 10.99 8.13
8/6/2022 3:45:00 AM 21.99 71.582 0.171 7.47 12.27 8.14
8/6/2022 4:00:00 AM 21.94 71.492 0.172 7.47 8.06 8.14
8/6/2022 4:15:00 AM 21.89 71.402 0.173 7.47 11.05 8.14
8/6/2022 4:30:00 AM 21.86 71.348 0.174 7.47 8.14 8.13
8/6/2022 4:45:00 AM 21.82 71.276 0.175 7.47 7.11 8.13
8/6/2022 5:00:00 AM 21.79 71.222 0.175 7.47 10.24 8.14
8/6/2022 5:15:00 AM 21.76 71.168 0.176 7.47 6.37 8.14
8/6/2022 5:30:00 AM 21.72 71.096 0.176 7.48 6.72 8.14
8/6/2022 5:45:00 AM 21.68 71.024 0.176 7.47 6.35 8.15
8/6/2022 6:00:00 AM 21.64 70.952 0.176 7.47 6.02 8.15
8/6/2022 6:15:00 AM 21.61 70.898 0.176 7.48 6.24 8.16
8/6/2022 6:30:00 AM 21.58 70.844 0.176 7.48 6.1 8.18
8/6/2022 6:45:00 AM 21.54 70.772 0.176 7.48 5.58 8.2
8/6/2022 7:00:00 AM 21.52 70.736 0.176 7.49 6.29 8.24
8/6/2022 7:15:00 AM 21.51 70.718 0.176 7.51 6.32 8.29
8/6/2022 7:30:00 AM 21.5 70.7 0.175 7.52 5.73 8.35
8/6/2022 7:45:00 AM 21.51 70.718 0.174 7.54 5.95 8.41
8/6/2022 8:00:00 AM 21.53 70.754 0.173 7.55 6.08 8.49
8/6/2022 8:15:00 AM 21.55 70.79 0.172 7.57 5.79 8.56
8/6/2022 8:30:00 AM 21.6 70.88 0.171 7.6 5.76 8.64
8/6/2022 8:45:00 AM 21.65 70.97 0.17 7.63 5.39 8.71
8/6/2022 9:00:00 AM 21.7 71.06 0.168 7.65 5.38 8.73
8/6/2022 9:15:00 AM 21.75 71.15 0.167 7.66 5.43 8.75
8/6/2022 9:30:00 AM 21.89 71.402 0.166 7.71 5.44 8.89
8/6/2022 9:45:00 AM 21.97 71.546 0.165 7.75 7.31 8.93
8/6/2022 10:00:00 AM 22.09 71.762 0.165 7.79 5.26 9.02
8/6/2022 10:15:00 AM 22.22 71.996 0.164 7.84 5.11 9.08
8/6/2022 10:30:00 AM 22.34 72.212 0.163 7.89 5.41 9.14
8/6/2022 10:45:00 AM 22.44 72.392 0.163 7.93 4.76 9.16
8/6/2022 11:00:00 AM 22.76 72.968 0.162 7.99 5.04 9.23
8/6/2022 11:15:00 AM 23.05 73.49 0.162 8.03 4.99 9.19
8/6/2022 11:30:00 AM 23.28 73.904 0.162 8.04 5.08 9.13
8/6/2022 11:45:00 AM 23.26 73.868 0.162 8.04 4.49 9.08
8/6/2022 12:00:00 PM 23.22 73.796 0.161 8.04 4.42 9.05
8/6/2022 12:15:00 PM 23.27 73.886 0.161 8.09 4.35 9.14
8/6/2022 12:30:00 PM 23.61 74.498 0.161 8.17 4.21 9.22
8/6/2022 12:45:00 PM 23.75 74.75 0.16 8.22 4.21 9.22
8/6/2022 1:00:00 PM 24.02 75.236 0.16 8.25 4.46 9.18
8/6/2022 1:15:00 PM 24.35 75.83 0.16 8.28 4.06 9.11
8/6/2022 1:30:00 PM 24.69 76.442 0.16 8.3 3.9 9.05
8/6/2022 1:45:00 PM 24.82 76.676 0.16 8.3 3.93 8.97
8/6/2022 2:00:00 PM 25.13 77.234 0.16 8.33 3.99 8.96
8/6/2022 2:15:00 PM 25.21 77.378 0.16 8.35 3.92 8.9
8/6/2022 2:30:00 PM 25.34 77.612 0.159 8.38 3.84 8.89
8/6/2022 2:45:00 PM 25.49 77.882 0.159 8.39 4.19 8.85
8/6/2022 3:00:00 PM 25.71 78.278 0.159 8.43 7.02 8.85
8/6/2022 3:15:00 PM 25.91 78.638 0.159 8.47 4.07 8.87
8/6/2022 3:30:00 PM 26.07 78.926 0.159 8.47 3.48 8.71
8/6/2022 3:45:00 PM 26.1 78.98 0.159 8.44 3.53 8.59
8/6/2022 4:00:00 PM 26.23 79.214 0.159 8.42 3.79 8.56
8/6/2022 4:15:00 PM 26.26 79.268 0.159 8.37 3.36 8.4
8/6/2022 4:30:00 PM 26.35 79.43 0.159 8.37 3.48 8.43
8/6/2022 4:45:00 PM 26.25 79.25 0.159 8.28 3.68 8.31
8/6/2022 5:00:00 PM 26.12 79.016 0.159 8.22 7.77 8.25
8/6/2022 5:15:00 PM 26.06 78.908 0.159 8.19 3.56 8.3
8/6/2022 5:30:00 PM 25.97 78.746 0.159 8.15 6.65 8.29
8/6/2022 5:45:00 PM 25.99 78.782 0.159 8.16 4 8.36
8/6/2022 6:00:00 PM 25.96 78.728 0.159 8.15 3.32 8.35
8/6/2022 6:15:00 PM 25.94 78.692 0.159 8.12 3.32 8.26
8/6/2022 6:30:00 PM 25.85 78.53 0.159 8.02 3.45 8.09
8/6/2022 6:45:00 PM 25.72 78.296 0.159 7.92 3.48 7.95
8/6/2022 7:00:00 PM 25.61 78.098 0.159 7.84 11.1 7.86
8/6/2022 7:15:00 PM 25.47 77.846 0.16 7.76 7.74 7.7
8/6/2022 7:30:00 PM 25.31 77.558 0.16 7.69 9.98 7.6
8/6/2022 7:45:00 PM 25.13 77.234 0.16 7.64 3.42 7.55
8/6/2022 8:00:00 PM 24.97 76.946 0.16 7.59 3.32 7.48
8/6/2022 8:15:00 PM 24.82 76.676 0.16 7.55 4.38 7.41
8/6/2022 8:30:00 PM 24.68 76.424 0.16 7.52 3.3 7.4
8/6/2022 8:45:00 PM 24.5 76.1 0.155 7.5 4.87 7.5
8/6/2022 9:00:00 PM 24.36 75.848 0.153 7.48 4.96 7.48
8/6/2022 9:15:00 PM 24.21 75.578 0.15 7.44 4.69 7.44
8/6/2022 9:30:00 PM 24.12 75.416 0.151 7.42 4.54 7.38
8/6/2022 9:45:00 PM 24.04 75.272 0.151 7.41 4.28 7.36
8/6/2022 10:00:00 PM 23.96 75.128 0.151 7.4 4.07 7.39
8/6/2022 10:15:00 PM 23.88 74.984 0.152 7.4 3.93 7.4
8/6/2022 10:30:00 PM 23.8 74.84 0.153 7.4 4.02 7.4
8/6/2022 10:45:00 PM 23.73 74.714 0.153 7.39 4.08 7.43
8/6/2022 11:00:00 PM 23.66 74.588 0.153 7.39 3.95 7.45
8/6/2022 11:15:00 PM 23.59 74.462 0.152 7.38 4.02 7.47
8/6/2022 11:30:00 PM 23.52 74.336 0.152 7.38 4.1 7.49
8/6/2022 11:45:00 PM 23.45 74.21 0.152 7.38 3.82 7.51
8/7/2022 12:00:00 AM 23.38 74.084 0.152 7.37 4.15 7.53
8/7/2022 12:15:00 AM 23.3 73.94 0.153 7.38 3.99 7.54
8/7/2022 12:30:00 AM 23.23 73.814 0.154 7.37 3.96 7.55
8/7/2022 12:45:00 AM 23.17 73.706 0.155 7.38 3.77 7.56
8/7/2022 1:00:00 AM 23.11 73.598 0.156 7.38 3.77 7.59
8/7/2022 1:15:00 AM 23.05 73.49 0.157 7.37 3.55 7.6
8/7/2022 1:30:00 AM 23 73.4 0.157 7.37 3.73 7.61
8/7/2022 1:45:00 AM 22.95 73.31 0.156 7.37 3.45 7.62
8/7/2022 2:00:00 AM 22.9 73.22 0.156 7.37 3.58 7.63
8/7/2022 2:15:00 AM 22.84 73.112 0.156 7.37 3.8 7.63
8/7/2022 2:30:00 AM 22.78 73.004 0.156 7.37 3.64 7.64
8/7/2022 2:45:00 AM 22.73 72.914 0.155 7.37 3.44 7.65
8/7/2022 3:00:00 AM 22.67 72.806 0.156 7.37 3.7 7.65
8/7/2022 3:15:00 AM 22.6 72.68 0.156 7.37 3.55 7.67
8/7/2022 3:30:00 AM 22.53 72.554 0.156 7.37 13.31 7.67
8/7/2022 3:45:00 AM 22.47 72.446 0.156 7.36 13.54 7.68
8/7/2022 4:00:00 AM 22.41 72.338 0.156 7.36 9.92 7.69
8/7/2022 4:15:00 AM 22.35 72.23 0.156 7.37 3.47 7.71
8/7/2022 4:30:00 AM 22.29 72.122 0.156 7.37 3.55 7.7
8/7/2022 4:45:00 AM 22.24 72.032 0.156 7.38 3.37 7.73
8/7/2022 5:00:00 AM 22.19 71.942 0.157 7.38 15.29 7.73
8/7/2022 5:15:00 AM 22.14 71.852 0.157 7.38 3.54 7.74
8/7/2022 5:30:00 AM 22.1 71.78 0.157 7.38 3.69 7.75
8/7/2022 5:45:00 AM 22.05 71.69 0.157 7.38 3.71 7.76
8/7/2022 6:00:00 AM 22 71.6 0.157 7.38 4.05 7.77
8/7/2022 6:15:00 AM 21.96 71.528 0.157 7.38 4.42 7.77
8/7/2022 6:30:00 AM 21.92 71.456 0.157 7.39 3.67 7.8
8/7/2022 6:45:00 AM 21.89 71.402 0.157 7.4 3.62 7.86
8/7/2022 7:00:00 AM 21.87 71.366 0.156 7.41 3.5 7.91
8/7/2022 7:15:00 AM 21.85 71.33 0.156 7.43 3.46 8.02
8/7/2022 7:30:00 AM 21.83 71.294 0.156 7.44 3.54 8.08
8/7/2022 7:45:00 AM 21.82 71.276 0.156 7.46 3.33 8.15
8/7/2022 8:00:00 AM 21.82 71.276 0.156 7.48 3.28 8.25
8/7/2022 8:15:00 AM 21.87 71.366 0.156 7.52 3.19 8.46
8/7/2022 8:30:00 AM 21.93 71.474 0.155 7.57 3.34 8.63
8/7/2022 8:45:00 AM 22.04 71.672 0.155 7.62 3.1 8.77
8/7/2022 9:00:00 AM 22.14 71.852 0.155 7.67 3.27 8.85
8/7/2022 9:15:00 AM 22.26 72.068 0.155 7.72 3.04 8.94
8/7/2022 9:30:00 AM 22.28 72.104 0.154 7.74 3.47 8.95
8/7/2022 9:45:00 AM 22.39 72.302 0.154 7.83 3.02 9.12
8/7/2022 10:00:00 AM 22.42 72.356 0.154 7.85 3.2 9.08
8/7/2022 10:15:00 AM 22.5 72.5 0.154 7.9 3.13 9.14
8/7/2022 10:30:00 AM 22.65 72.77 0.154 7.99 3.47 9.24
8/7/2022 10:45:00 AM 22.72 72.896 0.153 8.01 2.92 9.21
8/7/2022 11:00:00 AM 22.88 73.184 0.153 8.11 3.32 9.31
8/7/2022 11:15:00 AM 22.99 73.382 0.153 8.16 2.9 9.3
8/7/2022 11:30:00 AM 23.07 73.526 0.153 8.19 2.98 9.22
8/7/2022 11:45:00 AM 23.17 73.706 0.152 8.22 2.89 9.21
8/7/2022 12:00:00 PM 23.26 73.868 0.152 8.23 3.14 9.15
8/7/2022 12:15:00 PM 23.37 74.066 0.152 8.29 3.09 9.2
8/7/2022 12:30:00 PM 23.43 74.174 0.152 8.28 3 9.09
8/7/2022 12:45:00 PM 23.46 74.228 0.153 8.23 2.84 8.93
8/7/2022 1:00:00 PM 23.56 74.408 0.153 8.25 2.92 9
8/7/2022 1:15:00 PM 23.95 75.11 0.153 8.35 2.91 9.18
8/7/2022 1:30:00 PM 24.43 75.974 0.153 8.44 2.89 9.24
8/7/2022 1:45:00 PM 24.53 76.154 0.153 8.48 2.87 9.2
8/7/2022 2:00:00 PM 24.45 76.01 0.153 8.45 2.82 9.02
8/7/2022 2:15:00 PM 24.52 76.136 0.153 8.49 2.99 9.06
8/7/2022 2:30:00 PM 24.65 76.37 0.153 8.54 2.73 9.11
8/7/2022 2:45:00 PM 24.76 76.568 0.153 8.6 3 9.18
8/7/2022 3:00:00 PM 24.85 76.73 0.153 8.63 3.43 9.14
8/7/2022 3:15:00 PM 25.19 77.342 0.153 8.68 2.95 9.18
8/7/2022 3:30:00 PM 25.49 77.882 0.153 8.71 2.85 9.17
8/7/2022 3:45:00 PM 25.61 78.098 0.153 8.73 3.07 9.16
8/7/2022 4:00:00 PM 25.76 78.368 0.153 8.75 2.93 9.12
8/7/2022 4:15:00 PM 25.89 78.602 0.153 8.76 3.02 9.06
8/7/2022 4:30:00 PM 26.02 78.836 0.153 8.78 3.18 8.95
8/7/2022 4:45:00 PM 26.13 79.034 0.153 8.76 2.95 8.81
8/7/2022 5:00:00 PM 26.25 79.25 0.153 8.73 3.07 8.64
8/7/2022 5:15:00 PM 26.34 79.412 0.153 8.7 3.18 8.52
8/7/2022 5:30:00 PM 26.44 79.592 0.153 8.67 2.77 8.45
8/7/2022 5:45:00 PM 26.5 79.7 0.154 8.65 2.87 8.4
8/7/2022 6:00:00 PM 26.53 79.754 0.154 8.62 3.13 8.36
8/7/2022 6:15:00 PM 26.53 79.754 0.154 8.59 3.07 8.33
8/7/2022 6:30:00 PM 26.49 79.682 0.155 8.53 3.14 8.25
8/7/2022 6:45:00 PM 26.42 79.556 0.155 8.45 2.84 8.16
8/7/2022 7:00:00 PM 26.27 79.286 0.155 8.3 2.8 7.94
8/7/2022 7:15:00 PM 26.09 78.962 0.156 8.11 3.01 7.72
8/7/2022 7:30:00 PM 25.89 78.602 0.157 7.92 3.96 7.54
8/7/2022 7:45:00 PM 25.73 78.314 0.157 7.77 3.56 7.37
8/7/2022 8:00:00 PM 25.55 77.99 0.158 7.69 3.19 7.3
8/7/2022 8:15:00 PM 25.35 77.63 0.159 7.61 3.73 7.22
8/7/2022 8:30:00 PM 25.15 77.27 0.159 7.55 2.94 7.18
8/7/2022 8:45:00 PM 24.94 76.892 0.159 7.51 3.52 7.15
8/7/2022 9:00:00 PM 24.76 76.568 0.16 7.48 3.44 7.13
8/7/2022 9:15:00 PM 24.58 76.244 0.16 7.45 3.27 7.13
8/7/2022 9:30:00 PM 24.42 75.956 0.16 7.44 3.4 7.16
8/7/2022 9:45:00 PM 24.28 75.704 0.159 7.43 3.4 7.17
8/7/2022 10:00:00 PM 24.14 75.452 0.159 7.42 15.63 7.17
8/7/2022 10:15:00 PM 24.01 75.218 0.159 7.41 3.27 7.22
8/7/2022 10:30:00 PM 23.89 75.002 0.159 7.4 3.67 7.24
8/7/2022 10:45:00 PM 23.77 74.786 0.159 7.4 3.2 7.26
8/7/2022 11:00:00 PM 23.66 74.588 0.159 7.39 3.28 7.28
8/7/2022 11:15:00 PM 23.56 74.408 0.159 7.39 3.02 7.3
8/7/2022 11:30:00 PM 23.45 74.21 0.159 7.38 5.19 7.32
8/7/2022 11:45:00 PM 23.34 74.012 0.159 7.38 7.66 7.34
8/8/2022 12:00:00 AM 23.24 73.832 0.159 7.38 3.08 7.37
8/8/2022 12:15:00 AM 23.13 73.634 0.159 7.38 3.21 7.4
8/8/2022 12:30:00 AM 23.03 73.454 0.159 7.37 8.73 7.41
8/8/2022 12:45:00 AM 22.93 73.274 0.159 7.37 8.05 7.44
8/8/2022 1:00:00 AM 22.83 73.094 0.159 7.37 2.84 7.46
8/8/2022 1:15:00 AM 22.75 72.95 0.159 7.37 3.67 7.47
8/8/2022 1:30:00 AM 22.65 72.77 0.159 7.37 12.66 7.49
8/8/2022 1:45:00 AM 22.58 72.644 0.159 7.36 13.39 7.4
8/8/2022 2:00:00 AM 22.52 72.536 0.159 7.36 2.96 7.51
8/8/2022 2:15:00 AM 22.46 72.42799 0.158 7.36 2.92 7.53
8/8/2022 2:30:00 AM 22.42 72.356 0.158 7.36 2.93 7.55
8/8/2022 2:45:00 AM 22.36 72.248 0.158 7.37 3.23 7.56
8/8/2022 3:00:00 AM 22.32 72.176 0.158 7.37 3.2 7.57
8/8/2022 3:15:00 AM 22.28 72.104 0.158 7.37 2.98 7.58
8/8/2022 3:30:00 AM 22.25 72.05 0.158 7.37 3.03 7.6
8/8/2022 3:45:00 AM 22.21 71.978 0.158 7.37 7.05 7.6
8/8/2022 4:00:00 AM 22.18 71.924 0.158 7.37 6.86 7.61
8/8/2022 4:15:00 AM 22.15 71.87 0.158 7.37 5.84 7.62
8/8/2022 4:30:00 AM 22.11 71.798 0.158 7.37 3.14 7.63
8/8/2022 4:45:00 AM 22.07 71.726 0.158 7.38 2.91 7.64
8/8/2022 5:00:00 AM 22.02 71.636 0.158 7.38 2.67 7.65
8/8/2022 5:15:00 AM 21.98 71.564 0.158 7.38 4.52 7.67
8/8/2022 5:30:00 AM 21.93 71.474 0.158 7.38 3.36 7.67
8/8/2022 5:45:00 AM 21.89 71.402 0.158 7.38 3.08 7.68
8/8/2022 6:00:00 AM 21.85 71.33 0.158 7.37 3.24 7.67
8/8/2022 6:15:00 AM 21.81 71.258 0.158 7.38 3.22 7.7
8/8/2022 6:30:00 AM 21.77 71.186 0.158 7.39 3.37 7.74
8/8/2022 6:45:00 AM 21.74 71.132 0.158 7.39 3.27 7.8
8/8/2022 7:00:00 AM 21.71 71.078 0.158 7.4 3.19 7.85
8/8/2022 7:15:00 AM 21.69 71.042 0.158 7.41 3.2 7.92
8/8/2022 7:30:00 AM 21.68 71.024 0.158 7.43 3.19 7.98
8/8/2022 7:45:00 AM 21.68 71.024 0.158 7.45 2.9 8.06
8/8/2022 8:00:00 AM 21.69 71.042 0.158 7.47 3.14 8.21
8/8/2022 8:15:00 AM 21.71 71.078 0.158 7.51 3.33 8.37
8/8/2022 8:30:00 AM 21.76 71.168 0.157 7.55 3.55 8.54
8/8/2022 8:45:00 AM 21.8 71.24 0.157 7.6 3.18 8.66
8/8/2022 9:00:00 AM 21.86 71.348 0.157 7.64 3.18 8.75
8/8/2022 9:15:00 AM 22.01 71.618 0.157 7.71 3.08 8.96
8/8/2022 9:30:00 AM 22.2 71.96 0.157 7.79 2.99 9.14
8/8/2022 9:45:00 AM 22.39 72.302 0.157 7.86 3.29 9.18
8/8/2022 10:00:00 AM 22.51 72.518 0.157 7.93 3.13 9.2
8/8/2022 10:15:00 AM 22.65 72.77 0.157 8.01 2.99 9.26
8/8/2022 10:30:00 AM 22.93 73.274 0.157 8.07 2.72 9.29
8/8/2022 10:45:00 AM 23.31 73.958 0.157 8.16 3.16 9.35
8/8/2022 11:00:00 AM 23.4 74.12 0.157 8.16 3.48 9.21
8/8/2022 11:15:00 AM 23.51 74.318 0.157 8.16 2.99 9.17
8/8/2022 11:30:00 AM 23.83 74.894 0.157 8.22 2.9 9.19
8/8/2022 11:45:00 AM 23.91 75.038 0.157 8.24 2.68 9.2
8/8/2022 12:00:00 PM 24.12 75.416 0.157 8.27 2.94 9.23
8/8/2022 12:15:00 PM 24.34 75.812 0.157 8.32 3.12 9.19
8/8/2022 12:30:00 PM 24.44 75.992 0.157 8.36 3.28 9.22
8/8/2022 12:45:00 PM 24.78 76.604 0.157 8.44 2.68 9.3
8/8/2022 1:00:00 PM 24.93 76.874 0.156 8.49 2.63 9.21
8/8/2022 1:15:00 PM 25.01 77.018 0.156 8.49 2.68 9.13
8/8/2022 1:30:00 PM 25.22 77.396 0.156 8.55 2.44 9.04
8/8/2022 1:45:00 PM 25.17 77.306 0.156 8.47 2.96 8.8
8/8/2022 2:00:00 PM 25.29 77.522 0.156 8.48 2.62 8.7
8/8/2022 2:15:00 PM 25.64 78.152 0.156 8.54 2.66 8.82
8/8/2022 2:30:00 PM 25.66 78.188 0.156 8.58 2.61 8.85
8/8/2022 2:45:00 PM 25.69 78.242 0.157 8.61 2.8 8.83
8/8/2022 3:00:00 PM 25.71 78.278 0.157 8.58 2.7 8.69
8/8/2022 3:15:00 PM 25.83 78.494 0.157 8.64 2.79 8.8
8/8/2022 3:30:00 PM 26.07 78.926 0.156 8.7 2.67 8.91
8/8/2022 3:45:00 PM 26.16 79.088 0.157 8.73 2.64 8.86
8/8/2022 4:00:00 PM 26.17 79.106 0.156 8.75 2.82 8.85
8/8/2022 4:15:00 PM 26.2 79.16 0.156 8.78 2.57 8.83
8/8/2022 4:30:00 PM 26.15 79.07 0.157 8.78 3 8.74
8/8/2022 4:45:00 PM 26.08 78.944 0.157 8.75 2.66 8.57
8/8/2022 5:00:00 PM 26.02 78.836 0.157 8.71 2.71 8.4
8/8/2022 5:15:00 PM 26.02 78.836 0.157 8.67 2.85 8.31
8/8/2022 5:30:00 PM 26 78.8 0.157 8.62 2.78 8.22
8/8/2022 5:45:00 PM 25.97 78.746 0.158 8.55 2.74 8.16
8/8/2022 6:00:00 PM 25.94 78.692 0.158 8.51 2.8 8.18
8/8/2022 6:15:00 PM 25.87 78.566 0.158 8.46 2.6 8.18
8/8/2022 6:30:00 PM 25.74 78.332 0.159 8.37 2.88 8.08
8/8/2022 6:45:00 PM 25.63 78.134 0.159 8.24 3.09 7.96
8/8/2022 7:00:00 PM 25.53 77.954 0.159 8.14 2.96 7.92
8/8/2022 7:15:00 PM 25.4 77.72 0.159 8.02 2.76 7.79
8/8/2022 7:30:00 PM 25.29 77.522 0.16 7.91 3.16 7.7
8/8/2022 7:45:00 PM 25.19 77.342 0.16 7.81 2.81 7.57
8/8/2022 8:00:00 PM 25.07 77.126 0.16 7.73 2.97 7.47
8/8/2022 8:15:00 PM 24.95 76.91 0.161 7.65 2.96 7.34
8/8/2022 8:30:00 PM 24.82 76.676 0.161 7.6 2.96 7.24
8/8/2022 8:45:00 PM 24.69 76.442 0.162 7.55 2.94 7.17
8/8/2022 9:00:00 PM 24.57 76.226 0.162 7.51 3.31 7.12
8/8/2022 9:15:00 PM 24.45 76.01 0.162 7.48 3.17 7.11
8/8/2022 9:30:00 PM 24.35 75.83 0.163 7.46 10.14 7.07
8/8/2022 9:45:00 PM 24.23 75.614 0.163 7.45 2.88 7.1
8/8/2022 10:00:00 PM 24.11 75.398 0.163 7.43 13.99 7.11
8/8/2022 10:15:00 PM 23.99 75.182 0.163 7.41 3.69 7.09
8/8/2022 10:30:00 PM 23.87 74.966 0.163 7.41 10.77 7.14
8/8/2022 10:45:00 PM 23.75 74.75 0.162 7.4 5.09 7.15
8/8/2022 11:00:00 PM 23.65 74.57 0.162 7.4 7.54 7.17
8/8/2022 11:15:00 PM 23.55 74.39 0.162 7.39 15.2 7.2
8/8/2022 11:30:00 PM 23.45 74.21 0.162 7.39 10.86 7.23
8/8/2022 11:45:00 PM 23.35 74.03 0.162 7.39 2.96 7.26
8/9/2022 12:00:00 AM 23.25 73.85 0.162 7.39 2.87 7.29
8/9/2022 12:15:00 AM 23.16 73.688 0.162 7.39 3.53 7.3
8/9/2022 12:30:00 AM 23.07 73.526 0.162 7.38 3 7.31
8/9/2022 12:45:00 AM 22.98 73.364 0.162 7.38 4.54 7.33
8/9/2022 1:00:00 AM 22.9 73.22 0.162 7.38 3.08 7.36
8/9/2022 1:15:00 AM 22.81 73.058 0.162 7.38 3.25 7.39
8/9/2022 1:30:00 AM 22.73 72.914 0.162 7.38 3.09 7.4
8/9/2022 1:45:00 AM 22.66 72.788 0.162 7.38 3.08 7.42
8/9/2022 2:00:00 AM 22.59 72.662 0.162 7.38 3.25 7.44
8/9/2022 2:15:00 AM 22.54 72.57201 0.162 7.37 2.88 7.45
8/9/2022 2:30:00 AM 22.47 72.446 0.162 7.37 3.63 7.45
8/9/2022 2:45:00 AM 22.42 72.356 0.162 7.38 2.85 7.48
8/9/2022 3:00:00 AM 22.38 72.284 0.162 7.37 3.15 7.49
8/9/2022 3:15:00 AM 22.34 72.212 0.161 7.37 3.29 7.49
8/9/2022 3:30:00 AM 22.3 72.14 0.161 7.37 2.97 7.51
8/9/2022 3:45:00 AM 22.27 72.086 0.161 7.37 3 7.52
8/9/2022 4:00:00 AM 22.24 72.032 0.161 7.37 3.04 7.52
8/9/2022 4:15:00 AM 22.21 71.978 0.161 7.37 2.95 7.52
8/9/2022 4:30:00 AM 22.18 71.924 0.161 7.37 2.9 7.54
8/9/2022 4:45:00 AM 22.15 71.87 0.161 7.37 2.93 7.56
8/9/2022 5:00:00 AM 22.13 71.834 0.161 7.36 3.43 7.56
8/9/2022 5:15:00 AM 22.1 71.78 0.161 7.36 2.92 7.56
8/9/2022 5:30:00 AM 22.06 71.708 0.161 7.36 2.84 7.56
8/9/2022 5:45:00 AM 22.03 71.654 0.161 7.36 6.06 7.57
8/9/2022 6:00:00 AM 22.02 71.636 0.161 7.36 3.39 7.59
8/9/2022 6:15:00 AM 22 71.6 0.161 7.36 3.23 7.59
8/9/2022 6:30:00 AM 21.98 71.564 0.161 7.36 3.46 7.6
8/9/2022 6:45:00 AM 21.97 71.546 0.161 7.36 4.09 7.62
8/9/2022 7:00:00 AM 21.96 71.528 0.161 7.37 3.75 7.67
8/9/2022 7:15:00 AM 21.98 71.564 0.161 7.4 3.34 7.86
8/9/2022 7:30:00 AM 21.99 71.582 0.161 7.42 3.16 7.9
8/9/2022 7:45:00 AM 22 71.6 0.161 7.43 3.51 7.92
8/9/2022 8:00:00 AM 22.08 71.744 0.161 7.47 3.53 8.19
8/9/2022 8:15:00 AM 22.13 71.834 0.161 7.5 3.21 8.25
8/9/2022 8:30:00 AM 22.21 71.978 0.16 7.55 2.87 8.44
8/9/2022 8:45:00 AM 22.25 72.05 0.16 7.57 3.06 8.38
8/9/2022 9:00:00 AM 22.3 72.14 0.16 7.6 3.16 8.44
8/9/2022 9:15:00 AM 22.34 72.212 0.16 7.6 3.26 8.39
8/9/2022 9:30:00 AM 22.47 72.446 0.159 7.67 2.93 8.66
8/9/2022 9:45:00 AM 22.57 72.626 0.159 7.74 2.85 8.78
8/9/2022 10:00:00 AM 22.68 72.824 0.159 7.81 5.29 8.91
8/9/2022 10:15:00 AM 22.72 72.896 0.159 7.82 3.33 8.81
8/9/2022 10:30:00 AM 22.78 73.004 0.159 7.85 3.13 8.83
8/9/2022 10:45:00 AM 22.92 73.256 0.158 7.94 2.69 9.03
8/9/2022 11:00:00 AM 22.97 73.346 0.158 7.98 2.8 9
8/9/2022 11:15:00 AM 23.08 73.544 0.158 8.03 2.83 9.08
8/9/2022 11:30:00 AM 23.16 73.688 0.158 8.1 2.67 9.12
8/9/2022 11:45:00 AM 23.21 73.778 0.158 8.14 3 9.08
8/9/2022 12:00:00 PM 23.21 73.778 0.158 8.12 2.69 8.93
8/9/2022 12:15:00 PM 23.28 73.904 0.157 8.17 3.25 9.01
8/9/2022 12:30:00 PM 23.36 74.048 0.157 8.22 2.84 9.03
8/9/2022 12:45:00 PM 23.53 74.354 0.157 8.35 2.59 9.25
8/9/2022 1:00:00 PM 23.84 74.912 0.157 8.46 2.67 9.36
8/9/2022 1:15:00 PM 23.76 74.768 0.157 8.47 2.87 9.2
8/9/2022 1:30:00 PM 23.76 74.768 0.156 8.51 3.01 9.17
8/9/2022 1:45:00 PM 23.85 74.93 0.156 8.55 3.22 9.17
8/9/2022 2:00:00 PM 24.01 75.218 0.156 8.62 2.63 9.28
8/9/2022 2:15:00 PM 24.09 75.362 0.156 8.66 2.73 9.32
8/9/2022 2:30:00 PM 24.1 75.38 0.156 8.68 3.73 9.22
8/9/2022 2:45:00 PM 24.15 75.47 0.156 8.72 3.05 9.22
8/9/2022 3:00:00 PM 24.26 75.668 0.156 8.76 2.81 9.28
8/9/2022 3:15:00 PM 24.33 75.794 0.156 8.78 2.92 9.27
8/9/2022 3:30:00 PM 24.33 75.794 0.156 8.79 3.04 9.18
8/9/2022 3:45:00 PM 24.49 76.082 0.156 8.82 2.79 9.21
8/9/2022 4:00:00 PM 24.59 76.262 0.156 8.85 2.69 9.22
8/9/2022 4:15:00 PM 24.57 76.226 0.156 8.84 2.79 9.15
8/9/2022 4:30:00 PM 24.59 76.262 0.156 8.84 2.64 9.1
8/9/2022 4:45:00 PM 24.7 76.46 0.156 8.85 4.83 9.08
8/9/2022 5:00:00 PM 24.65 76.37 0.156 8.82 2.78 8.9
8/9/2022 5:15:00 PM 24.79 76.622 0.156 8.83 2.59 8.92
8/9/2022 5:30:00 PM 24.77 76.586 0.156 8.78 2.64 8.72
8/9/2022 5:45:00 PM 24.8 76.64 0.157 8.75 2.62 8.69
8/9/2022 6:00:00 PM 24.8 76.64 0.157 8.72 2.6 8.59
8/9/2022 6:15:00 PM 24.78 76.604 0.157 8.68 2.56 8.56
8/9/2022 6:30:00 PM 24.74 76.532 0.157 8.6 2.74 8.36
8/9/2022 6:45:00 PM 24.66 76.388 0.158 8.46 2.7 8.15
8/9/2022 7:00:00 PM 24.58 76.244 0.158 8.3 2.88 7.95
8/9/2022 7:15:00 PM 24.5 76.1 0.159 8.12 2.75 7.81
8/9/2022 7:30:00 PM 24.39 75.902 0.16 7.96 2.87 7.67
8/9/2022 7:45:00 PM 24.28 75.704 0.16 7.83 3.48 7.56
8/9/2022 8:00:00 PM 24.15 75.47 0.161 7.73 2.67 7.48
8/9/2022 8:15:00 PM 24 75.2 0.162 7.65 2.89 7.4
8/9/2022 8:30:00 PM 23.85 74.93 0.162 7.59 2.73 7.33
8/9/2022 8:45:00 PM 23.7 74.66 0.163 7.55 3.01 7.28
8/9/2022 9:00:00 PM 23.54 74.372 0.163 7.52 3.02 7.27
8/9/2022 9:15:00 PM 23.4 74.12 0.163 7.49 3.74 7.26
8/9/2022 9:30:00 PM 23.26 73.868 0.163 7.47 3.04 7.27
8/9/2022 9:45:00 PM 23.13 73.634 0.164 7.46 3.1 7.29
8/9/2022 10:00:00 PM 23 73.4 0.164 7.44 3.01 7.31
8/9/2022 10:15:00 PM 22.87 73.166 0.163 7.43 3.3 7.34
8/9/2022 10:30:00 PM 22.76 72.968 0.163 7.42 3.13 7.36
8/9/2022 10:45:00 PM 22.65 72.77 0.163 7.42 2.88 7.39
8/9/2022 11:00:00 PM 22.56 72.608 0.163 7.41 2.77 7.4
8/9/2022 11:15:00 PM 22.46 72.42799 0.163 7.41 12.35 7.4
8/9/2022 11:30:00 PM 22.37 72.266 0.163 7.41 2.87 7.45
8/9/2022 11:45:00 PM 22.28 72.104 0.163 7.4 2.73 7.47
8/10/2022 12:00:00 AM 22.19 71.942 0.163 7.4 3.12 7.49
8/10/2022 12:15:00 AM 22.11 71.798 0.163 7.4 3.29 7.52
8/10/2022 12:30:00 AM 22.03 71.654 0.163 7.4 3.19 7.53
8/10/2022 12:45:00 AM 21.94 71.492 0.163 7.4 2.84 7.55
8/10/2022 1:00:00 AM 21.84 71.312 0.162 7.4 2.78 7.57
8/10/2022 1:15:00 AM 21.75 71.15 0.162 7.39 3.5 7.59
8/10/2022 1:30:00 AM 21.65 70.97 0.162 7.39 2.81 7.62
8/10/2022 1:45:00 AM 21.55 70.79 0.162 7.39 5.92 7.65
8/10/2022 2:00:00 AM 21.45 70.61 0.162 7.39 3.04 7.66
8/10/2022 2:15:00 AM 21.34 70.412 0.162 7.39 3.3 7.69
8/10/2022 2:30:00 AM 21.23 70.214 0.162 7.39 3.23 7.7
8/10/2022 2:45:00 AM 21.13 70.034 0.162 7.39 2.89 7.72
8/10/2022 3:00:00 AM 21.04 69.872 0.162 7.39 2.81 7.76
8/10/2022 3:15:00 AM 20.97 69.746 0.161 7.39 5.34 7.78
8/10/2022 3:30:00 AM 20.9 69.62 0.161 7.39 5.52 7.8
8/10/2022 3:45:00 AM 20.84 69.512 0.161 7.39 3.72 7.81
8/10/2022 4:00:00 AM 20.78 69.404 0.161 7.39 5.34 7.83
8/10/2022 4:15:00 AM 20.72 69.296 0.161 7.39 3.67 7.85
8/10/2022 4:30:00 AM 20.66 69.188 0.161 7.38 4.17 7.85
8/10/2022 4:45:00 AM 20.6 69.08 0.161 7.39 5.12 7.87
8/10/2022 5:00:00 AM 20.55 68.99 0.161 7.39 2.93 7.87
8/10/2022 5:15:00 AM 20.5 68.9 0.161 7.39 5.4 7.89
8/10/2022 5:30:00 AM 20.46 68.828 0.161 7.39 2.75 7.9
8/10/2022 5:45:00 AM 20.41 68.738 0.161 7.39 2.85 7.91
8/10/2022 6:00:00 AM 20.36 68.648 0.161 7.39 808.38 7.92
8/10/2022 6:15:00 AM 20.32 68.576 0.161 7.38 3.88 7.9
8/10/2022 6:30:00 AM 20.29 68.522 0.161 7.39 7.98 7.96
8/10/2022 6:45:00 AM 20.25 68.45 0.161 7.4 6.04 8.02
8/10/2022 7:00:00 AM 20.21 68.378 0.16 7.41 84.59 8.14
8/10/2022 7:15:00 AM 20.17 68.306 0.16 7.44 3.02 8.26
8/10/2022 7:30:00 AM 20.15 68.27 0.16 7.46 2.91 8.39
8/10/2022 7:45:00 AM 20.14 68.252 0.16 7.48 2.9 8.51
8/10/2022 8:00:00 AM 20.16 68.288 0.16 7.52 2.73 8.66
8/10/2022 8:15:00 AM 20.17 68.306 0.159 7.55 2.69 8.79
8/10/2022 8:30:00 AM 20.27 68.486 0.159 7.59 2.51 8.94
8/10/2022 8:45:00 AM 20.42 68.756 0.159 7.65 2.49 9.09
8/10/2022 9:00:00 AM 20.37 68.666 0.159 7.66 2.57 9.01
8/10/2022 9:15:00 AM 20.36 68.648 0.158 7.68 2.61 9.07
8/10/2022 9:30:00 AM 20.48 68.864 0.158 7.74 2.8 9.21
8/10/2022 9:45:00 AM 20.62 69.116 0.158 7.8 2.51 9.3
8/10/2022 10:00:00 AM 20.83 69.494 0.158 7.87 2.59 9.41
8/10/2022 10:15:00 AM 21.16 70.088 0.157 7.94 2.76 9.49
8/10/2022 10:30:00 AM 21.33 70.394 0.157 8.03 2.49 9.55
8/10/2022 10:45:00 AM 21.41 70.538 0.157 8 2.55 9.43
8/10/2022 11:00:00 AM 21.48 70.664 0.157 8.1 2.56 9.56
8/10/2022 11:15:00 AM 21.64 70.952 0.157 8.17 2.63 9.59
8/10/2022 11:30:00 AM 22.01 71.618 0.156 8.26 2.41 9.67
8/10/2022 11:45:00 AM 22.47 72.446 0.156 8.34 2.25 9.68
8/10/2022 12:00:00 PM 22.59 72.662 0.156 8.39 2.47 9.6
8/10/2022 12:15:00 PM 22.64 72.752 0.156 8.4 2.78 9.56
8/10/2022 12:30:00 PM 23.02 73.436 0.156 8.46 2.86 9.57
8/10/2022 12:45:00 PM 23.38 74.084 0.156 8.49 2.82 9.52
8/10/2022 1:00:00 PM 23.44 74.192 0.156 8.51 2.74 9.52
8/10/2022 1:15:00 PM 23.29 73.922 0.155 8.55 2.55 9.49
8/10/2022 1:30:00 PM 23.64 74.552 0.155 8.59 2.73 9.51
8/10/2022 1:45:00 PM 23.82 74.876 0.155 8.61 2.63 9.4
8/10/2022 2:00:00 PM 24.03 75.254 0.155 8.59 2.47 9.34
8/10/2022 2:15:00 PM 24.22 75.596 0.155 8.61 2.46 9.3
8/10/2022 2:30:00 PM 24.39 75.902 0.155 8.61 2.44 9.19
8/10/2022 2:45:00 PM 24.59 76.262 0.155 8.61 2.53 9.12
8/10/2022 3:00:00 PM 24.74 76.532 0.155 8.58 2.88 9.01
8/10/2022 3:15:00 PM 24.92 76.856 0.155 8.58 2.72 8.94
8/10/2022 3:30:00 PM 25.05 77.09 0.156 8.57 2.57 8.84
8/10/2022 3:45:00 PM 25.22 77.396 0.156 8.57 2.69 8.77
8/10/2022 4:00:00 PM 25.4 77.72 0.156 8.56 2.81 8.69
8/10/2022 4:15:00 PM 25.56 78.008 0.156 8.56 2.59 8.63
8/10/2022 4:30:00 PM 25.66 78.188 0.156 8.55 2.74 8.55
8/10/2022 4:45:00 PM 25.67 78.206 0.156 8.53 3.05 8.43
8/10/2022 5:00:00 PM 25.78 78.404 0.156 8.51 2.57 8.33
8/10/2022 5:15:00 PM 25.9 78.62 0.156 8.5 2.55 8.24
8/10/2022 5:30:00 PM 25.98 78.764 0.157 8.47 2.65 8.14
8/10/2022 5:45:00 PM 26.02 78.836 0.157 8.45 2.61 8.08
8/10/2022 6:00:00 PM 25.98 78.764 0.157 8.4 2.6 7.93
8/10/2022 6:15:00 PM 25.97 78.746 0.158 8.33 2.54 7.84
8/10/2022 6:30:00 PM 25.94 78.692 0.158 8.27 2.65 7.76
8/10/2022 6:45:00 PM 25.8 78.44 0.159 8.14 2.51 7.65
8/10/2022 7:00:00 PM 25.63 78.134 0.16 8 2.84 7.49
8/10/2022 7:15:00 PM 25.49 77.882 0.16 7.9 2.85 7.44
8/10/2022 7:30:00 PM 25.3 77.54 0.161 7.79 2.76 7.36
8/10/2022 7:45:00 PM 25.08 77.144 0.162 7.71 2.67 7.3
8/10/2022 8:00:00 PM 24.87 76.766 0.163 7.65 3.11 7.21
8/10/2022 8:15:00 PM 24.65 76.37 0.163 7.59 2.77 7.15
8/10/2022 8:30:00 PM 24.44 75.992 0.164 7.54 2.85 7.08
8/10/2022 8:45:00 PM 24.23 75.614 0.164 7.51 2.69 7.05
8/10/2022 9:00:00 PM 23.99 75.182 0.164 7.48 8.63 7.06
8/10/2022 9:15:00 PM 23.76 74.768 0.164 7.46 4.04 7.06
8/10/2022 9:30:00 PM 23.55 74.39 0.164 7.44 3.52 7.09
8/10/2022 9:45:00 PM 23.34 74.012 0.164 7.43 2.96 7
8/10/2022 10:00:00 PM 23.14 73.652 0.164 7.42 2.95 7.15
8/10/2022 10:15:00 PM 22.95 73.31 0.164 7.42 2.94 7.19
8/10/2022 10:30:00 PM 22.76 72.968 0.164 7.41 2.93 7.23
8/10/2022 10:45:00 PM 22.58 72.644 0.164 7.4 5.34 7.27
8/10/2022 11:00:00 PM 22.42 72.356 0.164 7.4 2.71 7.29
8/10/2022 11:15:00 PM 22.24 72.032 0.163 7.39 4.15 7.34
8/10/2022 11:30:00 PM 22.09 71.762 0.163 7.39 3.16 7.37
8/10/2022 11:45:00 PM 21.93 71.474 0.163 7.39 2.76 7.41
8/11/2022 12:00:00 AM 21.78 71.204 0.163 7.39 3.01 7.44
8/11/2022 12:15:00 AM 21.62 70.916 0.163 7.38 3.02 7.49
8/11/2022 12:30:00 AM 21.48 70.664 0.163 7.38 3.21 7.53
8/11/2022 12:45:00 AM 21.33 70.394 0.162 7.38 3 7.54
8/11/2022 1:00:00 AM 21.19 70.142 0.162 7.38 2.78 7.59
8/11/2022 1:15:00 AM 21.05 69.89 0.162 7.38 2.82 7.62
8/11/2022 1:30:00 AM 20.91 69.638 0.162 7.38 2.99 7.67
8/11/2022 1:45:00 AM 20.78 69.404 0.162 7.38 2.93 7.7
8/11/2022 2:00:00 AM 20.65 69.17 0.162 7.38 2.86 7.71
8/11/2022 2:15:00 AM 20.51 68.918 0.162 7.38 3.03 7.74
8/11/2022 2:30:00 AM 20.4 68.72 0.162 7.38 3.03 7.77
8/11/2022 2:45:00 AM 20.27 68.486 0.162 7.38 11.77 7.81
8/11/2022 3:00:00 AM 20.15 68.27 0.162 7.38 3.28 7.85
8/11/2022 3:15:00 AM 20.03 68.054 0.161 7.38 2.67 7.86
8/11/2022 3:30:00 AM 19.91 67.838 0.161 7.38 2.9 7.89
8/11/2022 3:45:00 AM 19.79 67.622 0.161 7.38 2.82 7.92
8/11/2022 4:00:00 AM 19.68 67.424 0.161 7.38 2.84 7.95
8/11/2022 4:15:00 AM 19.57 67.226 0.161 7.38 2.98 7.98
8/11/2022 4:30:00 AM 19.45 67.01 0.161 7.38 10.65 8
8/11/2022 4:45:00 AM 19.34 66.812 0.161 7.38 2.83 8.02
8/11/2022 5:00:00 AM 19.24 66.632 0.161 7.38 3 8.03
8/11/2022 5:15:00 AM 19.13 66.434 0.161 7.37 2.86 8.07
8/11/2022 5:30:00 AM 19.02 66.236 0.16 7.37 2.74 8.1
8/11/2022 5:45:00 AM 18.92 66.056 0.16 7.38 2.83 8.13
8/11/2022 6:00:00 AM 18.81 65.858 0.16 7.38 5.13 8.15
8/11/2022 6:15:00 AM 18.72 65.696 0.16 7.37 3.03 8.17
8/11/2022 6:30:00 AM 18.65 65.57 0.16 7.38 3.18 8.19
8/11/2022 6:45:00 AM 18.58 65.444 0.16 7.39 3.1 8.27
8/11/2022 7:00:00 AM 18.53 65.354 0.16 7.4 2.91 8.35
8/11/2022 7:15:00 AM 18.5 65.3 0.16 7.42 2.94 8.49
8/11/2022 7:30:00 AM 18.48 65.264 0.159 7.44 2.87 8.65
8/11/2022 7:45:00 AM 18.47 65.246 0.159 7.48 2.92 8.81
8/11/2022 8:00:00 AM 18.52 65.336 0.159 7.5 2.74 8.93
8/11/2022 8:15:00 AM 18.59 65.462 0.159 7.53 3.02 9.04
8/11/2022 8:30:00 AM 18.63 65.534 0.159 7.56 2.99 9.1
8/11/2022 8:45:00 AM 18.8 65.84 0.158 7.59 2.87 9.2
8/11/2022 9:00:00 AM 18.97 66.146 0.158 7.63 2.85 9.3
8/11/2022 9:15:00 AM 19.16 66.488 0.158 7.67 2.62 9.36
8/11/2022 9:30:00 AM 19.39 66.902 0.158 7.71 2.57 9.42
8/11/2022 9:45:00 AM 19.65 67.37 0.158 7.75 2.71 9.47
8/11/2022 10:00:00 AM 19.94 67.892 0.158 7.79 2.5 9.49
8/11/2022 10:15:00 AM 20.22 68.396 0.157 7.84 3.03 9.53
8/11/2022 10:30:00 AM 20.48 68.864 0.157 7.89 3.16 9.54
8/11/2022 10:45:00 AM 20.73 69.314 0.157 7.93 3.29 9.58
8/11/2022 11:00:00 AM 20.9 69.62 0.157 7.99 2.54 9.61
8/11/2022 11:15:00 AM 21.09 69.962 0.157 8.03 2.58 9.62
8/11/2022 11:30:00 AM 21.48 70.664 0.157 8.13 2.37 9.72
8/11/2022 11:45:00 AM 21.85 71.33 0.157 8.21 2.61 9.73
8/11/2022 12:00:00 PM 22.05 71.69 0.157 8.23 2.68 9.68
8/11/2022 12:15:00 PM 22.3 72.14 0.156 8.27 2.48 9.62
8/11/2022 12:30:00 PM 22.56 72.608 0.156 8.28 2.63 9.56
8/11/2022 12:45:00 PM 22.8 73.04 0.156 8.31 2.54 9.55
8/11/2022 1:00:00 PM 22.95 73.31 0.156 8.33 3.42 9.49
8/11/2022 1:15:00 PM 23.27 73.886 0.155 8.37 4.77 9.49
8/11/2022 1:30:00 PM 23.48 74.264 0.155 8.43 2.71 9.53
8/11/2022 1:45:00 PM 23.59 74.462 0.155 8.45 2.65 9.48
8/11/2022 2:00:00 PM 23.48 74.264 0.155 8.43 2.75 9.32
8/11/2022 2:15:00 PM 23.82 74.876 0.154 8.49 2.58 9.38
8/11/2022 2:30:00 PM 24.15 75.47 0.154 8.55 2.93 9.38
8/11/2022 2:45:00 PM 24.4 75.92 0.154 8.58 3.16 9.32
8/11/2022 3:00:00 PM 24.57 76.226 0.153 8.6 2.6 9.28
8/11/2022 3:15:00 PM 24.7 76.46 0.153 8.62 3.5 9.22
8/11/2022 3:30:00 PM 24.89 76.802 0.153 8.66 2.61 9.16
8/11/2022 3:45:00 PM 24.92 76.856 0.153 8.66 2.69 9.02
8/11/2022 4:00:00 PM 25.1 77.18 0.153 8.69 2.9 9.04
8/11/2022 4:15:00 PM 25.01 77.018 0.153 8.66 2.97 8.82
8/11/2022 4:30:00 PM 25.11 77.198 0.153 8.66 2.67 8.77
8/11/2022 4:45:00 PM 25.05 77.09 0.153 8.65 2.53 8.64
8/11/2022 5:00:00 PM 25.02 77.036 0.154 8.59 2.77 8.45
8/11/2022 5:15:00 PM 24.98 76.964 0.154 8.54 2.78 8.36
8/11/2022 5:30:00 PM 24.88 76.784 0.155 8.5 2.58 8.3
8/11/2022 5:45:00 PM 24.72 76.496 0.155 8.45 2.7 8.25
8/11/2022 6:00:00 PM 24.67 76.406 0.156 8.38 2.86 8.13
8/11/2022 6:15:00 PM 24.56 76.208 0.156 8.29 2.79 8
8/11/2022 6:30:00 PM 24.48 76.064 0.156 8.21 2.68 7.89
8/11/2022 6:45:00 PM 24.49 76.082 0.157 8.12 3.04 7.79
8/11/2022 7:00:00 PM 24.45 76.01 0.157 8.02 2.9 7.7
8/11/2022 7:15:00 PM 24.34 75.812 0.158 7.91 2.82 7.58
8/11/2022 7:30:00 PM 24.15 75.47 0.159 7.79 2.67 7.46
8/11/2022 7:45:00 PM 24.03 75.254 0.16 7.7 2.88 7.35
8/11/2022 8:00:00 PM 23.89 75.002 0.161 7.64 2.78 7.29
8/11/2022 8:15:00 PM 23.69 74.642 0.162 7.58 3.7 7.21
8/11/2022 8:30:00 PM 23.48 74.264 0.162 7.54 2.78 7.18
8/11/2022 8:45:00 PM 23.23 73.814 0.163 7.5 2.92 7.12
8/11/2022 9:00:00 PM 22.98 73.364 0.164 7.48 2.99 7.16
8/11/2022 9:15:00 PM 22.73 72.914 0.164 7.46 2.89 7.19
8/11/2022 9:30:00 PM 22.48 72.464 0.164 7.45 3.09 7.21
8/11/2022 9:45:00 PM 22.22 71.996 0.164 7.43 2.98 7.28
8/11/2022 10:00:00 PM 21.99 71.582 0.164 7.42 2.79 7.34
8/11/2022 10:15:00 PM 21.76 71.168 0.164 7.41 2.93 7.36
8/11/2022 10:30:00 PM 21.54 70.772 0.164 7.41 2.88 7.43
8/11/2022 10:45:00 PM 21.34 70.412 0.163 7.4 3.01 7.48
8/11/2022 11:00:00 PM 21.15 70.07 0.163 7.4 2.84 7.51
8/11/2022 11:15:00 PM 20.96 69.728 0.163 7.39 2.81 7.55
8/11/2022 11:30:00 PM 20.78 69.404 0.163 7.39 2.98 7.59
8/11/2022 11:45:00 PM 20.6 69.08 0.162 7.39 2.89 7.63
8/12/2022 12:00:00 AM 20.45 68.81 0.162 7.38 2.91 7.66
8/12/2022 12:15:00 AM 20.29 68.522 0.162 7.38 2.99 7.7
8/12/2022 12:30:00 AM 20.13 68.234 0.162 7.38 2.74 7.77
8/12/2022 12:45:00 AM 19.99 67.982 0.162 7.38 3.08 7.77
8/12/2022 1:00:00 AM 19.85 67.73 0.162 7.38 2.91 7.8
8/12/2022 1:15:00 AM 19.7 67.46 0.161 7.38 2.84 7.85
8/12/2022 1:30:00 AM 19.57 67.226 0.161 7.38 2.88 7.87
8/12/2022 1:45:00 AM 19.43 66.974 0.161 7.37 2.82 7.92
8/12/2022 2:00:00 AM 19.31 66.758 0.161 7.37 2.62 7.94
8/12/2022 2:15:00 AM 19.18 66.524 0.161 7.37 2.7 7.96
8/12/2022 2:30:00 AM 19.06 66.308 0.161 7.37 2.75 8
8/12/2022 2:45:00 AM 18.93 66.074 0.161 7.37 2.88 8.03
8/12/2022 3:00:00 AM 18.81 65.858 0.161 7.37 2.65 8.08
8/12/2022 3:15:00 AM 18.69 65.642 0.161 7.37 2.49 8.09
8/12/2022 3:30:00 AM 18.57 65.426 0.161 7.37 2.72 8.11
8/12/2022 3:45:00 AM 18.46 65.228 0.16 7.37 2.5 8.13
8/12/2022 4:00:00 AM 18.34 65.012 0.16 7.37 2.62 8.18
8/12/2022 4:15:00 AM 18.23 64.814 0.16 7.37 2.66 8.22
8/12/2022 4:30:00 AM 18.11 64.598 0.16 7.38 2.49 8.25
8/12/2022 4:45:00 AM 18.02 64.436 0.16 7.38 2.57 8.27
8/12/2022 5:00:00 AM 17.91 64.238 0.16 7.37 2.44 8.28
8/12/2022 5:15:00 AM 17.8 64.04 0.16 7.38 2.54 8.29
8/12/2022 5:30:00 AM 17.7 63.86 0.16 7.38 2.42 8.35
8/12/2022 5:45:00 AM 17.6 63.68 0.16 7.37 2.59 8.36
8/12/2022 6:00:00 AM 17.49 63.482 0.16 7.38 2.61 8.4
8/12/2022 6:15:00 AM 17.4 63.32 0.159 7.38 2.53 8.42
8/12/2022 6:30:00 AM 17.32 63.176 0.159 7.37 2.61 8.46
8/12/2022 6:45:00 AM 17.23 63.014 0.159 7.34 2.6 8.54
8/12/2022 7:00:00 AM 17.15 62.87 0.159 7.36 2.6 8.61
8/12/2022 7:15:00 AM 17.07 62.726 0.159 7.38 2.82 8.73
8/12/2022 7:30:00 AM 17.03 62.654 0.159 7.4 2.62 8.84
8/12/2022 7:45:00 AM 17.01 62.618 0.159 7.43 2.54 8.97
8/12/2022 8:00:00 AM 17.04 62.672 0.158 7.46 2.59 9.1
8/12/2022 8:15:00 AM 17.15 62.87 0.158 7.49 2.42 9.25
8/12/2022 8:30:00 AM 17.18 62.924 0.158 7.52 2.53 9.31
8/12/2022 8:45:00 AM 17.38 63.284 0.158 7.56 2.4 9.43
8/12/2022 9:00:00 AM 17.59 63.662 0.157 7.59 2.48 9.5
8/12/2022 9:15:00 AM 17.81 64.058 0.157 7.62 2.69 9.57
8/12/2022 9:30:00 AM 18.04 64.472 0.157 7.66 2.49 9.63
8/12/2022 9:45:00 AM 18.31 64.958 0.157 7.7 2.52 9.68
8/12/2022 10:00:00 AM 18.59 65.462 0.156 7.73 2.53 9.68
8/12/2022 10:15:00 AM 18.82 65.876 0.156 7.77 2.58 9.72
8/12/2022 10:30:00 AM 19 66.2 0.156 7.81 2.71 9.74
8/12/2022 10:45:00 AM 19.18 66.524 0.156 7.84 2.74 9.72
8/12/2022 11:00:00 AM 19.48 67.064 0.156 7.87 2.59 9.76
8/12/2022 11:15:00 AM 19.74 67.532 0.156 7.91 2.57 9.76
8/12/2022 11:30:00 AM 20.01 68.018 0.156 7.93 2.76 9.75
8/12/2022 11:45:00 AM 20.24 68.432 0.156 7.95 2.55 9.74
8/12/2022 12:00:00 PM 20.49 68.882 0.156 7.98 2.62 9.72
8/12/2022 12:15:00 PM 20.69 69.242 0.156 8.01 2.94 9.72
8/12/2022 12:30:00 PM 20.94 69.692 0.156 8.03 2.58 9.71
8/12/2022 12:45:00 PM 21.12 70.016 0.156 8.05 2.67 9.67
8/12/2022 1:00:00 PM 21.29 70.32201 0.156 8.07 2.79 9.66
8/12/2022 1:15:00 PM 21.4 70.52 0.156 8.1 2.47 9.65
8/12/2022 1:30:00 PM 21.55 70.79 0.156 8.12 2.49 9.64
8/12/2022 1:45:00 PM 21.67 71.006 0.156 8.13 2.55 9.59
8/12/2022 2:00:00 PM 21.89 71.402 0.155 8.15 2.42 9.53
8/12/2022 2:15:00 PM 22.03 71.654 0.155 8.16 2.59 9.53
8/12/2022 2:30:00 PM 22.09 71.762 0.155 8.16 2.61 9.46
8/12/2022 2:45:00 PM 22.25 72.05 0.155 8.18 2.6 9.44
8/12/2022 3:00:00 PM 22.34 72.212 0.154 8.19 2.76 9.4
8/12/2022 3:15:00 PM 22.52 72.536 0.154 8.2 2.6 9.35
8/12/2022 3:30:00 PM 22.56 72.608 0.154 8.19 2.47 9.24
8/12/2022 3:45:00 PM 22.59 72.662 0.154 8.15 3.33 9.16
8/12/2022 4:00:00 PM 22.66 72.788 0.153 8.18 2.67 9.17
8/12/2022 4:15:00 PM 22.87 73.166 0.153 8.2 2.6 9.15
8/12/2022 4:30:00 PM 22.85 73.13 0.153 8.21 2.8 9.06
8/12/2022 4:45:00 PM 22.71 72.878 0.153 8.16 2.58 8.87
8/12/2022 5:00:00 PM 22.62 72.716 0.153 8.1 2.56 8.7
8/12/2022 5:15:00 PM 22.77 72.986 0.152 8.11 2.6 8.68
8/12/2022 5:30:00 PM 22.82 73.076 0.153 8.11 2.74 8.54
8/12/2022 5:45:00 PM 22.83 73.094 0.153 8.07 2.61 8.43
8/12/2022 6:00:00 PM 22.91 73.238 0.153 8.01 2.96 8.28
8/12/2022 6:15:00 PM 22.95 73.31 0.153 8 2.76 8.24
8/12/2022 6:30:00 PM 22.94 73.292 0.153 7.95 2.68 8.1
8/12/2022 6:45:00 PM 22.87 73.166 0.154 7.88 3.02 7.97
8/12/2022 7:00:00 PM 22.87 73.166 0.155 7.82 2.54 7.86
8/12/2022 7:15:00 PM 22.86 73.148 0.156 7.76 2.75 7.76
8/12/2022 7:30:00 PM 22.78 73.004 0.157 7.69 2.7 7.63
8/12/2022 7:45:00 PM 22.62 72.716 0.158 7.62 2.72 7.53
8/12/2022 8:00:00 PM 22.44 72.392 0.158 7.56 2.81 7.44
8/12/2022 8:15:00 PM 22.23 72.014 0.159 7.52 2.77 7.39
8/12/2022 8:30:00 PM 22.05 71.69 0.16 7.49 2.78 7.34
8/12/2022 8:45:00 PM 21.84 71.312 0.16 7.46 2.88 7.3
8/12/2022 9:00:00 PM 21.63 70.934 0.161 7.44 2.95 7.3
8/12/2022 9:15:00 PM 21.4 70.52 0.162 7.43 3.24 7.34
8/12/2022 9:30:00 PM 21.17 70.106 0.162 7.41 2.93 7.36
8/12/2022 9:45:00 PM 20.93 69.674 0.162 7.4 2.9 7.42
8/12/2022 10:00:00 PM 20.71 69.278 0.162 7.4 2.73 7.48
8/12/2022 10:15:00 PM 20.46 68.828 0.162 7.39 2.82 7.51
8/12/2022 10:30:00 PM 20.25 68.45 0.162 7.39 3.07 7.58
8/12/2022 10:45:00 PM 20.04 68.07201 0.162 7.38 3.31 7.64
8/12/2022 11:00:00 PM 19.83 67.694 0.162 7.38 3.18 7.67
8/12/2022 11:15:00 PM 19.62 67.316 0.162 7.38 2.9 7.74
8/12/2022 11:30:00 PM 19.44 66.992 0.162 7.37 2.87 7.79
8/12/2022 11:45:00 PM 19.24 66.632 0.162 7.37 3.12 7.83
8/13/2022 12:00:00 AM 19.06 66.308 0.161 7.37 3.02 7.87
8/13/2022 12:15:00 AM 18.86 65.948 0.161 7.37 3.17 7.93
8/13/2022 12:30:00 AM 18.7 65.66 0.161 7.36 2.97 7.99
8/13/2022 12:45:00 AM 18.51 65.318 0.161 7.37 2.55 8.03
8/13/2022 1:00:00 AM 18.36 65.048 0.161 7.36 2.85 8.06
8/13/2022 1:15:00 AM 18.2 64.76 0.161 7.36 2.99 8.1
8/13/2022 1:30:00 AM 18.04 64.472 0.16 7.37 2.58 8.16
8/13/2022 1:45:00 AM 17.88 64.184 0.16 7.37 2.62 8.19
8/13/2022 2:00:00 AM 17.71 63.878 0.16 7.37 2.97 8.22
8/13/2022 2:15:00 AM 17.57 63.626 0.16 7.36 2.81 8.27
8/13/2022 2:30:00 AM 17.42 63.356 0.16 7.37 2.85 8.3
8/13/2022 2:45:00 AM 17.27 63.086 0.16 7.37 2.73 8.35
8/13/2022 3:00:00 AM 17.12 62.816 0.16 7.33 2.44 8.41
8/13/2022 3:15:00 AM 16.99 62.582 0.16 7.33 2.56 8.44
8/13/2022 3:30:00 AM 16.83 62.294 0.16 7.34 2.68 8.49
8/13/2022 3:45:00 AM 16.7 62.06 0.16 7.33 2.5 8.51
8/13/2022 4:00:00 AM 16.56 61.808 0.16 7.33 2.58 8.54
8/13/2022 4:15:00 AM 16.4 61.52 0.159 7.33 2.35 8.58
8/13/2022 4:30:00 AM 16.28 61.304 0.159 7.33 2.43 8.63
8/13/2022 4:45:00 AM 16.15 61.07 0.159 7.33 2.58 8.67
8/13/2022 5:00:00 AM 16.02 60.836 0.159 7.33 3.62 8.7
8/13/2022 5:15:00 AM 15.88 60.584 0.159 7.33 4.6 8.78
8/13/2022 5:30:00 AM 15.75 60.35 0.159 7.33 2.57 8.83
8/13/2022 5:45:00 AM 15.62 60.116 0.159 7.33 2.67 8.87
8/13/2022 6:00:00 AM 15.5 59.9 0.159 7.33 2.93 8.91
8/13/2022 6:15:00 AM 15.4 59.72 0.159 7.33 2.71 8.94
8/13/2022 6:30:00 AM 15.3 59.54 0.158 7.34 2.77 8.99
8/13/2022 6:45:00 AM 15.19 59.342 0.158 7.35 2.87 9.07
8/13/2022 7:00:00 AM 15.1 59.18 0.158 7.36 2.71 9.15
8/13/2022 7:15:00 AM 15.02 59.036 0.158 7.37 2.54 9.25
8/13/2022 7:30:00 AM 14.97 58.946 0.158 7.39 2.81 9.38
8/13/2022 7:45:00 AM 14.95 58.91 0.158 7.42 2.52 9.54
8/13/2022 8:00:00 AM 14.97 58.946 0.157 7.45 2.49 9.63
8/13/2022 8:15:00 AM 15.06 59.108 0.157 7.48 3.01 9.73
8/13/2022 8:30:00 AM 15.1 59.18 0.157 7.51 2.56 9.82
8/13/2022 8:45:00 AM 15.26 59.468 0.157 7.53 2.32 9.89
8/13/2022 9:00:00 AM 15.45 59.81 0.156 7.56 2.29 9.97
8/13/2022 9:15:00 AM 15.66 60.188 0.156 7.59 2.29 10.01
8/13/2022 9:30:00 AM 15.97 60.746 0.156 7.62 2.35 10.04
8/13/2022 9:45:00 AM 16.3 61.34 0.155 7.65 2.14 10.08
8/13/2022 10:00:00 AM 16.67 62.006 0.155 7.68 8.91 10.06
8/13/2022 10:15:00 AM 17.04 62.672 0.155 7.72 2.18 10.06
8/13/2022 10:30:00 AM 17.37 63.266 0.155 7.75 2.39 10.04
8/13/2022 10:45:00 AM 17.7 63.86 0.155 7.78 2.32 10.07
8/13/2022 11:00:00 AM 18.07 64.526 0.155 7.81 2.41 10.01
8/13/2022 11:15:00 AM 18.4 65.12 0.155 7.84 2.16 10
8/13/2022 11:30:00 AM 18.67 65.606 0.155 7.87 2.43 9.98
8/13/2022 11:45:00 AM 18.97 66.146 0.155 7.89 2.66 9.95
8/13/2022 12:00:00 PM 19.28 66.704 0.155 7.92 2.3 9.92
8/13/2022 12:15:00 PM 19.58 67.244 0.155 7.94 7.84 9.89
8/13/2022 12:30:00 PM 19.87 67.766 0.155 7.97 2.29 9.86
8/13/2022 12:45:00 PM 20.07 68.126 0.155 7.99 2.37 9.85
8/13/2022 1:00:00 PM 20.29 68.522 0.154 8.01 2.39 9.82
8/13/2022 1:15:00 PM 20.46 68.828 0.154 8.03 2.43 9.77
8/13/2022 1:30:00 PM 20.65 69.17 0.154 8.05 2.39 9.75
8/13/2022 1:45:00 PM 20.81 69.458 0.154 8.06 2.39 9.73
8/13/2022 2:00:00 PM 20.93 69.674 0.154 8.08 2.49 9.69
8/13/2022 2:15:00 PM 21.1 69.98 0.154 8.09 2.22 9.65
8/13/2022 2:30:00 PM 21.19 70.142 0.154 8.1 2.26 9.59
8/13/2022 2:45:00 PM 21.35 70.43 0.154 8.12 2.89 9.59
8/13/2022 3:00:00 PM 21.47 70.646 0.153 8.12 2.72 9.54
8/13/2022 3:15:00 PM 21.57 70.826 0.153 8.12 2.38 9.48
8/13/2022 3:30:00 PM 21.73 71.114 0.153 8.13 2.38 9.44
8/13/2022 3:45:00 PM 21.84 71.312 0.152 8.13 2.5 9.37
8/13/2022 4:00:00 PM 21.98 71.564 0.152 8.13 2.65 9.32
8/13/2022 4:15:00 PM 22.1 71.78 0.152 8.12 2.55 9.25
8/13/2022 4:30:00 PM 22.2 71.96 0.151 8.12 2.7 9.17
8/13/2022 4:45:00 PM 22.21 71.978 0.151 8.1 2.49 9.09
8/13/2022 5:00:00 PM 22.29 72.122 0.151 8.09 2.64 8.99
8/13/2022 5:15:00 PM 22.33 72.194 0.151 8.08 2.54 8.89
8/13/2022 5:30:00 PM 22.28 72.104 0.151 8.04 2.63 8.73
8/13/2022 5:45:00 PM 22.16 71.888 0.151 7.95 2.56 8.49
8/13/2022 6:00:00 PM 22.19 71.942 0.151 7.91 2.94 8.43
8/13/2022 6:15:00 PM 22.29 72.122 0.151 7.91 2.74 8.36
8/13/2022 6:30:00 PM 22.37 72.266 0.151 7.89 2.53 8.29
8/13/2022 6:45:00 PM 22.4 72.32 0.151 7.85 2.66 8.19
8/13/2022 7:00:00 PM 22.43 72.374 0.152 7.79 2.54 8.06
8/13/2022 7:15:00 PM 22.48 72.464 0.153 7.75 2.67 7.97
8/13/2022 7:30:00 PM 22.45 72.41 0.154 7.69 2.78 7.82
8/13/2022 7:45:00 PM 22.33 72.194 0.155 7.62 2.61 7.68
8/13/2022 8:00:00 PM 22.18 71.924 0.156 7.56 3.34 7.57
8/13/2022 8:15:00 PM 22.02 71.636 0.157 7.52 3.24 7.47
8/13/2022 8:30:00 PM 21.83 71.294 0.158 7.48 3.05 7.41
8/13/2022 8:45:00 PM 21.64 70.952 0.158 7.45 3.13 7.39
8/13/2022 9:00:00 PM 21.45 70.61 0.159 7.43 3.25 7.38
8/13/2022 9:15:00 PM 21.27 70.286 0.16 7.42 3.3 7.38
8/13/2022 9:30:00 PM 21.07 69.926 0.16 7.4 3.65 7.4
8/13/2022 9:45:00 PM 20.87 69.566 0.16 7.4 2.98 7.45
8/13/2022 10:00:00 PM 20.66 69.188 0.161 7.39 2.98 7.47
8/13/2022 10:15:00 PM 20.48 68.864 0.161 7.38 2.98 7.5
8/13/2022 10:30:00 PM 20.27 68.486 0.161 7.38 6.5 7.55
8/13/2022 10:45:00 PM 20.09 68.162 0.161 7.38 2.99 7.63
8/13/2022 11:00:00 PM 19.9 67.82 0.161 7.38 2.95 7.66
8/13/2022 11:15:00 PM 19.72 67.496 0.161 7.37 2.98 7.72
8/13/2022 11:30:00 PM 19.54 67.172 0.161 7.37 2.89 7.77
8/13/2022 11:45:00 PM 19.37 66.866 0.161 7.37 2.9 7.82
8/14/2022 12:00:00 AM 19.21 66.578 0.161 7.37 2.85 7.85
8/14/2022 12:15:00 AM 19.07 66.326 0.161 7.37 2.76 7.9
8/14/2022 12:30:00 AM 18.91 66.038 0.16 7.37 2.52 7.97
8/14/2022 12:45:00 AM 18.76 65.768 0.16 7.37 2.57 8
8/14/2022 1:00:00 AM 18.61 65.498 0.16 7.37 2.56 8.04
8/14/2022 1:15:00 AM 18.48 65.264 0.16 7.37 13.56 8.07
8/14/2022 1:30:00 AM 18.35 65.03 0.16 7.36 2.98 8.1
8/14/2022 1:45:00 AM 18.18 64.724 0.16 7.37 2.71 8.16
8/14/2022 2:00:00 AM 18.05 64.49 0.16 7.37 3.14 8.19
8/14/2022 2:15:00 AM 17.91 64.238 0.159 7.37 2.46 8.22
8/14/2022 2:30:00 AM 17.77 63.986 0.159 7.37 2.58 8.26
8/14/2022 2:45:00 AM 17.65 63.77 0.159 7.37 2.41 8.29
8/14/2022 3:00:00 AM 17.53 63.554 0.159 7.36 2.37 8.31
8/14/2022 3:15:00 AM 17.4 63.32 0.159 7.37 2.51 8.37
8/14/2022 3:30:00 AM 17.29 63.122 0.159 7.37 2.44 8.38
8/14/2022 3:45:00 AM 17.18 62.924 0.159 7.36 2.58 8.39
8/14/2022 4:00:00 AM 17.05 62.69 0.159 7.36 2.58 8.44
8/14/2022 4:30:00 AM 16.8 62.24 0.159 7.36 2.69 8.51
8/14/2022 4:45:00 AM 16.68 62.024 0.158 7.36 2.53 8.55
8/14/2022 5:00:00 AM 16.55 61.79 0.158 7.36 2.34 8.57
8/14/2022 5:15:00 AM 16.44 61.592 0.158 7.37 2.49 8.62
8/14/2022 5:30:00 AM 16.33 61.394 0.158 7.36 2.46 8.64
8/14/2022 5:45:00 AM 16.21 61.178 0.158 7.36 2.66 8.69
8/14/2022 6:00:00 AM 16.08 60.944 0.158 7.37 2.51 8.72
8/14/2022 6:15:00 AM 15.98 60.764 0.158 7.37 2.87 8.75
8/14/2022 6:30:00 AM 15.87 60.566 0.158 7.37 2.7 8.8
8/14/2022 6:45:00 AM 15.78 60.404 0.158 7.38 2.72 8.87
8/14/2022 7:00:00 AM 15.69 60.242 0.157 7.39 2.5 9
8/14/2022 7:15:00 AM 15.65 60.17 0.157 7.42 2.5 9.18
8/14/2022 7:30:00 AM 15.63 60.134 0.157 7.44 2.56 9.33
8/14/2022 7:45:00 AM 15.66 60.188 0.157 7.47 2.62 9.5
8/14/2022 8:00:00 AM 15.67 60.206 0.156 7.51 2.78 9.64
8/14/2022 8:15:00 AM 15.71 60.278 0.156 7.54 2.56 9.77
8/14/2022 8:30:00 AM 15.76 60.368 0.156 7.58 2.41 9.88
8/14/2022 8:45:00 AM 15.89 60.602 0.155 7.61 2.39 10
8/14/2022 9:00:00 AM 16.06 60.908 0.155 7.66 2.55 10.14
8/14/2022 9:15:00 AM 16.29 61.322 0.154 7.71 2.34 10.19
8/14/2022 9:30:00 AM 16.55 61.79 0.154 7.75 2.35 10.21
8/14/2022 9:45:00 AM 16.84 62.312 0.154 7.79 2.39 10.23
8/14/2022 10:00:00 AM 17.22 62.996 0.153 7.81 2.71 10.16
8/14/2022 10:15:00 AM 17.63 63.734 0.153 7.85 2.45 10.13
8/14/2022 10:30:00 AM 18 64.4 0.153 7.88 9.82 10.09
8/14/2022 10:45:00 AM 18.41 65.138 0.153 7.91 2.4 10.08
8/14/2022 11:00:00 AM 18.66 65.588 0.153 7.94 2.33 10.02
8/14/2022 11:15:00 AM 19.04 66.272 0.153 7.96 2.41 10
8/14/2022 11:30:00 AM 19.39 66.902 0.153 7.98 2.23 9.96
8/14/2022 11:45:00 AM 19.75 67.55 0.153 8.01 2.32 9.9
8/14/2022 12:00:00 PM 20.09 68.162 0.153 8.03 2.31 9.86
8/14/2022 12:15:00 PM 20.45 68.81 0.153 8.06 2.38 9.84
8/14/2022 12:30:00 PM 20.74 69.332 0.153 8.12 2.49 9.84
8/14/2022 12:45:00 PM 20.88 69.584 0.153 8.16 2.46 9.86
8/14/2022 1:00:00 PM 20.9 69.62 0.153 8.23 2.31 9.9
8/14/2022 1:15:00 PM 21.04 69.872 0.153 8.31 2.45 9.94
8/14/2022 1:30:00 PM 21.07 69.926 0.153 8.34 2.44 9.91
8/14/2022 1:45:00 PM 21.45 70.61 0.152 8.41 2.6 9.94
8/14/2022 2:00:00 PM 21.58 70.844 0.152 8.46 2.98 9.91
8/14/2022 2:15:00 PM 21.41 70.538 0.151 8.46 2.5 9.8
8/14/2022 2:30:00 PM 21.29 70.32201 0.151 8.44 2.7 9.68
8/14/2022 2:45:00 PM 21.14 70.052 0.151 8.42 3.15 9.56
8/14/2022 3:00:00 PM 20.98 69.764 0.15 8.41 2.52 9.53
8/14/2022 3:15:00 PM 20.92 69.656 0.15 8.44 2.55 9.51
8/14/2022 3:30:00 PM 20.95 69.71 0.15 8.47 2.78 9.51
8/14/2022 3:45:00 PM 20.91 69.638 0.15 8.45 2.48 9.41
8/14/2022 4:00:00 PM 20.92 69.656 0.15 8.41 2.54 9.28
8/14/2022 4:15:00 PM 20.91 69.638 0.149 8.35 2.56 9.13
8/14/2022 4:30:00 PM 20.97 69.746 0.149 8.34 2.59 9.11
8/14/2022 4:45:00 PM 21.03 69.854 0.149 8.37 2.57 9.12
8/14/2022 5:00:00 PM 21.07 69.926 0.149 8.34 2.8 9.03
8/14/2022 5:15:00 PM 21.15 70.07 0.149 8.32 3.69 9.02
8/14/2022 5:30:00 PM 21.22 70.196 0.149 8.31 2.89 9.01
8/14/2022 5:45:00 PM 21.23 70.214 0.15 8.24 3.19 8.86
8/14/2022 6:00:00 PM 21.22 70.196 0.15 8.12 2.89 8.68
8/14/2022 6:15:00 PM 21.19 70.142 0.151 8 2.79 8.5
8/14/2022 6:30:00 PM 21.2 70.16 0.151 7.87 2.72 8.3
8/14/2022 6:45:00 PM 21.16 70.088 0.152 7.77 2.8 8.14
8/14/2022 7:00:00 PM 21.11 69.998 0.153 7.68 2.78 7.99
8/14/2022 7:15:00 PM 21.06 69.908 0.153 7.62 2.79 7.91
8/14/2022 7:30:00 PM 21.02 69.836 0.154 7.57 2.82 7.85
8/14/2022 7:45:00 PM 20.97 69.746 0.155 7.53 2.9 7.74
8/14/2022 8:00:00 PM 20.91 69.638 0.155 7.49 2.61 7.65
8/14/2022 8:15:00 PM 20.86 69.548 0.156 7.46 3.24 7.58
8/14/2022 8:30:00 PM 20.81 69.458 0.157 7.44 2.87 7.55
8/14/2022 8:45:00 PM 20.75 69.35 0.157 7.42 2.99 7.51
8/14/2022 9:00:00 PM 20.68 69.224 0.158 7.4 3.01 7.5
8/14/2022 9:15:00 PM 20.61 69.098 0.158 7.39 3.24 7.48
8/14/2022 9:30:00 PM 20.54 68.972 0.159 7.39 3.25 7.5
8/14/2022 9:45:00 PM 20.48 68.864 0.159 7.38 3.78 7.51
8/14/2022 10:00:00 PM 20.4 68.72 0.159 7.37 3.64 7.53
8/14/2022 10:15:00 PM 20.34 68.612 0.159 7.37 3.39 7.54
8/14/2022 10:30:00 PM 20.27 68.486 0.16 7.36 3.39 7.54
8/14/2022 10:45:00 PM 20.2 68.36 0.159 7.36 3.09 7.6
8/14/2022 11:00:00 PM 20.13 68.234 0.159 7.36 3.13 7.62
8/14/2022 11:15:00 PM 20.07 68.126 0.159 7.36 3.03 7.64
8/14/2022 11:30:00 PM 20 68 0.159 7.35 2.97 7.65
8/14/2022 11:45:00 PM 19.94 67.892 0.159 7.36 3.06 7.67
8/15/2022 12:00:00 AM 19.87 67.766 0.159 7.35 3.1 7.69
8/15/2022 12:15:00 AM 19.81 67.658 0.16 7.35 3.16 7.66
8/15/2022 12:30:00 AM 19.75 67.55 0.16 7.34 2.83 7.65
8/15/2022 12:45:00 AM 19.68 67.424 0.159 7.34 2.86 7.69
8/15/2022 1:00:00 AM 19.62 67.316 0.159 7.34 2.95 7.69
8/15/2022 1:15:00 AM 19.56 67.208 0.159 7.34 2.78 7.72
8/15/2022 1:30:00 AM 19.49 67.082 0.159 7.34 2.78 7.75
8/15/2022 1:45:00 AM 19.43 66.974 0.159 7.34 2.94 7.76
8/15/2022 2:00:00 AM 19.37 66.866 0.159 7.34 2.88 7.78
8/15/2022 2:15:00 AM 19.31 66.758 0.159 7.34 2.76 7.8
8/15/2022 2:30:00 AM 19.26 66.668 0.159 7.34 2.73 7.8
8/15/2022 2:45:00 AM 19.2 66.56 0.159 7.34 2.99 7.81
8/15/2022 3:00:00 AM 19.14 66.452 0.159 7.34 2.96 7.84
8/15/2022 3:15:00 AM 19.08 66.344 0.159 7.34 2.7 7.86
8/15/2022 3:30:00 AM 19.03 66.254 0.159 7.33 2.71 7.87
8/15/2022 3:45:00 AM 18.97 66.146 0.159 7.34 2.78 7.91
8/15/2022 4:00:00 AM 18.92 66.056 0.159 7.34 2.73 7.91
8/15/2022 4:15:00 AM 18.87 65.966 0.158 7.34 3.15 7.96
8/15/2022 4:30:00 AM 18.82 65.876 0.158 7.34 2.7 7.94
8/15/2022 4:45:00 AM 18.77 65.786 0.158 7.34 2.74 7.96
8/15/2022 5:00:00 AM 18.72 65.696 0.158 7.34 2.87 7.97
8/15/2022 5:15:00 AM 18.67 65.606 0.158 7.34 3.63 7.98
8/15/2022 5:30:00 AM 18.62 65.516 0.158 7.34 2.94 8
8/15/2022 5:45:00 AM 18.57 65.426 0.158 7.34 2.78 8.01
8/15/2022 6:00:00 AM 18.52 65.336 0.158 7.34 2.63 8.02
8/15/2022 6:15:00 AM 18.47 65.246 0.157 7.34 2.59 8.04
8/15/2022 6:30:00 AM 18.43 65.174 0.157 7.34 2.72 8.07
8/15/2022 6:45:00 AM 18.38 65.084 0.157 7.34 2.6 8.1
8/15/2022 7:00:00 AM 18.35 65.03 0.157 7.34 3.16 8.15
8/15/2022 7:15:00 AM 18.32 64.976 0.157 7.36 2.73 8.23
8/15/2022 7:30:00 AM 18.27 64.886 0.157 7.37 2.59 8.35
8/15/2022 7:45:00 AM 18.27 64.886 0.156 7.4 2.68 8.55
8/15/2022 8:00:00 AM 18.3 64.94 0.156 7.43 3.2 8.7
8/15/2022 8:15:00 AM 18.37 65.066 0.156 7.46 2.61 8.83
8/15/2022 8:30:00 AM 18.41 65.138 0.156 7.49 2.66 8.94
8/15/2022 8:45:00 AM 18.56 65.408 0.155 7.51 2.51 9.05
8/15/2022 9:00:00 AM 18.71 65.67799 0.155 7.55 2.83 9.17
8/15/2022 9:15:00 AM 18.91 66.038 0.155 7.59 2.39 9.27
8/15/2022 9:30:00 AM 19.04 66.272 0.154 7.63 2.68 9.37
8/15/2022 9:45:00 AM 19.02 66.236 0.154 7.67 2.8 9.39
8/15/2022 10:00:00 AM 19.02 66.236 0.154 7.69 2.6 9.43
8/15/2022 10:15:00 AM 19.2 66.56 0.153 7.77 2.73 9.63
8/15/2022 10:30:00 AM 19.29 66.722 0.153 7.86 2.41 9.76
8/15/2022 10:45:00 AM 19.61 67.298 0.153 7.94 2.48 9.89
8/15/2022 11:00:00 AM 19.76 67.568 0.153 8.02 2.65 9.92
8/15/2022 11:15:00 AM 20.16 68.288 0.153 8.09 2.74 9.98
8/15/2022 11:30:00 AM 20.05 68.09 0.152 8.11 2.37 9.87
8/15/2022 11:45:00 AM 20.57 69.026 0.152 8.16 2.47 9.93
8/15/2022 12:00:00 PM 20.83 69.494 0.151 8.28 2.76 10
8/15/2022 12:15:00 PM 20.75 69.35 0.151 8.35 2.41 10
8/15/2022 12:30:00 PM 20.71 69.278 0.151 8.41 2.42 10
8/15/2022 12:45:00 PM 20.69 69.242 0.151 8.47 2.42 10
8/15/2022 1:00:00 PM 20.83 69.494 0.15 8.51 2.98 10.02
8/15/2022 1:15:00 PM 20.96 69.728 0.15 8.6 2.41 10.02
8/15/2022 1:30:00 PM 21.24 70.232 0.15 8.66 2.46 10.04
8/15/2022 1:45:00 PM 21.56 70.808 0.15 8.7 2.37 10.06
8/15/2022 2:00:00 PM 21.53 70.754 0.149 8.71 3.16 9.97
8/15/2022 2:15:00 PM 21.31 70.358 0.149 8.73 2.61 9.9
8/15/2022 2:30:00 PM 21.23 70.214 0.149 8.75 2.65 9.86
8/15/2022 2:45:00 PM 21.19 70.142 0.149 8.79 2.59 9.81
8/15/2022 3:00:00 PM 21.19 70.142 0.149 8.78 2.6 9.7
8/15/2022 3:15:00 PM 21.21 70.17799 0.149 8.79 2.6 9.66
8/15/2022 3:30:00 PM 21.33 70.394 0.148 8.82 2.63 9.7
8/15/2022 3:45:00 PM 21.4 70.52 0.148 8.86 2.73 9.73
8/15/2022 4:00:00 PM 21.33 70.394 0.148 8.86 2.81 9.7
8/15/2022 4:15:00 PM 21.24 70.232 0.148 8.84 2.99 9.6
8/15/2022 4:30:00 PM 21.21 70.17799 0.148 8.84 2.73 9.52
8/15/2022 4:45:00 PM 21.17 70.106 0.148 8.82 2.58 9.4
8/15/2022 5:00:00 PM 21.17 70.106 0.148 8.81 2.9 9.33
8/15/2022 5:15:00 PM 21.14 70.052 0.148 8.8 2.8 9.31
8/15/2022 5:30:00 PM 21.06 69.908 0.148 8.76 2.76 9.16
8/15/2022 5:45:00 PM 21.02 69.836 0.148 8.67 2.84 8.99
8/15/2022 6:00:00 PM 20.98 69.764 0.148 8.59 2.62 8.92
8/15/2022 6:15:00 PM 20.95 69.71 0.149 8.54 2.61 8.89
8/15/2022 6:30:00 PM 20.9 69.62 0.149 8.46 2.71 8.8
8/15/2022 6:45:00 PM 20.83 69.494 0.149 8.32 2.74 8.63
8/15/2022 7:00:00 PM 20.77 69.386 0.15 8.17 2.64 8.5
8/15/2022 7:15:00 PM 20.71 69.278 0.15 8.04 2.89 8.38
8/15/2022 7:30:00 PM 20.64 69.152 0.151 7.89 2.71 8.2
8/15/2022 7:45:00 PM 20.57 69.026 0.152 7.78 2.77 8.09
8/15/2022 8:00:00 PM 20.48 68.864 0.153 7.68 2.77 7.95
8/15/2022 8:15:00 PM 20.38 68.684 0.154 7.6 2.73 7.83
8/15/2022 8:30:00 PM 20.26 68.468 0.155 7.54 2.97 7.75
8/15/2022 8:45:00 PM 20.17 68.306 0.155 7.5 2.81 7.68
8/15/2022 9:00:00 PM 20.08 68.144 0.156 7.47 2.92 7.65
8/15/2022 9:15:00 PM 19.99 67.982 0.156 7.44 2.95 7.65
8/15/2022 9:30:00 PM 19.92 67.856 0.157 7.42 2.97 7.6
8/15/2022 9:45:00 PM 19.84 67.712 0.157 7.41 2.8 7.61
8/15/2022 10:00:00 PM 19.75 67.55 0.158 7.4 3.15 7.64
8/15/2022 10:15:00 PM 19.68 67.424 0.158 7.39 2.83 7.66
8/15/2022 10:30:00 PM 19.61 67.298 0.158 7.38 2.84 7.66
8/15/2022 10:45:00 PM 19.54 67.172 0.159 7.38 2.85 7.68
8/15/2022 11:00:00 PM 19.47 67.046 0.159 7.37 2.69 7.71
8/15/2022 11:15:00 PM 19.4 66.92 0.159 7.37 2.67 7.72
8/15/2022 11:30:00 PM 19.32 66.776 0.159 7.37 2.74 7.76
8/15/2022 11:45:00 PM 19.25 66.65 0.159 7.36 2.97 7.76
8/16/2022 12:00:00 AM 19.17 66.506 0.159 7.36 2.67 7.76
8/16/2022 12:15:00 AM 19.1 66.38 0.159 7.36 2.8 7.79
8/16/2022 12:30:00 AM 19.01 66.218 0.159 7.35 2.6 7.83
8/16/2022 12:45:00 AM 18.94 66.092 0.159 7.35 2.63 7.84
8/16/2022 1:00:00 AM 18.87 65.966 0.159 7.35 2.78 7.86
8/16/2022 1:15:00 AM 18.8 65.84 0.159 7.35 2.87 7.87
8/16/2022 1:30:00 AM 18.72 65.696 0.159 7.34 2.97 7.89
8/16/2022 1:45:00 AM 18.65 65.57 0.159 7.34 2.73 7.92
8/16/2022 2:00:00 AM 18.58 65.444 0.159 7.34 2.69 7.93
8/16/2022 2:15:00 AM 18.52 65.336 0.159 7.34 2.93 7.95
8/16/2022 2:30:00 AM 18.47 65.246 0.159 7.34 2.64 7.98
8/16/2022 2:45:00 AM 18.41 65.138 0.159 7.34 2.58 7.99
8/16/2022 3:00:00 AM 18.37 65.066 0.159 7.33 3.39 7.98
8/16/2022 3:15:00 AM 18.32 64.976 0.159 7.34 2.65 8.03
8/16/2022 3:30:00 AM 18.26 64.868 0.158 7.34 2.77 8.06
8/16/2022 3:45:00 AM 18.21 64.778 0.158 7.34 2.71 8.09
8/16/2022 4:00:00 AM 18.16 64.688 0.158 7.34 2.63 8.08
8/16/2022 4:15:00 AM 18.11 64.598 0.158 7.35 2.68 8.14
8/16/2022 4:30:00 AM 18.07 64.526 0.158 7.34 2.58 8.11
8/16/2022 4:45:00 AM 18.03 64.454 0.158 7.34 2.4 8.11
8/16/2022 5:00:00 AM 17.98 64.364 0.158 7.33 2.66 8.11
8/16/2022 5:15:00 AM 17.94 64.292 0.158 7.33 2.57 8.08
8/16/2022 5:30:00 AM 17.9 64.22 0.158 7.33 2.59 8.1
8/16/2022 5:45:00 AM 17.86 64.148 0.158 7.33 2.6 8.1
8/16/2022 6:00:00 AM 17.83 64.094 0.158 7.32 2.49 8.12
8/16/2022 6:15:00 AM 17.79 64.022 0.158 7.32 2.45 8.12
8/16/2022 6:30:00 AM 17.76 63.968 0.157 7.32 2.56 8.12
8/16/2022 6:45:00 AM 17.72 63.896 0.157 7.32 2.69 8.15
8/16/2022 7:00:00 AM 17.7 63.86 0.157 7.33 2.66 8.19
8/16/2022 7:15:00 AM 17.68 63.824 0.157 7.33 2.58 8.25
8/16/2022 7:30:00 AM 17.67 63.806 0.157 7.35 2.84 8.38
8/16/2022 7:45:00 AM 17.68 63.824 0.156 7.38 2.89 8.54
8/16/2022 8:00:00 AM 17.68 63.824 0.156 7.39 2.62 8.63
8/16/2022 8:15:00 AM 17.69 63.842 0.156 7.41 2.81 8.74
8/16/2022 8:30:00 AM 17.73 63.914 0.155 7.44 2.74 8.91
8/16/2022 8:45:00 AM 17.82 64.076 0.155 7.49 2.56 9.14
8/16/2022 9:00:00 AM 17.91 64.238 0.155 7.54 2.65 9.34
8/16/2022 9:15:00 AM 18.06 64.508 0.154 7.6 2.5 9.55
8/16/2022 9:30:00 AM 18.24 64.832 0.154 7.67 2.61 9.72
8/16/2022 9:45:00 AM 18.35 65.03 0.153 7.74 2.42 9.81
8/16/2022 10:00:00 AM 18.44 65.192 0.153 7.77 2.55 9.82
8/16/2022 10:15:00 AM 18.57 65.426 0.152 7.83 2.67 9.89
8/16/2022 10:30:00 AM 18.83 65.894 0.152 7.91 2.6 9.99
8/16/2022 10:45:00 AM 19.01 66.218 0.151 7.99 2.68 10.02
8/16/2022 11:00:00 AM 19.09 66.362 0.151 8.01 2.51 9.96
8/16/2022 11:15:00 AM 19.11 66.398 0.151 8.02 2.47 9.88
8/16/2022 11:30:00 AM 19.11 66.398 0.151 8.01 2.4 9.8
8/16/2022 11:45:00 AM 19.18 66.524 0.15 8.04 2.56 9.79
8/16/2022 12:00:00 PM 19.41 66.938 0.15 8.15 2.47 9.9
8/16/2022 12:15:00 PM 20.04 68.07201 0.15 8.26 2.39 9.99
8/16/2022 12:30:00 PM 20.66 69.188 0.15 8.3 2.59 9.98
8/16/2022 12:45:00 PM 21.23 70.214 0.15 8.35 2.48 9.97
8/16/2022 1:00:00 PM 21.49 70.682 0.15 8.39 2.7 9.95
8/16/2022 1:15:00 PM 21.71 71.078 0.15 8.45 2.46 9.88
8/16/2022 1:30:00 PM 21.36 70.448 0.15 8.42 2.46 9.62
8/16/2022 1:45:00 PM 21.03 69.854 0.15 8.29 2.52 9.27
8/16/2022 2:00:00 PM 21 69.8 0.15 8.25 2.59 9.23
8/16/2022 2:15:00 PM 20.99 69.782 0.15 8.25 2.58 9.19
8/16/2022 2:30:00 PM 20.86 69.548 0.15 8.13 2.63 8.91
8/16/2022 2:45:00 PM 20.67 69.206 0.151 7.95 2.74 8.65
8/16/2022 3:00:00 PM 20.46 68.828 0.151 7.84 2.99 8.52
8/16/2022 3:15:00 PM 20.27 68.486 0.151 7.77 2.88 8.44
8/16/2022 3:30:00 PM 20.1 68.18 0.151 7.7 2.74 8.36
8/16/2022 3:45:00 PM 19.97 67.946 0.151 7.65 2.98 8.34
8/16/2022 4:00:00 PM 19.9 67.82 0.151 7.64 2.77 8.45
8/16/2022 4:15:00 PM 19.89 67.802 0.151 7.66 3.02 8.56
8/16/2022 4:30:00 PM 19.91 67.838 0.151 7.65 2.75 8.7
8/16/2022 4:45:00 PM 19.93 67.874 0.151 7.73 3.08 8.85
8/16/2022 5:00:00 PM 19.94 67.892 0.151 7.77 2.8 9
8/16/2022 5:15:00 PM 19.99 67.982 0.151 7.83 3.5 9.14
8/16/2022 5:30:00 PM 19.99 67.982 0.151 7.85 2.83 9.17
8/16/2022 5:45:00 PM 20.02 68.036 0.151 7.89 2.96 9.26
8/16/2022 6:00:00 PM 19.98 67.964 0.151 7.87 3.93 9.14
8/16/2022 6:15:00 PM 19.91 67.838 0.151 7.77 2.96 8.84
8/16/2022 6:30:00 PM 19.85 67.73 0.151 7.69 3.29 8.65
8/16/2022 6:45:00 PM 19.82 67.676 0.151 7.65 2.73 8.56
8/16/2022 7:00:00 PM 19.79 67.622 0.151 7.6 2.78 8.46
8/16/2022 7:15:00 PM 19.75 67.55 0.152 7.55 2.88 8.29
8/16/2022 7:30:00 PM 19.71 67.478 0.152 7.52 2.79 8.19
8/16/2022 7:45:00 PM 19.69 67.442 0.152 7.49 2.81 8.09
8/16/2022 8:00:00 PM 19.66 67.388 0.153 7.46 2.93 7.99
8/16/2022 8:15:00 PM 19.6 67.28 0.154 7.43 3.02 7.9
8/16/2022 8:30:00 PM 19.53 67.154 0.154 7.4 16.67 7.81
8/16/2022 8:45:00 PM 19.5 67.1 0.155 7.4 2.61 7.79
8/16/2022 9:00:00 PM 19.46 67.028 0.156 7.39 2.85 7.77
8/16/2022 9:15:00 PM 19.4 66.92 0.156 7.37 3.08 7.76
8/16/2022 9:30:00 PM 19.33 66.794 0.157 7.37 3.29 7.75
8/16/2022 9:45:00 PM 19.28 66.704 0.156 7.38 3.32 7.87
8/16/2022 10:00:00 PM 19.26 66.668 0.156 7.43 4.67 8.1
8/16/2022 10:15:00 PM 19.18 66.524 0.157 7.44 3.68 8.16
8/16/2022 10:30:00 PM 19.09 66.362 0.157 7.44 3.93 8.21
8/16/2022 10:45:00 PM 19 66.2 0.157 7.44 3.66 8.23
8/16/2022 11:00:00 PM 18.91 66.038 0.157 7.43 3.58 8.28
8/16/2022 11:15:00 PM 18.81 65.858 0.157 7.43 3.27 8.24
8/16/2022 11:30:00 PM 18.71 65.67799 0.157 7.43 3.35 8.3
8/16/2022 11:45:00 PM 18.63 65.534 0.158 7.43 3.08 8.32
8/17/2022 12:00:00 AM 18.55 65.39 0.158 7.42 3.14 8.35
8/17/2022 12:15:00 AM 18.46 65.228 0.158 7.42 3.15 8.35
8/17/2022 12:30:00 AM 18.38 65.084 0.159 7.42 3.73 8.39
8/17/2022 12:45:00 AM 18.31 64.958 0.159 7.42 3.15 8.41
8/17/2022 1:00:00 AM 18.25 64.85 0.159 7.42 3.07 8.43
8/17/2022 1:15:00 AM 18.18 64.724 0.158 7.42 2.88 8.44
8/17/2022 1:30:00 AM 18.12 64.616 0.157 7.41 2.92 8.45
8/17/2022 1:45:00 AM 18.07 64.526 0.155 7.4 2.98 8.44
8/17/2022 2:00:00 AM 18.02 64.436 0.153 7.4 3.26 8.46
8/17/2022 2:15:00 AM 17.96 64.328 0.151 7.4 3 8.46
8/17/2022 2:30:00 AM 17.9 64.22 0.149 7.39 3.06 8.45
8/17/2022 2:45:00 AM 17.84 64.112 0.147 7.38 3.35 8.47
8/17/2022 3:00:00 AM 17.78 64.004 0.144 7.38 3.24 8.51
8/17/2022 3:15:00 AM 17.72 63.896 0.143 7.38 2.99 8.53
8/17/2022 3:30:00 AM 17.65 63.77 0.141 7.38 3.07 8.58
8/17/2022 3:45:00 AM 17.58 63.644 0.14 7.38 2.98 8.62
8/17/2022 4:00:00 AM 17.51 63.518 0.139 7.38 4.59 8.64
8/17/2022 4:15:00 AM 17.44 63.392 0.138 7.38 3.31 8.68
8/17/2022 4:30:00 AM 17.37 63.266 0.137 7.38 3.24 8.7
8/17/2022 4:45:00 AM 17.3 63.14 0.136 7.38 3.9 8.7
8/17/2022 5:00:00 AM 17.22 62.996 0.135 7.38 3.09 8.74
8/17/2022 5:15:00 AM 17.15 62.87 0.135 7.38 3.41 8.76
8/17/2022 5:30:00 AM 17.09 62.762 0.135 7.38 3.34 8.77
8/17/2022 5:45:00 AM 17.03 62.654 0.134 7.38 3.45 8.8
8/17/2022 6:00:00 AM 16.97 62.546 0.134 7.37 3.25 8.81
8/17/2022 6:15:00 AM 16.91 62.438 0.134 7.37 3.21 8.83
8/17/2022 6:30:00 AM 16.87 62.366 0.134 7.37 3.58 8.86
8/17/2022 6:45:00 AM 16.84 62.312 0.134 7.38 3.5 8.92
8/17/2022 7:00:00 AM 16.82 62.276 0.135 7.4 4.21 9.01
8/17/2022 7:15:00 AM 16.8 62.24 0.135 7.42 3.49 9.1
8/17/2022 7:30:00 AM 16.79 62.222 0.135 7.44 3.27 9.19
8/17/2022 7:45:00 AM 16.81 62.258 0.135 7.47 3.24 9.3
8/17/2022 8:00:00 AM 16.85 62.33 0.136 7.5 3.49 9.42
8/17/2022 8:15:00 AM 16.91 62.438 0.136 7.53 3.75 9.54
8/17/2022 8:30:00 AM 16.98 62.564 0.137 7.57 3.22 9.63
8/17/2022 8:45:00 AM 17.06 62.708 0.137 7.6 3.25 9.69
8/17/2022 9:00:00 AM 17.16 62.888 0.138 7.64 3.26 9.78
8/17/2022 9:15:00 AM 17.27 63.086 0.138 7.69 2.96 9.86
8/17/2022 9:30:00 AM 17.37 63.266 0.139 7.74 3 9.9
8/17/2022 9:45:00 AM 17.49 63.482 0.139 7.78 3.01 9.93
8/17/2022 10:00:00 AM 17.59 63.662 0.14 7.82 2.9 9.91
8/17/2022 10:15:00 AM 17.73 63.914 0.14 7.85 3.11 9.94
8/17/2022 10:30:00 AM 17.88 64.184 0.141 7.92 2.92 9.98
8/17/2022 10:45:00 AM 17.97 64.346 0.141 7.94 3 9.93
8/17/2022 11:00:00 AM 18.09 64.562 0.142 7.97 3.75 9.96
8/17/2022 11:15:00 AM 18.22 64.796 0.142 8.01 3.59 9.96
8/17/2022 11:30:00 AM 18.33 64.994 0.142 8.06 2.85 9.96
8/17/2022 11:45:00 AM 18.37 65.066 0.142 8.05 2.63 9.87
8/17/2022 12:00:00 PM 18.45 65.21 0.143 8.07 2.61 9.84
8/17/2022 12:15:00 PM 18.48 65.264 0.143 8.04 3.07 9.73
8/17/2022 12:30:00 PM 18.5 65.3 0.143 7.97 9.73 9.58
8/17/2022 12:45:00 PM 18.53 65.354 0.143 7.93 2.58 9.51
8/17/2022 1:00:00 PM 18.57 65.426 0.143 7.92 2.74 9.48
8/17/2022 1:15:00 PM 18.6 65.48 0.143 7.92 2.93 9.51
8/17/2022 1:30:00 PM 18.67 65.606 0.143 7.95 2.86 9.6
8/17/2022 1:45:00 PM 18.8 65.84 0.143 8.04 2.79 9.75
8/17/2022 2:00:00 PM 19.01 66.218 0.143 8.15 2.66 9.89
8/17/2022 2:15:00 PM 19.26 66.668 0.143 8.25 2.58 9.96
8/17/2022 2:30:00 PM 19.74 67.532 0.143 8.31 2.63 9.97
8/17/2022 2:45:00 PM 20.08 68.144 0.143 8.37 3.2 9.98
8/17/2022 3:00:00 PM 20.41 68.738 0.143 8.41 3.07 9.93
8/17/2022 3:15:00 PM 20.7 69.26 0.144 8.47 3.23 9.9
8/17/2022 3:30:00 PM 20.7 69.26 0.144 8.49 2.76 9.8
8/17/2022 3:45:00 PM 20.78 69.404 0.144 8.52 2.83 9.75
8/17/2022 4:00:00 PM 21 69.8 0.144 8.55 2.67 9.67
8/17/2022 4:15:00 PM 20.97 69.746 0.144 8.55 2.81 9.56
8/17/2022 4:30:00 PM 21.01 69.818 0.145 8.53 3.02 9.39
8/17/2022 4:45:00 PM 20.98 69.764 0.145 8.45 2.94 9.19
8/17/2022 5:00:00 PM 21.01 69.818 0.146 8.36 2.91 9.03
8/17/2022 5:15:00 PM 20.99 69.782 0.146 8.25 2.79 8.89
8/17/2022 5:30:00 PM 20.94 69.692 0.147 8.16 2.9 8.84
8/17/2022 5:45:00 PM 20.87 69.566 0.147 8.08 2.78 8.82
8/17/2022 6:00:00 PM 20.76 69.368 0.147 7.99 3.64 8.77
8/17/2022 6:15:00 PM 20.64 69.152 0.148 7.92 3 8.74
8/17/2022 6:30:00 PM 20.51 68.918 0.148 7.85 3.12 8.7
8/17/2022 6:45:00 PM 20.37 68.666 0.149 7.79 2.89 8.64
8/17/2022 7:00:00 PM 20.25 68.45 0.149 7.74 2.9 8.63
8/17/2022 7:15:00 PM 20.14 68.252 0.149 7.7 2.77 8.58
8/17/2022 7:30:00 PM 20.04 68.07201 0.149 7.65 2.64 8.46
8/17/2022 7:45:00 PM 19.94 67.892 0.15 7.61 3.11 8.38
8/17/2022 8:00:00 PM 19.85 67.73 0.15 7.57 3.11 8.29
8/17/2022 8:15:00 PM 19.73 67.514 0.151 7.54 2.9 8.24
8/17/2022 8:30:00 PM 19.63 67.334 0.151 7.51 3.14 8.19
8/17/2022 8:45:00 PM 19.54 67.172 0.151 7.49 3.15 8.15
8/17/2022 9:00:00 PM 19.43 66.974 0.151 7.47 3.56 8.14
8/17/2022 9:15:00 PM 19.32 66.776 0.152 7.46 3.13 8.14
8/17/2022 9:30:00 PM 19.2 66.56 0.152 7.45 3.25 8.14
8/17/2022 9:45:00 PM 19.07 66.326 0.152 7.44 3.48 8.16
8/17/2022 10:00:00 PM 18.95 66.11 0.152 7.43 4.25 8.2
8/17/2022 10:15:00 PM 18.81 65.858 0.152 7.43 3.16 8.24
8/17/2022 10:30:00 PM 18.68 65.624 0.152 7.42 3.64 8.26
8/17/2022 10:45:00 PM 18.54 65.372 0.152 7.42 3.23 8.28
8/17/2022 11:00:00 PM 18.41 65.138 0.152 7.42 3.2 8.32
8/17/2022 11:15:00 PM 18.28 64.904 0.152 7.41 3.24 8.37
8/17/2022 11:30:00 PM 18.16 64.688 0.152 7.41 3.03 8.37
8/17/2022 11:45:00 PM 18.04 64.472 0.152 7.41 3.09 8.41
8/18/2022 12:00:00 AM 17.93 64.274 0.152 7.41 3.43 8.42
8/18/2022 12:15:00 AM 17.81 64.058 0.152 7.41 3.41 8.46
8/18/2022 12:30:00 AM 17.7 63.86 0.152 7.41 3.1 8.49
8/18/2022 12:45:00 AM 17.59 63.662 0.152 7.4 2.94 8.53
8/18/2022 1:00:00 AM 17.5 63.5 0.152 7.4 2.8 8.51
8/18/2022 1:15:00 AM 17.41 63.338 0.152 7.4 3.04 8.58
8/18/2022 1:30:00 AM 17.32 63.176 0.152 7.4 2.78 8.6
8/18/2022 1:45:00 AM 17.21 62.978 0.152 7.4 2.82 8.61
8/18/2022 2:00:00 AM 17.13 62.834 0.152 7.4 2.9 8.64
8/18/2022 2:15:00 AM 17.06 62.708 0.152 7.4 2.98 8.66
8/18/2022 2:30:00 AM 17 62.6 0.152 7.4 3.69 8.68
8/18/2022 2:45:00 AM 16.94 62.492 0.152 7.4 3.02 8.71
8/18/2022 3:00:00 AM 16.9 62.42 0.152 7.4 2.71 8.74
8/18/2022 3:15:00 AM 16.86 62.348 0.152 7.4 2.68 8.74
8/18/2022 3:30:00 AM 16.81 62.258 0.152 7.4 2.88 8.75
8/18/2022 3:45:00 AM 16.78 62.204 0.152 7.4 2.69 8.76
8/18/2022 4:00:00 AM 16.75 62.15 0.152 7.4 2.69 8.77
8/18/2022 4:15:00 AM 16.71 62.078 0.152 7.4 2.9 8.78
8/18/2022 4:30:00 AM 16.68 62.024 0.152 7.4 2.83 8.78
8/18/2022 4:45:00 AM 16.66 61.988 0.152 7.4 2.65 8.78
8/18/2022 5:00:00 AM 16.63 61.934 0.151 7.4 3.04 8.8
8/18/2022 5:15:00 AM 16.6 61.88 0.151 7.4 3.87 8.8
8/18/2022 5:30:00 AM 16.58 61.844 0.151 7.4 3.06 8.79
8/18/2022 5:45:00 AM 16.56 61.808 0.151 7.4 4.15 8.8
8/18/2022 6:00:00 AM 16.53 61.754 0.151 7.4 2.83 8.82
8/18/2022 6:15:00 AM 16.51 61.718 0.151 7.4 3.11 8.81
8/18/2022 6:30:00 AM 16.47 61.646 0.151 7.4 3.92 8.85
8/18/2022 6:45:00 AM 16.44 61.592 0.151 7.41 3.07 8.88
8/18/2022 7:00:00 AM 16.42 61.556 0.151 7.42 2.92 8.93
8/18/2022 7:15:00 AM 16.39 61.502 0.151 7.43 2.97 9
8/18/2022 7:30:00 AM 16.37 61.466 0.151 7.44 2.71 9.08
8/18/2022 7:45:00 AM 16.38 61.484 0.151 7.47 2.93 9.21
8/18/2022 8:00:00 AM 16.4 61.52 0.15 7.51 2.76 9.42
8/18/2022 8:15:00 AM 16.45 61.61 0.15 7.55 2.76 9.59
8/18/2022 8:30:00 AM 16.48 61.664 0.15 7.59 2.87 9.72
8/18/2022 8:45:00 AM 16.56 61.808 0.15 7.64 3.02 9.85
8/18/2022 9:00:00 AM 16.72 62.096 0.149 7.7 2.8 9.96
8/18/2022 9:15:00 AM 16.91 62.438 0.149 7.74 3.17 10.03
8/18/2022 9:30:00 AM 17.14 62.852 0.149 7.78 2.56 10.03
8/18/2022 9:45:00 AM 17.38 63.284 0.148 7.81 2.77 9.99
8/18/2022 10:00:00 AM 17.63 63.734 0.148 7.83 3.42 9.97
8/18/2022 10:15:00 AM 17.84 64.112 0.148 7.85 2.66 9.95
8/18/2022 10:30:00 AM 18.09 64.562 0.148 7.88 2.58 9.95
8/18/2022 10:45:00 AM 18.37 65.066 0.148 7.91 2.81 9.95
8/18/2022 11:00:00 AM 18.66 65.588 0.149 7.93 2.55 9.93
8/18/2022 11:15:00 AM 18.93 66.074 0.149 7.95 2.84 9.9
8/18/2022 11:30:00 AM 19.19 66.542 0.149 7.98 2.67 9.88
8/18/2022 11:45:00 AM 19.48 67.064 0.149 8.02 5.36 9.89
8/18/2022 12:00:00 PM 19.65 67.37 0.149 8.04 2.56 9.85
8/18/2022 12:15:00 PM 19.7 67.46 0.149 8.05 2.47 9.78
8/18/2022 12:30:00 PM 19.91 67.838 0.149 8.08 2.74 9.79
8/18/2022 12:45:00 PM 20.04 68.07201 0.149 8.13 2.58 9.82
8/18/2022 1:00:00 PM 20.2 68.36 0.149 8.16 3.42 9.83
8/18/2022 1:15:00 PM 20.24 68.432 0.148 8.2 2.47 9.8
8/18/2022 1:30:00 PM 20.58 69.044 0.148 8.25 2.44 9.81
8/18/2022 1:45:00 PM 20.95 69.71 0.148 8.32 2.53 9.8
8/18/2022 2:00:00 PM 21.2 70.16 0.147 8.36 2.61 9.78
8/18/2022 2:15:00 PM 21.42 70.556 0.147 8.42 2.72 9.77
8/18/2022 2:30:00 PM 21.68 71.024 0.147 8.47 2.49 9.75
8/18/2022 2:45:00 PM 21.97 71.546 0.147 8.51 2.57 9.66
8/18/2022 3:00:00 PM 22.08 71.744 0.147 8.53 2.9 9.56
8/18/2022 3:15:00 PM 22 71.6 0.147 8.52 2.71 9.45
8/18/2022 3:30:00 PM 22.38 72.284 0.147 8.6 2.78 9.49
8/18/2022 3:45:00 PM 22.65 72.77 0.147 8.63 2.68 9.44
8/18/2022 4:00:00 PM 22.73 72.914 0.147 8.63 2.91 9.32
8/18/2022 4:15:00 PM 22.8 73.04 0.147 8.65 2.72 9.31
8/18/2022 4:30:00 PM 22.78 73.004 0.147 8.66 2.56 9.22
8/18/2022 4:45:00 PM 22.58 72.644 0.147 8.59 3 8.88
8/18/2022 5:00:00 PM 22.5 72.5 0.147 8.55 3.61 8.83
8/18/2022 5:15:00 PM 22.57 72.626 0.147 8.56 2.99 8.76
8/18/2022 5:30:00 PM 22.59 72.662 0.148 8.45 3.01 8.51
8/18/2022 5:45:00 PM 22.55 72.59 0.149 8.28 3.05 8.19
8/18/2022 6:00:00 PM 22.48 72.464 0.149 8.08 2.8 7.96
8/18/2022 6:15:00 PM 22.39 72.302 0.15 7.91 2.76 7.81
8/18/2022 6:30:00 PM 22.28 72.104 0.151 7.78 3.69 7.72
8/18/2022 6:45:00 PM 22.14 71.852 0.152 7.69 2.87 7.68
8/18/2022 7:00:00 PM 22.01 71.618 0.153 7.63 3.08 7.69
8/18/2022 7:15:00 PM 21.88 71.384 0.154 7.6 2.92 7.73
8/18/2022 7:30:00 PM 21.74 71.132 0.154 7.57 2.75 7.78
8/18/2022 7:45:00 PM 21.57 70.826 0.155 7.55 3 7.8
8/18/2022 8:00:00 PM 21.41 70.538 0.155 7.52 2.66 7.76
8/18/2022 8:15:00 PM 21.24 70.232 0.155 7.5 2.74 7.7
8/18/2022 8:30:00 PM 21.07 69.926 0.156 7.47 3.25 7.7
8/18/2022 8:45:00 PM 20.91 69.638 0.156 7.46 3.26 7.72
8/18/2022 9:00:00 PM 20.75 69.35 0.155 7.44 2.98 7.71
8/18/2022 9:15:00 PM 20.61 69.098 0.155 7.43 3.15 7.7
8/18/2022 9:30:00 PM 20.45 68.81 0.155 7.42 3.04 7.74
8/18/2022 9:45:00 PM 20.31 68.558 0.155 7.41 2.88 7.78
8/18/2022 10:00:00 PM 20.18 68.324 0.156 7.41 3.25 7.81
8/18/2022 10:15:00 PM 20.06 68.108 0.156 7.4 3.24 7.81
8/18/2022 10:30:00 PM 19.95 67.91 0.156 7.4 3.05 7.84
8/18/2022 10:45:00 PM 19.85 67.73 0.156 7.4 3.07 7.87
8/18/2022 11:00:00 PM 19.74 67.532 0.156 7.4 4.18 7.91
8/18/2022 11:15:00 PM 19.66 67.388 0.156 7.4 3.28 7.94
8/18/2022 11:30:00 PM 19.58 67.244 0.156 7.39 3.03 7.96
8/18/2022 11:45:00 PM 19.49 67.082 0.156 7.39 3.02 7.99
8/19/2022 12:00:00 AM 19.41 66.938 0.156 7.39 3.11 7.99
8/19/2022 12:15:00 AM 19.31 66.758 0.156 7.39 3.02 8.03
8/19/2022 12:30:00 AM 19.19 66.542 0.156 7.39 3.22 8.06
8/19/2022 12:45:00 AM 19.1 66.38 0.156 7.39 3.07 8.07
8/19/2022 1:00:00 AM 19.03 66.254 0.156 7.38 3.32 8.08
8/19/2022 1:15:00 AM 18.96 66.128 0.156 7.39 3.36 8.12
8/19/2022 1:30:00 AM 18.87 65.966 0.155 7.38 3.61 8.14
8/19/2022 1:45:00 AM 18.8 65.84 0.155 7.39 2.91 8.18
8/19/2022 2:00:00 AM 18.72 65.696 0.155 7.39 3.04 8.2
8/19/2022 2:15:00 AM 18.66 65.588 0.155 7.39 3.03 8.21
8/19/2022 2:30:00 AM 18.59 65.462 0.155 7.39 2.92 8.22
8/19/2022 2:45:00 AM 18.53 65.354 0.155 7.39 3.16 8.25
8/19/2022 3:00:00 AM 18.46 65.228 0.154 7.39 2.95 8.29
8/19/2022 3:15:00 AM 18.4 65.12 0.154 7.38 2.81 8.29
8/19/2022 3:30:00 AM 18.33 64.994 0.154 7.38 3.17 8.2
8/19/2022 3:45:00 AM 18.27 64.886 0.154 7.39 2.9 8.35
8/19/2022 4:00:00 AM 18.21 64.778 0.154 7.39 3.29 8.34
8/19/2022 4:15:00 AM 18.14 64.652 0.154 7.38 3.48 8.38
8/19/2022 4:30:00 AM 18.07 64.526 0.154 7.39 2.86 8.4
8/19/2022 4:45:00 AM 18.01 64.418 0.154 7.39 3.19 8.43
8/19/2022 5:00:00 AM 17.95 64.31 0.154 7.39 2.92 8.42
8/19/2022 5:15:00 AM 17.87 64.166 0.154 7.39 2.85 8.47
8/19/2022 5:30:00 AM 17.81 64.058 0.154 7.39 2.7 8.48
8/19/2022 5:45:00 AM 17.75 63.95 0.154 7.4 3.05 8.54
8/19/2022 6:00:00 AM 17.7 63.86 0.154 7.4 2.85 8.55
8/19/2022 6:15:00 AM 17.64 63.752 0.154 7.4 2.98 8.58
8/19/2022 6:30:00 AM 17.58 63.644 0.154 7.41 3.03 8.63
8/19/2022 6:45:00 AM 17.54 63.572 0.153 7.42 3.75 8.68
8/19/2022 7:00:00 AM 17.5 63.5 0.153 7.43 3.19 8.73
8/19/2022 7:15:00 AM 17.46 63.428 0.153 7.45 3.4 8.83
8/19/2022 7:30:00 AM 17.43 63.374 0.153 7.46 3.26 8.92
8/19/2022 7:45:00 AM 17.42 63.356 0.153 7.48 3.23 9.02
8/19/2022 8:00:00 AM 17.42 63.356 0.153 7.51 3.64 9.16
8/19/2022 8:15:00 AM 17.45 63.41 0.153 7.55 3.35 9.32
8/19/2022 8:30:00 AM 17.5 63.5 0.152 7.6 2.98 9.52
8/19/2022 8:45:00 AM 17.55 63.59 0.152 7.63 3.01 9.58
8/19/2022 9:00:00 AM 17.7 63.86 0.152 7.68 3.02 9.7
8/19/2022 9:15:00 AM 17.89 64.202 0.152 7.72 3.39 9.73
8/19/2022 9:30:00 AM 18.1 64.58 0.152 7.76 2.9 9.76
8/19/2022 9:45:00 AM 18.29 64.922 0.152 7.79 2.91 9.78
8/19/2022 10:00:00 AM 18.51 65.318 0.153 7.82 2.81 9.77
8/19/2022 10:15:00 AM 18.73 65.714 0.153 7.85 2.78 9.78
8/19/2022 10:30:00 AM 18.98 66.164 0.153 7.89 3.53 9.82
8/19/2022 10:45:00 AM 19.22 66.596 0.154 7.92 2.86 9.79
8/19/2022 11:00:00 AM 19.47 67.046 0.154 7.96 2.81 9.81
8/19/2022 11:15:00 AM 19.68 67.424 0.154 7.99 3.67 9.81
8/19/2022 11:30:00 AM 19.91 67.838 0.154 8.03 2.59 9.79
8/19/2022 11:45:00 AM 20.16 68.288 0.154 8.06 2.79 9.8
8/19/2022 12:00:00 PM 20.41 68.738 0.154 8.09 2.84 9.78
8/19/2022 12:15:00 PM 20.65 69.17 0.154 8.12 2.77 9.74
8/19/2022 12:30:00 PM 20.88 69.584 0.154 8.15 2.96 9.76
8/19/2022 12:45:00 PM 20.92 69.656 0.155 8.14 3.02 9.62
8/19/2022 1:00:00 PM 21.2 70.16 0.154 8.18 3.35 9.66
8/19/2022 1:15:00 PM 21.32 70.376 0.154 8.21 2.92 9.6
8/19/2022 1:30:00 PM 21.52 70.736 0.154 8.24 2.92 9.62
8/19/2022 1:45:00 PM 21.79 71.222 0.154 8.28 2.9 9.62
8/19/2022 2:00:00 PM 22.03 71.654 0.154 8.31 2.86 9.55
8/19/2022 2:15:00 PM 22.11 71.798 0.154 8.31 2.84 9.44
8/19/2022 2:30:00 PM 22.56 72.608 0.154 8.39 2.54 9.48
8/19/2022 2:45:00 PM 22.78 73.004 0.154 8.41 2.69 9.44
8/19/2022 3:00:00 PM 23.03 73.454 0.154 8.46 2.81 9.42
8/19/2022 3:15:00 PM 23.15 73.67 0.154 8.47 2.89 9.34
8/19/2022 3:30:00 PM 23.27 73.886 0.154 8.49 2.89 9.24
8/19/2022 3:45:00 PM 23.21 73.778 0.154 8.45 2.94 9.06
8/19/2022 4:00:00 PM 23.22 73.796 0.154 8.49 2.82 9.02
8/19/2022 4:15:00 PM 23.51 74.318 0.154 8.52 3.15 9.05
8/19/2022 4:30:00 PM 23.49 74.282 0.154 8.53 3.07 8.95
8/19/2022 4:45:00 PM 23.45 74.21 0.154 8.51 3.02 8.86
8/19/2022 5:00:00 PM 23.76 74.768 0.154 8.57 2.91 8.96
8/19/2022 5:15:00 PM 23.85 74.93 0.154 8.58 2.69 8.88
8/19/2022 5:30:00 PM 23.91 75.038 0.155 8.55 2.75 8.78
8/19/2022 5:45:00 PM 23.84 74.912 0.155 8.5 2.83 8.64
8/19/2022 6:00:00 PM 23.79 74.82201 0.155 8.44 2.81 8.52
8/19/2022 6:15:00 PM 23.72 74.696 0.155 8.35 3.08 8.42
8/19/2022 6:30:00 PM 23.68 74.624 0.155 8.27 2.86 8.3
8/19/2022 6:45:00 PM 23.64 74.552 0.156 8.14 2.97 8.13
8/19/2022 7:00:00 PM 23.58 74.444 0.156 8.02 3.15 8.03
8/19/2022 7:15:00 PM 23.46 74.228 0.157 7.89 2.94 7.88
8/19/2022 7:30:00 PM 23.32 73.976 0.158 7.78 2.79 7.76
8/19/2022 7:45:00 PM 23.17 73.706 0.159 7.69 4.23 7.65
8/19/2022 8:00:00 PM 23.01 73.418 0.159 7.63 3.95 7.57
8/19/2022 8:15:00 PM 22.84 73.112 0.16 7.57 2.99 7.51
8/19/2022 8:30:00 PM 22.65 72.77 0.159 7.53 3.86 7.48
8/19/2022 8:45:00 PM 22.44 72.392 0.161 7.51 3.5 7.48
8/19/2022 9:00:00 PM 22.22 71.996 0.161 7.48 3.38 7.51
8/19/2022 9:15:00 PM 22.02 71.636 0.161 7.47 3.16 7.51
8/19/2022 9:30:00 PM 21.81 71.258 0.161 7.45 3.39 7.53
8/19/2022 9:45:00 PM 21.61 70.898 0.161 7.44 3.37 7.61
8/19/2022 10:00:00 PM 21.43 70.574 0.161 7.44 3.31 7.64
8/19/2022 10:15:00 PM 21.25 70.25 0.161 7.43 3.25 7.66
8/19/2022 10:30:00 PM 21.06 69.908 0.161 7.42 3.02 7.71
8/19/2022 10:45:00 PM 20.88 69.584 0.161 7.42 3.48 7.75
8/19/2022 11:00:00 PM 20.71 69.278 0.161 7.42 3.32 7.82
8/19/2022 11:15:00 PM 20.57 69.026 0.161 7.41 3.02 7.81
8/19/2022 11:30:00 PM 20.41 68.738 0.16 7.41 3.22 7.85
8/19/2022 11:45:00 PM 20.29 68.522 0.16 7.4 3.55 7.89
8/20/2022 12:00:00 AM 20.15 68.27 0.16 7.4 2.94 7.93
8/20/2022 12:15:00 AM 20.02 68.036 0.16 7.4 3.88 7.96
8/20/2022 12:30:00 AM 19.91 67.838 0.16 7.38 3.74 7.95
8/20/2022 12:45:00 AM 19.77 67.586 0.16 7.39 2.96 7.98
8/20/2022 1:00:00 AM 19.65 67.37 0.16 7.39 3.21 8.04
8/20/2022 1:15:00 AM 19.54 67.172 0.16 7.39 2.94 8.08
8/20/2022 1:30:00 AM 19.43 66.974 0.16 7.39 3.29 8.06
8/20/2022 1:45:00 AM 19.31 66.758 0.16 7.39 2.89 8.11
8/20/2022 2:00:00 AM 19.21 66.578 0.16 7.39 3.22 8.06
8/20/2022 2:15:00 AM 19.09 66.362 0.159 7.39 3.07 8.14
8/20/2022 2:30:00 AM 19 66.2 0.159 7.38 3.02 8.2
8/20/2022 2:45:00 AM 18.89 66.002 0.159 7.39 2.88 8.23
8/20/2022 3:00:00 AM 18.8 65.84 0.159 7.38 2.96 8.24
8/20/2022 3:15:00 AM 18.73 65.714 0.159 7.38 3.09 8.27
8/20/2022 3:30:00 AM 18.65 65.57 0.159 7.38 3.04 8.28
8/20/2022 3:45:00 AM 18.57 65.426 0.159 7.38 3.97 8.3
8/20/2022 4:00:00 AM 18.49 65.282 0.158 7.38 3.33 8.31
8/20/2022 4:15:00 AM 18.4 65.12 0.158 7.38 3 8.36
8/20/2022 4:30:00 AM 18.33 64.994 0.158 7.38 3.01 8.37
8/20/2022 4:45:00 AM 18.25 64.85 0.158 7.37 2.99 8.38
8/20/2022 5:00:00 AM 18.17 64.706 0.158 7.37 2.76 8.4
8/20/2022 5:15:00 AM 18.09 64.562 0.158 7.37 2.92 8.41
8/20/2022 5:30:00 AM 18.02 64.436 0.158 7.37 2.76 8.42
8/20/2022 5:45:00 AM 17.95 64.31 0.158 7.37 2.72 8.43
8/20/2022 6:00:00 AM 17.87 64.166 0.158 7.37 2.86 8.45
8/20/2022 6:15:00 AM 17.8 64.04 0.158 7.37 2.87 8.45
8/20/2022 6:30:00 AM 17.73 63.914 0.158 7.37 3.21 8.49
8/20/2022 6:45:00 AM 17.67 63.806 0.157 7.38 3.11 8.56
8/20/2022 7:00:00 AM 17.61 63.698 0.157 7.39 3.02 8.65
8/20/2022 7:15:00 AM 17.56 63.608 0.157 7.41 3.2 8.77
8/20/2022 7:30:00 AM 17.53 63.554 0.157 7.43 2.99 8.87
8/20/2022 7:45:00 AM 17.52 63.536 0.157 7.45 3.35 9
8/20/2022 8:00:00 AM 17.55 63.59 0.156 7.48 2.86 9.17
8/20/2022 8:15:00 AM 17.59 63.662 0.156 7.51 2.62 9.29
8/20/2022 8:30:00 AM 17.63 63.734 0.156 7.54 2.82 9.38
8/20/2022 8:45:00 AM 17.74 63.932 0.156 7.57 2.65 9.45
8/20/2022 9:00:00 AM 17.92 64.256 0.155 7.6 2.71 9.55
8/20/2022 9:15:00 AM 18.07 64.526 0.155 7.65 2.66 9.65
8/20/2022 9:30:00 AM 18.32 64.976 0.155 7.68 2.57 9.7
8/20/2022 9:45:00 AM 18.58 65.444 0.155 7.73 3.11 9.74
8/20/2022 10:00:00 AM 18.89 66.002 0.155 7.77 2.89 9.79
8/20/2022 10:15:00 AM 19.18 66.524 0.155 7.82 2.67 9.79
8/20/2022 10:30:00 AM 19.46 67.028 0.154 7.86 2.61 9.83
8/20/2022 10:45:00 AM 19.76 67.568 0.154 7.9 2.79 9.82
8/20/2022 11:00:00 AM 20.06 68.108 0.154 7.94 2.57 9.83
8/20/2022 11:15:00 AM 20.23 68.414 0.154 7.96 2.76 9.77
8/20/2022 11:30:00 AM 20.52 68.936 0.154 8.01 3.09 9.79
8/20/2022 11:45:00 AM 20.68 69.224 0.154 8.06 2.69 9.74
8/20/2022 12:00:00 PM 20.78 69.404 0.154 8.1 2.7 9.77
8/20/2022 12:15:00 PM 21.07 69.926 0.154 8.15 2.96 9.8
8/20/2022 12:30:00 PM 21.11 69.998 0.154 8.15 5.81 9.69
8/20/2022 12:45:00 PM 21.48 70.664 0.153 8.27 2.82 9.87
8/20/2022 1:00:00 PM 21.64 70.952 0.153 8.34 2.68 9.85
8/20/2022 1:15:00 PM 22 71.6 0.153 8.41 2.84 9.86
8/20/2022 1:30:00 PM 22.14 71.852 0.153 8.45 4 9.81
8/20/2022 1:45:00 PM 22.46 72.42799 0.152 8.5 3.07 9.78
8/20/2022 2:00:00 PM 22.59 72.662 0.152 8.53 2.92 9.7
8/20/2022 2:15:00 PM 22.98 73.364 0.152 8.59 2.87 9.7
8/20/2022 2:30:00 PM 22.86 73.148 0.151 8.57 3.18 9.47
8/20/2022 2:45:00 PM 22.77 72.986 0.151 8.57 2.67 9.44
8/20/2022 3:00:00 PM 22.62 72.716 0.151 8.55 2.52 9.27
8/20/2022 3:15:00 PM 22.67 72.806 0.151 8.56 2.78 9.24
8/20/2022 3:30:00 PM 22.76 72.968 0.151 8.55 3.1 9.1
8/20/2022 3:45:00 PM 23.05 73.49 0.151 8.6 2.82 9.23
8/20/2022 4:00:00 PM 23.18 73.724 0.151 8.64 3.01 9.25
8/20/2022 4:15:00 PM 23.28 73.904 0.151 8.65 3.03 9.23
8/20/2022 4:30:00 PM 23.28 73.904 0.151 8.64 2.99 9.04
8/20/2022 4:45:00 PM 23.38 74.084 0.151 8.65 3.23 9.05
8/20/2022 5:00:00 PM 23.72 74.696 0.151 8.71 3.46 9.09
8/20/2022 5:15:00 PM 23.74 74.732 0.151 8.66 2.71 8.9
8/20/2022 5:30:00 PM 23.82 74.876 0.152 8.63 3 8.82
8/20/2022 5:45:00 PM 23.75 74.75 0.152 8.58 2.89 8.66
8/20/2022 6:00:00 PM 23.68 74.624 0.152 8.51 2.73 8.53
8/20/2022 6:15:00 PM 23.66 74.588 0.152 8.41 3.06 8.35
8/20/2022 6:30:00 PM 23.63 74.534 0.153 8.31 3.24 8.22
8/20/2022 6:45:00 PM 23.64 74.552 0.153 8.21 3.02 8.1
8/20/2022 7:00:00 PM 23.63 74.534 0.154 8.08 2.85 7.95
8/20/2022 7:15:00 PM 23.56 74.408 0.155 7.94 3.21 7.78
8/20/2022 7:30:00 PM 23.47 74.246 0.156 7.81 3.17 7.61
8/20/2022 7:45:00 PM 23.34 74.012 0.157 7.7 3.34 7.51
8/20/2022 8:00:00 PM 23.21 73.778 0.158 7.62 3.06 7.38
8/20/2022 8:15:00 PM 23.08 73.544 0.158 7.56 2.89 7.32
8/20/2022 8:30:00 PM 22.95 73.31 0.158 7.51 3.01 7.28
8/20/2022 8:45:00 PM 22.82 73.076 0.16 7.48 3.3 7.25
8/20/2022 9:00:00 PM 22.67 72.806 0.16 7.46 3.23 7.19
8/20/2022 9:15:00 PM 22.52 72.536 0.161 7.44 3.68 7.24
8/20/2022 9:30:00 PM 22.36 72.248 0.161 7.43 3.81 7.25
8/20/2022 9:45:00 PM 22.2 71.96 0.161 7.42 3.08 7.31
8/20/2022 10:00:00 PM 22.05 71.69 0.161 7.41 3.21 7.33
8/20/2022 10:15:00 PM 21.89 71.402 0.161 7.4 3.36 7.37
8/20/2022 10:30:00 PM 21.74 71.132 0.161 7.4 3.43 7.39
8/20/2022 10:45:00 PM 21.59 70.862 0.161 7.39 3.05 7.44
8/20/2022 11:00:00 PM 21.45 70.61 0.161 7.39 3.15 7.47
8/20/2022 11:15:00 PM 21.31 70.358 0.161 7.38 3.51 7.5
8/20/2022 11:30:00 PM 21.17 70.106 0.161 7.38 3.77 7.53
8/20/2022 11:45:00 PM 21.04 69.872 0.16 7.38 3.17 7.57
8/21/2022 12:00:00 AM 20.91 69.638 0.16 7.37 3.16 7.6
8/21/2022 12:15:00 AM 20.79 69.422 0.16 7.37 3.18 7.63
8/21/2022 12:30:00 AM 20.68 69.224 0.16 7.37 3.11 7.65
8/21/2022 12:45:00 AM 20.56 69.008 0.16 7.37 3.57 7.67
8/21/2022 1:00:00 AM 20.45 68.81 0.16 7.37 3.12 7.7
8/21/2022 1:15:00 AM 20.34 68.612 0.16 7.36 3.09 7.71
8/21/2022 1:30:00 AM 20.24 68.432 0.16 7.36 3.01 7.76
8/21/2022 1:45:00 AM 20.14 68.252 0.159 7.36 3.11 7.8
8/21/2022 2:00:00 AM 20.06 68.108 0.159 7.36 3.1 7.81
8/21/2022 2:15:00 AM 19.97 67.946 0.159 7.36 4.23 7.8
8/21/2022 2:30:00 AM 19.89 67.802 0.159 7.36 2.9 7.85
8/21/2022 2:45:00 AM 19.81 67.658 0.159 7.36 3.09 7.85
8/21/2022 3:00:00 AM 19.74 67.532 0.159 7.36 2.94 7.88
8/21/2022 3:15:00 AM 19.68 67.424 0.159 7.36 2.97 7.9
8/21/2022 3:30:00 AM 19.63 67.334 0.159 7.36 2.89 7.93
8/21/2022 3:45:00 AM 19.58 67.244 0.159 7.35 2.87 7.94
8/21/2022 4:00:00 AM 19.52 67.136 0.158 7.35 2.98 7.96
8/21/2022 4:30:00 AM 19.41 66.938 0.158 7.35 2.77 7.99
8/21/2022 4:45:00 AM 19.38 66.884 0.158 7.35 3.48 7.98
8/21/2022 5:00:00 AM 19.33 66.794 0.158 7.35 3.77 7.99
8/21/2022 5:15:00 AM 19.29 66.722 0.158 7.35 3.26 8.01
8/21/2022 5:30:00 AM 19.25 66.65 0.158 7.35 3.3 8.02
8/21/2022 5:45:00 AM 19.21 66.578 0.158 7.35 3.01 8.01
8/21/2022 6:00:00 AM 19.18 66.524 0.157 7.35 2.95 8.04
8/21/2022 6:15:00 AM 19.14 66.452 0.157 7.34 3.5 8.01
8/21/2022 6:30:00 AM 19.11 66.398 0.157 7.34 3.18 8.03
8/21/2022 6:45:00 AM 19.08 66.344 0.157 7.34 3.68 8.06
8/21/2022 7:00:00 AM 19.05 66.29 0.157 7.35 3.08 8.11
8/21/2022 7:15:00 AM 19.04 66.272 0.156 7.36 3.21 8.2
8/21/2022 7:30:00 AM 19.04 66.272 0.156 7.38 2.84 8.27
8/21/2022 7:45:00 AM 19.05 66.29 0.156 7.39 3.31 8.35
8/21/2022 8:00:00 AM 19.07 66.326 0.156 7.41 2.83 8.46
8/21/2022 8:15:00 AM 19.08 66.344 0.156 7.42 2.98 8.49
8/21/2022 8:30:00 AM 19.11 66.398 0.155 7.44 3.19 8.61
8/21/2022 8:45:00 AM 19.18 66.524 0.154 7.49 2.75 8.85
8/21/2022 9:00:00 AM 19.25 66.65 0.154 7.53 4.26 9
8/21/2022 9:15:00 AM 19.31 66.758 0.154 7.57 3.14 9.14
8/21/2022 9:30:00 AM 19.42 66.956 0.153 7.62 3.09 9.26
8/21/2022 9:45:00 AM 19.5 67.1 0.153 7.67 3.07 9.32
8/21/2022 10:00:00 AM 19.63 67.334 0.153 7.7 3.69 9.4
8/21/2022 10:15:00 AM 19.79 67.622 0.152 7.79 2.96 9.56
8/21/2022 10:30:00 AM 19.97 67.946 0.152 7.87 3.72 9.67
8/21/2022 10:45:00 AM 20.12 68.216 0.152 7.98 2.87 9.72
8/21/2022 11:00:00 AM 20.27 68.486 0.151 8.01 3.53 9.79
8/21/2022 11:15:00 AM 20.57 69.026 0.151 8.11 2.79 9.84
8/21/2022 11:30:00 AM 21 69.8 0.151 8.21 2.92 9.93
8/21/2022 11:45:00 AM 21.13 70.034 0.15 8.27 3.34 9.87
8/21/2022 12:00:00 PM 21.29 70.32201 0.15 8.33 2.89 9.85
8/21/2022 12:15:00 PM 21.35 70.43 0.15 8.38 3.94 9.82
8/21/2022 12:30:00 PM 21.32 70.376 0.15 8.35 2.85 9.61
8/21/2022 12:45:00 PM 21.33 70.394 0.15 8.26 3.14 9.36
8/21/2022 1:00:00 PM 21.41 70.538 0.149 8.33 3.1 9.42
8/21/2022 1:15:00 PM 21.4 70.52 0.149 8.3 3.73 9.29
8/21/2022 1:30:00 PM 21.35 70.43 0.149 8.27 2.81 9.28
8/21/2022 1:45:00 PM 21.26 70.268 0.15 8.18 2.81 9.03
8/21/2022 2:00:00 PM 21.16 70.088 0.147 7.95 3.45 8.66
8/21/2022 2:15:00 PM 20.92 69.656 0.133 7.64 7.24 8.44
8/21/2022 2:30:00 PM 20.8 69.44 0.133 7.57 6.9 8.27
8/21/2022 2:45:00 PM 20.7 69.26 0.129 7.52 6.47 8.19
8/21/2022 3:00:00 PM 20.61 69.098 0.127 7.48 5.77 8.14
8/21/2022 3:15:00 PM 20.52 68.936 0.127 7.45 5.22 8.12
8/21/2022 3:30:00 PM 20.45 68.81 0.126 7.43 5.55 8.13
8/21/2022 3:45:00 PM 20.38 68.684 0.126 7.42 6.18 8.21
8/21/2022 4:00:00 PM 20.35 68.63 0.127 7.44 6.29 8.36
8/21/2022 4:15:00 PM 20.44 68.792 0.129 7.5 7.72 8.66
8/21/2022 4:30:00 PM 20.47 68.846 0.131 7.55 7.48 8.82
8/21/2022 4:45:00 PM 20.5 68.9 0.133 7.6 5.03 8.92
8/21/2022 5:00:00 PM 20.6 69.08 0.133 7.67 4.78 9.08
8/21/2022 5:15:00 PM 20.88 69.584 0.133 7.75 4.77 9.23
8/21/2022 5:30:00 PM 20.94 69.692 0.133 7.79 4.93 9.22
8/21/2022 5:45:00 PM 21 69.8 0.132 7.84 6.01 9.24
8/21/2022 6:00:00 PM 21 69.8 0.134 7.8 4.62 9.07
8/21/2022 6:15:00 PM 21.05 69.89 0.134 7.77 4.3 8.95
8/21/2022 6:30:00 PM 21.08 69.944 0.135 7.73 4.29 8.82
8/21/2022 6:45:00 PM 21.08 69.944 0.136 7.69 4.19 8.69
8/21/2022 7:00:00 PM 21.05 69.89 0.137 7.64 4.48 8.51
8/21/2022 7:15:00 PM 20.99 69.782 0.139 7.6 4.26 8.41
8/21/2022 7:30:00 PM 20.9 69.62 0.141 7.56 4.23 8.31
8/21/2022 7:45:00 PM 20.79 69.422 0.144 7.53 3.82 8.25
8/21/2022 8:00:00 PM 20.68 69.224 0.145 7.5 3.95 8.18
8/21/2022 8:15:00 PM 20.56 69.008 0.147 7.48 6.11 8.14
8/21/2022 8:30:00 PM 20.46 68.828 0.148 7.46 4.3 8.13
8/21/2022 8:45:00 PM 20.38 68.684 0.15 7.45 4.2 8.13
8/21/2022 9:00:00 PM 20.31 68.558 0.15 7.44 4.42 8.13
8/21/2022 9:15:00 PM 20.26 68.468 0.151 7.43 4.31 8.13
8/21/2022 9:30:00 PM 20.21 68.378 0.15 7.44 4.65 8.18
8/21/2022 9:45:00 PM 20.18 68.324 0.15 7.44 4.89 8.23
8/21/2022 10:00:00 PM 20.16 68.288 0.15 7.44 4.97 8.26
8/21/2022 10:15:00 PM 20.13 68.234 0.149 7.44 4.91 8.27
8/21/2022 10:30:00 PM 20.1 68.18 0.149 7.43 5.58 8.28
8/21/2022 10:45:00 PM 20.06 68.108 0.149 7.43 4.92 8.29
8/21/2022 11:00:00 PM 20.01 68.018 0.149 7.44 5.81 8.36
8/21/2022 11:15:00 PM 19.95 67.91 0.148 7.45 8.74 8.44
8/21/2022 11:30:00 PM 19.89 67.802 0.147 7.45 8.71 8.46
8/21/2022 11:45:00 PM 19.83 67.694 0.146 7.44 8.95 8.48
8/22/2022 12:00:00 AM 19.78 67.604 0.142 7.44 7.15 8.51
8/22/2022 12:15:00 AM 19.72 67.496 0.138 7.43 8.17 8.51
8/22/2022 12:30:00 AM 19.64 67.352 0.134 7.42 6.74 8.54
8/22/2022 12:45:00 AM 19.58 67.244 0.133 7.41 6.86 8.55
8/22/2022 1:00:00 AM 19.53 67.154 0.134 7.41 6.72 8.56
8/22/2022 1:15:00 AM 19.49 67.082 0.136 7.41 6 8.56
8/22/2022 1:30:00 AM 19.47 67.046 0.139 7.41 6.48 8.56
8/22/2022 1:45:00 AM 19.47 67.046 0.141 7.42 6.19 8.55
8/22/2022 2:00:00 AM 19.47 67.046 0.143 7.43 6.08 8.55
8/22/2022 2:15:00 AM 19.47 67.046 0.145 7.43 5.71 8.54
8/22/2022 2:30:00 AM 19.47 67.046 0.145 7.43 5.45 8.54
8/22/2022 2:45:00 AM 19.46 67.028 0.146 7.43 5.56 8.54
8/22/2022 3:00:00 AM 19.45 67.01 0.147 7.43 5.51 8.54
8/22/2022 3:15:00 AM 19.44 66.992 0.147 7.43 5.36 8.54
8/22/2022 3:30:00 AM 19.43 66.974 0.148 7.43 5.18 8.53
8/22/2022 3:45:00 AM 19.42 66.956 0.149 7.43 4.94 8.53
8/22/2022 4:00:00 AM 19.4 66.92 0.148 7.43 5.51 8.54
8/22/2022 4:15:00 AM 19.38 66.884 0.147 7.43 5.17 8.54
8/22/2022 4:30:00 AM 19.37 66.866 0.147 7.42 5.52 8.53
8/22/2022 4:45:00 AM 19.35 66.83 0.146 7.41 4.81 8.52
8/22/2022 5:00:00 AM 19.33 66.794 0.146 7.42 4.56 8.52
8/22/2022 5:15:00 AM 19.31 66.758 0.146 7.43 4.66 8.52
8/22/2022 5:30:00 AM 19.28 66.704 0.147 7.43 4.56 8.52
8/22/2022 5:45:00 AM 19.26 66.668 0.148 7.44 4.68 8.53
8/22/2022 6:00:00 AM 19.23 66.614 0.148 7.44 4.67 8.52
8/22/2022 6:15:00 AM 19.2 66.56 0.148 7.44 5.19 8.53
8/22/2022 6:30:00 AM 19.18 66.524 0.149 7.44 4.87 8.55
8/22/2022 6:45:00 AM 19.15 66.47 0.149 7.44 5.47 8.56
8/22/2022 7:00:00 AM 19.14 66.452 0.15 7.45 4.75 8.59
8/22/2022 7:15:00 AM 19.12 66.416 0.15 7.46 4.71 8.63
8/22/2022 7:30:00 AM 19.12 66.416 0.151 7.47 4.7 8.68
8/22/2022 7:45:00 AM 19.13 66.434 0.152 7.49 4.92 8.75
8/22/2022 8:00:00 AM 19.16 66.488 0.152 7.52 4.85 8.88
8/22/2022 8:15:00 AM 19.2 66.56 0.153 7.56 4.22 9
8/22/2022 8:30:00 AM 19.23 66.614 0.153 7.59 3.94 9.04
8/22/2022 8:45:00 AM 19.31 66.758 0.152 7.63 4.06 9.17
8/22/2022 9:00:00 AM 19.4 66.92 0.152 7.68 4.13 9.3
8/22/2022 9:15:00 AM 19.54 67.172 0.151 7.74 4.22 9.42
8/22/2022 9:30:00 AM 19.56 67.208 0.151 7.76 4.16 9.4
8/22/2022 9:45:00 AM 19.63 67.334 0.151 7.8 4 9.44
8/22/2022 10:00:00 AM 19.73 67.514 0.151 7.85 4.07 9.51
8/22/2022 10:15:00 AM 19.8 67.64 0.152 7.87 3.92 9.47
8/22/2022 10:30:00 AM 19.82 67.676 0.152 7.84 3.93 9.32
8/22/2022 10:45:00 AM 19.88 67.784 0.152 7.82 3.63 9.28
8/22/2022 11:00:00 AM 20.01 68.018 0.152 7.89 3.85 9.41
8/22/2022 11:15:00 AM 20.14 68.252 0.152 7.95 3.53 9.51
8/22/2022 11:30:00 AM 20.24 68.432 0.153 7.99 3.63 9.5
8/22/2022 11:45:00 AM 20.36 68.648 0.152 8.04 4.16 9.57
8/22/2022 12:00:00 PM 20.62 69.116 0.153 8.12 3.43 9.62
8/22/2022 12:15:00 PM 20.8 69.44 0.152 8.2 3.54 9.68
8/22/2022 12:30:00 PM 21.1 69.98 0.153 8.27 3.3 9.71
8/22/2022 12:45:00 PM 21.25 70.25 0.153 8.31 3.51 9.64
8/22/2022 1:00:00 PM 21.29 70.32201 0.153 8.34 3.77 9.6
8/22/2022 1:15:00 PM 21.37 70.466 0.153 8.36 3.42 9.58
8/22/2022 1:30:00 PM 21.68 71.024 0.153 8.38 3.74 9.56
8/22/2022 1:45:00 PM 21.82 71.276 0.153 8.36 3.48 9.46
8/22/2022 2:00:00 PM 22.08 71.744 0.152 8.37 3.39 9.41
8/22/2022 2:15:00 PM 22.1 71.78 0.152 8.33 3.31 9.31
8/22/2022 2:30:00 PM 22.44 72.392 0.152 8.37 3.39 9.35
8/22/2022 2:45:00 PM 22.51 72.518 0.152 8.37 3.76 9.26
8/22/2022 3:00:00 PM 22.83 73.094 0.152 8.39 3.54 9.25
8/22/2022 3:15:00 PM 23.02 73.436 0.152 8.4 3.6 9.19
8/22/2022 3:30:00 PM 22.99 73.382 0.152 8.36 3.62 9.05
8/22/2022 3:45:00 PM 23.05 73.49 0.152 8.33 3.31 8.98
8/22/2022 4:00:00 PM 23.25 73.85 0.152 8.38 3.44 9.05
8/22/2022 4:15:00 PM 23.55 74.39 0.152 8.45 3.53 9.15
8/22/2022 4:30:00 PM 23.53 74.354 0.152 8.46 3.34 9.08
8/22/2022 4:45:00 PM 23.35 74.03 0.152 8.35 3.35 8.83
8/22/2022 5:00:00 PM 23.49 74.282 0.152 8.36 3.66 8.89
8/22/2022 5:15:00 PM 23.48 74.264 0.152 8.31 3.51 8.78
8/22/2022 5:30:00 PM 23.48 74.264 0.153 8.27 3.71 8.74
8/22/2022 5:45:00 PM 23.45 74.21 0.153 8.22 3.62 8.68
8/22/2022 6:00:00 PM 23.38 74.084 0.153 8.16 3.72 8.64
8/22/2022 6:15:00 PM 23.28 73.904 0.154 8.07 3.47 8.51
8/22/2022 6:30:00 PM 23.16 73.688 0.154 7.98 3.79 8.42
8/22/2022 6:45:00 PM 23.01 73.418 0.154 7.89 3.74 8.36
8/22/2022 7:00:00 PM 22.85 73.13 0.155 7.82 3.65 8.28
8/22/2022 7:15:00 PM 22.72 72.896 0.155 7.75 3.62 8.24
8/22/2022 7:30:00 PM 22.59 72.662 0.156 7.7 3.58 8.14
8/22/2022 7:45:00 PM 22.45 72.41 0.157 7.64 3.71 8.04
8/22/2022 8:00:00 PM 22.29 72.122 0.157 7.59 3.87 7.98
8/22/2022 8:15:00 PM 22.14 71.852 0.157 7.55 4.22 7.94
8/22/2022 8:30:00 PM 22.01 71.618 0.158 7.53 4.1 7.92
8/22/2022 8:45:00 PM 21.87 71.366 0.158 7.5 4.31 7.91
8/22/2022 9:00:00 PM 21.76 71.168 0.158 7.49 4.2 7.91
8/22/2022 9:15:00 PM 21.66 70.988 0.158 7.48 4.06 7.92
8/22/2022 9:30:00 PM 21.56 70.808 0.158 7.47 3.91 7.93
8/22/2022 9:45:00 PM 21.48 70.664 0.158 7.46 4.08 7.94
8/22/2022 10:00:00 PM 21.4 70.52 0.158 7.46 4.14 7.96
8/22/2022 10:15:00 PM 21.32 70.376 0.158 7.45 4.8 7.98
8/22/2022 10:30:00 PM 21.24 70.232 0.159 7.45 4.78 7.98
8/22/2022 10:45:00 PM 21.16 70.088 0.159 7.45 3.9 8
8/22/2022 11:00:00 PM 21.09 69.962 0.159 7.44 4.04 8
8/22/2022 11:15:00 PM 21 69.8 0.159 7.44 3.74 8.03
8/22/2022 11:30:00 PM 20.92 69.656 0.159 7.44 3.9 8.04
8/22/2022 11:45:00 PM 20.83 69.494 0.159 7.44 3.69 8.05
8/23/2022 12:00:00 AM 20.74 69.332 0.159 7.43 3.88 8.06
8/23/2022 12:15:00 AM 20.66 69.188 0.159 7.43 3.96 8.08
8/23/2022 12:30:00 AM 20.58 69.044 0.159 7.43 4.21 8.08
8/23/2022 12:45:00 AM 20.5 68.9 0.159 7.43 4.83 8.1
8/23/2022 1:00:00 AM 20.41 68.738 0.158 7.43 3.81 8.06
8/23/2022 1:15:00 AM 20.33 68.594 0.158 7.43 3.63 8.14
8/23/2022 1:30:00 AM 20.26 68.468 0.158 7.43 3.83 8.15
8/23/2022 1:45:00 AM 20.2 68.36 0.158 7.43 3.71 8.16
8/23/2022 2:00:00 AM 20.13 68.234 0.158 7.43 7.56 8.17
8/23/2022 2:15:00 AM 20.07 68.126 0.158 7.43 4.05 8.19
8/23/2022 2:30:00 AM 20.03 68.054 0.158 7.43 8.43 8.2
8/23/2022 2:45:00 AM 19.99 67.982 0.159 7.43 4.38 8.2
8/23/2022 3:00:00 AM 19.95 67.91 0.159 7.43 4.12 8.21
8/23/2022 3:15:00 AM 19.91 67.838 0.159 7.43 5.58 8.21
8/23/2022 3:30:00 AM 19.88 67.784 0.159 7.43 4.07 8.22
8/23/2022 3:45:00 AM 19.85 67.73 0.159 7.43 3.73 8.24
8/23/2022 4:00:00 AM 19.82 67.676 0.159 7.43 3.9 8.23
8/23/2022 4:15:00 AM 19.79 67.622 0.159 7.43 3.88 8.26
8/23/2022 4:30:00 AM 19.76 67.568 0.159 7.43 3.8 8.25
8/23/2022 4:45:00 AM 19.73 67.514 0.159 7.43 3.61 8.26
8/23/2022 5:00:00 AM 19.7 67.46 0.159 7.43 3.71 8.26
8/23/2022 5:15:00 AM 19.67 67.406 0.159 7.43 3.86 8.27
8/23/2022 5:30:00 AM 19.65 67.37 0.159 7.43 4.03 8.28
8/23/2022 5:45:00 AM 19.63 67.334 0.159 7.43 4.08 8.29
8/23/2022 6:00:00 AM 19.6 67.28 0.159 7.43 3.85 8.29
8/23/2022 6:15:00 AM 19.58 67.244 0.159 7.43 4.1 8.29
8/23/2022 6:30:00 AM 19.56 67.208 0.159 7.43 4.01 8.29
8/23/2022 6:45:00 AM 19.54 67.172 0.159 7.43 4.12 8.31
8/23/2022 7:00:00 AM 19.52 67.136 0.159 7.44 4.35 8.38
8/23/2022 7:15:00 AM 19.52 67.136 0.159 7.46 4.44 8.44
8/23/2022 7:30:00 AM 19.53 67.154 0.159 7.48 4 8.53
8/23/2022 7:45:00 AM 19.53 67.154 0.159 7.49 3.85 8.57
8/23/2022 8:00:00 AM 19.54 67.172 0.159 7.5 3.86 8.62
8/23/2022 8:15:00 AM 19.58 67.244 0.159 7.54 5.05 8.79
8/23/2022 8:30:00 AM 19.64 67.352 0.159 7.58 4.08 8.96
8/23/2022 8:45:00 AM 19.72 67.496 0.158 7.64 3.66 9.13
8/23/2022 9:00:00 AM 19.81 67.658 0.158 7.69 3.29 9.22
8/23/2022 9:15:00 AM 20 68 0.158 7.78 3.73 9.41
8/23/2022 9:30:00 AM 20.06 68.108 0.157 7.85 3.6 9.49
8/23/2022 9:45:00 AM 20.09 68.162 0.157 7.91 3.5 9.55
8/23/2022 10:00:00 AM 20.15 68.27 0.157 7.96 3.66 9.58
8/23/2022 10:15:00 AM 20.22 68.396 0.157 8.04 3.62 9.65
8/23/2022 10:30:00 AM 20.28 68.504 0.157 8.08 3.57 9.65
8/23/2022 10:45:00 AM 20.39 68.702 0.156 8.15 3.73 9.69
8/23/2022 11:00:00 AM 20.5 68.9 0.156 8.15 3.55 9.61
8/23/2022 11:15:00 AM 20.81 69.458 0.156 8.24 3.72 9.69
8/23/2022 11:30:00 AM 20.85 69.53 0.156 8.23 3.69 9.52
8/23/2022 11:45:00 AM 20.92 69.656 0.156 8.16 3.51 9.4
8/23/2022 12:00:00 PM 21.35 70.43 0.156 8.26 3.76 9.52
8/23/2022 12:15:00 PM 21.47 70.646 0.156 8.24 3.5 9.51
8/23/2022 12:30:00 PM 21.85 71.33 0.156 8.33 3.25 9.56
8/23/2022 12:45:00 PM 21.81 71.258 0.156 8.33 3.11 9.42
8/23/2022 1:00:00 PM 21.96 71.528 0.156 8.38 3.59 9.5
8/23/2022 1:15:00 PM 21.95 71.51 0.156 8.44 3.79 9.49
8/23/2022 1:30:00 PM 21.89 71.402 0.156 8.44 3.81 9.4
8/23/2022 1:45:00 PM 21.73 71.114 0.156 8.39 3.4 9.24
8/23/2022 2:00:00 PM 21.75 71.15 0.155 8.4 3.46 9.24
8/23/2022 2:15:00 PM 21.8 71.24 0.156 8.42 3.78 9.25
8/23/2022 2:30:00 PM 21.79 71.222 0.155 8.39 3.55 9.15
8/23/2022 2:45:00 PM 21.87 71.366 0.155 8.46 3.09 9.24
8/23/2022 3:00:00 PM 22.04 71.672 0.155 8.52 3.85 9.37
8/23/2022 3:15:00 PM 22.48 72.464 0.155 8.6 9.32 9.51
8/23/2022 3:30:00 PM 22.82 73.076 0.155 8.66 10.88 9.5
8/23/2022 3:45:00 PM 22.77 72.986 0.156 8.65 12.16 9.27
8/23/2022 4:00:00 PM 22.59 72.662 0.156 8.5 3.59 8.85
8/23/2022 4:15:00 PM 22.88 73.184 0.156 8.5 3.56 8.93
8/23/2022 4:30:00 PM 22.93 73.274 0.157 8.48 3.36 8.86
8/23/2022 4:45:00 PM 22.88 73.184 0.157 8.4 3.56 8.72
8/23/2022 5:00:00 PM 22.94 73.292 0.157 8.31 3.44 8.54
8/23/2022 5:15:00 PM 22.96 73.328 0.158 8.18 3.03 8.43
8/23/2022 5:30:00 PM 22.97 73.346 0.158 8.19 3.66 8.62
8/23/2022 5:45:00 PM 22.95 73.31 0.158 8.21 3.48 8.77
8/23/2022 6:00:00 PM 22.83 73.094 0.158 8.16 3.7 8.69
8/23/2022 6:15:00 PM 22.71 72.878 0.158 8.06 3.36 8.56
8/23/2022 6:30:00 PM 22.58 72.644 0.159 7.99 4.75 8.38
8/23/2022 6:45:00 PM 22.48 72.464 0.159 7.89 3.67 8.35
8/23/2022 7:00:00 PM 22.38 72.284 0.159 7.84 3.63 8.3
8/23/2022 7:15:00 PM 22.28 72.104 0.16 7.77 3.78 8.14
8/23/2022 7:30:00 PM 22.19 71.942 0.16 7.71 6.5 8.15
8/23/2022 7:45:00 PM 22.07 71.726 0.161 7.66 3.8 8.06
8/23/2022 8:00:00 PM 21.96 71.528 0.161 7.62 3.79 7.97
8/23/2022 8:15:00 PM 21.85 71.33 0.162 7.58 4.27 7.89
8/23/2022 8:30:00 PM 21.75 71.15 0.162 7.55 3.9 7.88
8/23/2022 8:45:00 PM 21.62 70.916 0.162 7.53 4.02 7.86
8/23/2022 9:00:00 PM 21.49 70.682 0.162 7.51 4 7.87
8/23/2022 9:15:00 PM 21.36 70.448 0.162 7.49 4.08 7.9
8/23/2022 9:30:00 PM 21.24 70.232 0.162 7.48 3.64 7.88
8/23/2022 9:45:00 PM 21.12 70.016 0.162 7.47 3.95 7.92
8/23/2022 10:00:00 PM 21.02 69.836 0.162 7.46 4.36 7.92
8/23/2022 10:15:00 PM 20.93 69.674 0.162 7.46 4.84 7.94
8/23/2022 10:30:00 PM 20.86 69.548 0.162 7.46 3.68 7.98
8/23/2022 10:45:00 PM 20.79 69.422 0.162 7.45 3.99 7.98
8/23/2022 11:00:00 PM 20.73 69.314 0.162 7.45 3.52 8
8/23/2022 11:15:00 PM 20.68 69.224 0.162 7.45 4.26 8.01
8/23/2022 11:30:00 PM 20.62 69.116 0.162 7.44 6.82 7.99
8/23/2022 11:45:00 PM 20.57 69.026 0.162 7.44 4.52 8
8/24/2022 12:00:00 AM 20.52 68.936 0.162 7.45 5.02 8
8/24/2022 12:15:00 AM 20.46 68.828 0.162 7.45 5.03 8.05
8/24/2022 12:30:00 AM 20.41 68.738 0.162 7.45 4.49 8.08
8/24/2022 12:45:00 AM 20.35 68.63 0.162 7.44 3.69 8.08
8/24/2022 1:00:00 AM 20.29 68.522 0.162 7.44 3.46 8.1
8/24/2022 1:15:00 AM 20.24 68.432 0.162 7.44 3.79 8.11
8/24/2022 1:30:00 AM 20.19 68.342 0.162 7.44 3.64 8.12
8/24/2022 1:45:00 AM 20.12 68.216 0.162 7.44 4.06 8.14
8/24/2022 2:00:00 AM 20.07 68.126 0.161 7.44 3.47 8.15
8/24/2022 2:15:00 AM 20.01 68.018 0.161 7.44 3.52 8.15
8/24/2022 2:30:00 AM 19.95 67.91 0.161 7.44 4.83 8.16
8/24/2022 2:45:00 AM 19.89 67.802 0.161 7.44 4 8.18
8/24/2022 3:00:00 AM 19.83 67.694 0.161 7.44 3.77 8.2
8/24/2022 3:15:00 AM 19.77 67.586 0.161 7.44 4.03 8.21
8/24/2022 3:30:00 AM 19.71 67.478 0.161 7.44 3.45 8.2
8/24/2022 3:45:00 AM 19.66 67.388 0.161 7.44 3.58 8.24
8/24/2022 4:00:00 AM 19.6 67.28 0.161 7.44 3.67 8.25
8/24/2022 4:15:00 AM 19.55 67.19 0.161 7.43 3.54 8.25
8/24/2022 4:30:00 AM 19.5 67.1 0.161 7.43 3.52 8.27
8/24/2022 4:45:00 AM 19.45 67.01 0.161 7.43 5.06 8.28
8/24/2022 5:00:00 AM 19.39 66.902 0.161 7.44 4.02 8.3
8/24/2022 5:15:00 AM 19.33 66.794 0.161 7.44 3.71 8.31
8/24/2022 5:30:00 AM 19.27 66.686 0.161 7.44 3.88 8.32
8/24/2022 5:45:00 AM 19.21 66.578 0.161 7.44 3.5 8.33
8/24/2022 6:00:00 AM 19.14 66.452 0.161 7.43 3.77 8.35
8/24/2022 6:15:00 AM 19.07 66.326 0.161 7.44 3.8 8.38
8/24/2022 6:30:00 AM 19.01 66.218 0.161 7.44 3.85 8.4
8/24/2022 6:45:00 AM 18.94 66.092 0.161 7.44 4.44 8.44
8/24/2022 7:00:00 AM 18.88 65.984 0.161 7.45 4.48 8.49
8/24/2022 7:15:00 AM 18.82 65.876 0.161 7.47 3.7 8.6
8/24/2022 7:30:00 AM 18.78 65.804 0.161 7.49 4.1 8.72
8/24/2022 7:45:00 AM 18.76 65.768 0.161 7.51 3.76 8.87
8/24/2022 8:00:00 AM 18.73 65.714 0.161 7.54 4.65 8.97
8/24/2022 8:15:00 AM 18.68 65.624 0.161 7.56 3.42 8.99
8/24/2022 8:30:00 AM 18.66 65.588 0.161 7.58 4.2 9.07
8/24/2022 8:45:00 AM 18.72 65.696 0.16 7.61 3.59 9.18
8/24/2022 9:00:00 AM 18.83 65.894 0.16 7.65 3.46 9.32
8/24/2022 9:15:00 AM 18.97 66.146 0.16 7.7 3.44 9.4
8/24/2022 9:30:00 AM 19.1 66.38 0.16 7.74 3.33 9.47
8/24/2022 9:45:00 AM 19.25 66.65 0.16 7.78 3.29 9.51
8/24/2022 10:00:00 AM 19.4 66.92 0.16 7.82 3.27 9.56
8/24/2022 10:15:00 AM 19.55 67.19 0.16 7.86 3.3 9.61
8/24/2022 10:30:00 AM 19.72 67.496 0.16 7.9 3.02 9.64
8/24/2022 10:45:00 AM 19.9 67.82 0.16 7.93 3.27 9.64
8/24/2022 11:00:00 AM 20.07 68.126 0.16 7.97 3.76 9.66
8/24/2022 11:15:00 AM 20.28 68.504 0.16 8.01 3.09 9.68
8/24/2022 11:30:00 AM 20.43 68.774 0.16 8.05 3.07 9.68
8/24/2022 11:45:00 AM 20.67 69.206 0.16 8.1 3.15 9.72
8/24/2022 12:00:00 PM 20.85 69.53 0.16 8.16 2.99 9.76
8/24/2022 12:15:00 PM 20.94 69.692 0.16 8.21 3.05 9.73
8/24/2022 12:30:00 PM 21.2 70.16 0.16 8.26 2.99 9.68
8/24/2022 12:45:00 PM 21.45 70.61 0.16 8.3 3.89 9.7
8/24/2022 1:00:00 PM 21.63 70.934 0.16 8.34 3.45 9.61
8/24/2022 1:15:00 PM 21.51 70.718 0.16 8.34 3.83 9.49
8/24/2022 1:30:00 PM 21.8 71.24 0.16 8.36 3.53 9.5
8/24/2022 1:45:00 PM 22.29 72.122 0.16 8.44 3.5 9.53
8/24/2022 2:00:00 PM 22.37 72.266 0.16 8.44 3.82 9.42
8/24/2022 2:15:00 PM 22.4 72.32 0.16 8.42 3.31 9.29
8/24/2022 2:30:00 PM 22.87 73.166 0.16 8.49 3.61 9.3
8/24/2022 2:45:00 PM 23.17 73.706 0.16 8.52 3.68 9.27
8/24/2022 3:00:00 PM 23.4 74.12 0.16 8.55 3.33 9.26
8/24/2022 3:15:00 PM 23.47 74.246 0.16 8.52 3.43 9.12
8/24/2022 3:30:00 PM 23.74 74.732 0.16 8.54 4.27 9.11
8/24/2022 3:45:00 PM 23.77 74.786 0.161 8.56 3.1 8.99
8/24/2022 4:00:00 PM 23.92 75.056 0.16 8.58 3.81 8.99
8/24/2022 4:15:00 PM 24.03 75.254 0.161 8.58 3.75 8.87
8/24/2022 4:30:00 PM 24.07 75.326 0.161 8.56 4.03 8.68
8/24/2022 4:45:00 PM 24.19 75.542 0.161 8.52 6.63 8.64
8/24/2022 5:00:00 PM 24.32 75.776 0.162 8.53 3.11 8.68
8/24/2022 5:15:00 PM 24.2 75.56 0.162 8.45 3.45 8.52
8/24/2022 5:30:00 PM 24.18 75.524 0.162 8.41 3.17 8.52
8/24/2022 5:45:00 PM 24.07 75.326 0.163 8.33 3.53 8.45
8/24/2022 6:00:00 PM 23.96 75.128 0.163 8.27 3.96 8.39
8/24/2022 6:15:00 PM 23.83 74.894 0.163 8.17 3.75 8.27
8/24/2022 6:30:00 PM 23.73 74.714 0.164 8.08 3.55 8.19
8/24/2022 6:45:00 PM 23.62 74.516 0.164 8 3.71 8.13
8/24/2022 7:00:00 PM 23.45 74.21 0.165 7.9 3.7 8.03
8/24/2022 7:15:00 PM 23.26 73.868 0.165 7.8 3.13 7.92
8/24/2022 7:30:00 PM 23.06 73.508 0.166 7.72 3.38 7.85
8/24/2022 7:45:00 PM 22.85 73.13 0.166 7.67 3.58 7.81
8/24/2022 8:00:00 PM 22.64 72.752 0.167 7.62 3.58 7.76
8/24/2022 8:15:00 PM 22.4 72.32 0.167 7.58 3.51 7.73
8/24/2022 8:30:00 PM 22.16 71.888 0.167 7.55 3.71 7.73
8/24/2022 8:45:00 PM 21.92 71.456 0.167 7.53 3.88 7.74
8/24/2022 9:00:00 PM 21.71 71.078 0.167 7.51 3.89 7.77
8/24/2022 9:15:00 PM 21.51 70.718 0.167 7.49 5.3 7.8
8/24/2022 9:30:00 PM 21.32 70.376 0.167 7.48 3.69 7.82
8/24/2022 9:45:00 PM 21.15 70.07 0.167 7.48 4.09 7.86
8/24/2022 10:00:00 PM 20.99 69.782 0.167 7.47 3.97 7.89
8/24/2022 10:15:00 PM 20.84 69.512 0.167 7.46 3.77 7.91
8/24/2022 10:30:00 PM 20.69 69.242 0.167 7.46 3.59 7.94
8/24/2022 10:45:00 PM 20.55 68.99 0.167 7.45 4.5 7.93
8/24/2022 11:00:00 PM 20.41 68.738 0.166 7.45 3.28 8
8/24/2022 11:15:00 PM 20.28 68.504 0.166 7.44 3.9 8.01
8/24/2022 11:30:00 PM 20.15 68.27 0.166 7.44 3.93 8.05
8/24/2022 11:45:00 PM 20.02 68.036 0.166 7.44 3.43 8.07
8/25/2022 12:00:00 AM 19.9 67.82 0.166 7.44 4.25 8.1
8/25/2022 12:15:00 AM 19.78 67.604 0.166 7.43 3.85 8.12
8/25/2022 12:30:00 AM 19.66 67.388 0.166 7.43 3.43 8.17
8/25/2022 12:45:00 AM 19.52 67.136 0.165 7.43 9.1 8.19
8/25/2022 1:00:00 AM 19.41 66.938 0.166 7.43 4.86 8.21
8/25/2022 1:15:00 AM 19.29 66.722 0.166 7.43 6.24 8.25
8/25/2022 1:30:00 AM 19.18 66.524 0.166 7.43 3.45 8.26
8/25/2022 1:45:00 AM 19.07 66.326 0.166 7.43 3.28 8.29
8/25/2022 2:00:00 AM 18.97 66.146 0.166 7.43 3.36 8.31
8/25/2022 2:15:00 AM 18.86 65.948 0.166 7.42 3.36 8.33
8/25/2022 2:30:00 AM 18.75 65.75 0.165 7.42 3.5 8.38
8/25/2022 2:45:00 AM 18.65 65.57 0.165 7.42 3.25 8.4
8/25/2022 3:00:00 AM 18.56 65.408 0.165 7.42 15.62 8.41
8/25/2022 3:15:00 AM 18.46 65.228 0.165 7.42 3.1 8.44
8/25/2022 3:30:00 AM 18.37 65.066 0.165 7.42 3.11 8.46
8/25/2022 3:45:00 AM 18.28 64.904 0.165 7.42 3.4 8.49
8/25/2022 4:00:00 AM 18.19 64.742 0.165 7.42 3.42 8.49
8/25/2022 4:15:00 AM 18.09 64.562 0.165 7.42 3.83 8.52
8/25/2022 4:30:00 AM 18.01 64.418 0.165 7.42 6.27 8.53
8/25/2022 4:45:00 AM 17.92 64.256 0.165 7.42 3.27 8.55
8/25/2022 5:00:00 AM 17.85 64.13 0.165 7.42 3.2 8.57
8/25/2022 5:15:00 AM 17.76 63.968 0.165 7.42 3.45 8.58
8/25/2022 5:30:00 AM 17.68 63.824 0.165 7.42 6.17 8.62
8/25/2022 5:45:00 AM 17.61 63.698 0.165 7.42 7.24 8.63
8/25/2022 6:00:00 AM 17.54 63.572 0.165 7.41 6.81 8.64
8/25/2022 6:15:00 AM 17.46 63.428 0.165 7.41 5.21 8.68
8/25/2022 6:30:00 AM 17.38 63.284 0.165 7.41 14.79 8.7
8/25/2022 6:45:00 AM 17.31 63.158 0.165 7.42 17.03 8.74
8/25/2022 7:00:00 AM 17.24 63.032 0.165 7.42 10.53 8.8
8/25/2022 7:15:00 AM 17.19 62.942 0.165 7.44 3.57 8.9
8/25/2022 7:30:00 AM 17.15 62.87 0.164 7.46 3.35 8.99
8/25/2022 7:45:00 AM 17.12 62.816 0.164 7.48 3.27 9.11
8/25/2022 8:00:00 AM 17.11 62.798 0.164 7.5 3.18 9.23
8/25/2022 8:15:00 AM 17.09 62.762 0.164 7.52 3.26 9.28
8/25/2022 8:30:00 AM 17.1 62.78 0.164 7.54 3.34 9.34
8/25/2022 8:45:00 AM 17.2 62.96 0.164 7.57 3.96 9.41
8/25/2022 9:00:00 AM 17.36 63.248 0.164 7.61 3.62 9.59
8/25/2022 9:15:00 AM 17.54 63.572 0.163 7.64 3.42 9.66
8/25/2022 9:30:00 AM 17.71 63.878 0.163 7.69 3.12 9.75
8/25/2022 9:45:00 AM 17.93 64.274 0.163 7.73 3.19 9.77
8/25/2022 10:00:00 AM 18.16 64.688 0.163 7.78 3.58 9.84
8/25/2022 10:15:00 AM 18.39 65.102 0.163 7.81 3.19 9.85
8/25/2022 10:30:00 AM 18.61 65.498 0.163 7.85 4.34 9.86
8/25/2022 10:45:00 AM 18.87 65.966 0.163 7.88 2.87 9.9
8/25/2022 11:00:00 AM 19.1 66.38 0.163 7.92 2.94 9.88
8/25/2022 11:15:00 AM 19.35 66.83 0.163 7.96 2.83 9.87
8/25/2022 11:30:00 A